<?xml version="1.0" encoding="UTF-8"?>
<gpx version="1.1" creator="Garmin Connect"
  xsi:schemaLocation="http://www.topografix.com/GPX/1/1 http://www.topografix.com/GPX/1/1/gpx.xsd http://www.garmin.com/xmlschemas/GpxExtensions/v3 http://www.garmin.com/xmlschemas/GpxExtensionsv3.xsd http://www.garmin.com/xmlschemas/TrackPointExtension/v1 http://www.garmin.com/xmlschemas/TrackPointExtensionv1.xsd"
  xmlns="http://www.topografix.com/GPX/1/1"
  xmlns:gpxtpx="http://www.garmin.com/xmlschemas/TrackPointExtension/v1"
  xmlns:gpxx="http://www.garmin.com/xmlschemas/GpxExtensions/v3" xmlns:xsi="http://www.w3.org/2001/XMLSchema-instance">
  <metadata>
    <link href="connect.garmin.com">
      <text>Garmin Connect</text>
    </link>
    <time>2013-04-07T06:21:55.000Z</time>
  </metadata>
  <trk>
    <name>passerelle a Farinet ( saillon)</name>
    <trkseg>
      <trkpt lon="7.116710962727666" lat="46.13766993395984">
        <ele>461.79998779296875</ele>
        <time>2013-04-07T06:21:55.000Z</time>
      </trkpt>
      <trkpt lon="7.11672093719244" lat="46.137829944491386">
        <ele>461.6000061035156</ele>
        <time>2013-04-07T06:22:05.000Z</time>
      </trkpt>
      <trkpt lon="7.116839960217476" lat="46.13800294697285">
        <ele>461.3999938964844</ele>
        <time>2013-04-07T06:22:12.000Z</time>
      </trkpt>
      <trkpt lon="7.116981949657202" lat="46.1381849180907">
        <ele>461.20001220703125</ele>
        <time>2013-04-07T06:22:20.000Z</time>
      </trkpt>
      <trkpt lon="7.117168949916959" lat="46.13836999051273">
        <ele>461.20001220703125</ele>
        <time>2013-04-07T06:22:28.000Z</time>
      </trkpt>
      <trkpt lon="7.117403978481889" lat="46.1385509558022">
        <ele>461.79998779296875</ele>
        <time>2013-04-07T06:22:36.000Z</time>
      </trkpt>
      <trkpt lon="7.117584943771362" lat="46.138689927756786">
        <ele>462.0</ele>
        <time>2013-04-07T06:22:43.000Z</time>
      </trkpt>
      <trkpt lon="7.117639929056168" lat="46.138731921091676">
        <ele>462.20001220703125</ele>
        <time>2013-04-07T06:22:47.000Z</time>
      </trkpt>
      <trkpt lon="7.117702960968018" lat="46.13878095522523">
        <ele>462.20001220703125</ele>
        <time>2013-04-07T06:22:53.000Z</time>
      </trkpt>
      <trkpt lon="7.117702960968018" lat="46.13878095522523">
        <ele>462.20001220703125</ele>
        <time>2013-04-07T06:22:54.000Z</time>
      </trkpt>
      <trkpt lon="7.117582932114601" lat="46.138900984078646">
        <ele>462.79998779296875</ele>
        <time>2013-04-07T06:22:57.000Z</time>
      </trkpt>
      <trkpt lon="7.117438931018114" lat="46.13905495963991">
        <ele>463.79998779296875</ele>
        <time>2013-04-07T06:23:01.000Z</time>
      </trkpt>
      <trkpt lon="7.117198957130313" lat="46.13938596099615">
        <ele>466.79998779296875</ele>
        <time>2013-04-07T06:23:10.000Z</time>
      </trkpt>
      <trkpt lon="7.117172973230481" lat="46.13942191936076">
        <ele>467.20001220703125</ele>
        <time>2013-04-07T06:23:11.000Z</time>
      </trkpt>
      <trkpt lon="7.117123939096928" lat="46.13948897458613">
        <ele>467.79998779296875</ele>
        <time>2013-04-07T06:23:16.000Z</time>
      </trkpt>
      <trkpt lon="7.117349999025464" lat="46.13965895958245">
        <ele>467.20001220703125</ele>
        <time>2013-04-07T06:23:21.000Z</time>
      </trkpt>
      <trkpt lon="7.117704972624779" lat="46.13992399536073">
        <ele>466.3999938964844</ele>
        <time>2013-04-07T06:23:29.000Z</time>
      </trkpt>
      <trkpt lon="7.117951987311244" lat="46.14010998979211">
        <ele>466.20001220703125</ele>
        <time>2013-04-07T06:23:34.000Z</time>
      </trkpt>
      <trkpt lon="7.118273936212063" lat="46.14035096950829">
        <ele>465.79998779296875</ele>
        <time>2013-04-07T06:23:41.000Z</time>
      </trkpt>
      <trkpt lon="7.118634944781661" lat="46.140640983358026">
        <ele>466.3999938964844</ele>
        <time>2013-04-07T06:23:51.000Z</time>
      </trkpt>
      <trkpt lon="7.11893493309617" lat="46.140918927267194">
        <ele>467.20001220703125</ele>
        <time>2013-04-07T06:24:00.000Z</time>
      </trkpt>
      <trkpt lon="7.119226958602667" lat="46.14123693667352">
        <ele>466.6000061035156</ele>
        <time>2013-04-07T06:24:09.000Z</time>
      </trkpt>
      <trkpt lon="7.119559971615672" lat="46.14159995689988">
        <ele>465.3999938964844</ele>
        <time>2013-04-07T06:24:19.000Z</time>
      </trkpt>
      <trkpt lon="7.119898935779929" lat="46.141990972682834">
        <ele>464.6000061035156</ele>
        <time>2013-04-07T06:24:29.000Z</time>
      </trkpt>
      <trkpt lon="7.12015793658793" lat="46.1423019412905">
        <ele>464.0</ele>
        <time>2013-04-07T06:24:37.000Z</time>
      </trkpt>
      <trkpt lon="7.120285928249359" lat="46.14248592406511">
        <ele>463.79998779296875</ele>
        <time>2013-04-07T06:24:42.000Z</time>
      </trkpt>
      <trkpt lon="7.120356922969222" lat="46.14260092377663">
        <ele>463.6000061035156</ele>
        <time>2013-04-07T06:24:46.000Z</time>
      </trkpt>
      <trkpt lon="7.1205399837344885" lat="46.14292999729514">
        <ele>462.79998779296875</ele>
        <time>2013-04-07T06:24:53.000Z</time>
      </trkpt>
      <trkpt lon="7.120669987052679" lat="46.14319193176925">
        <ele>462.0</ele>
        <time>2013-04-07T06:24:59.000Z</time>
      </trkpt>
      <trkpt lon="7.120793955400586" lat="46.1434399522841">
        <ele>461.79998779296875</ele>
        <time>2013-04-07T06:25:05.000Z</time>
      </trkpt>
      <trkpt lon="7.120973998680711" lat="46.14381395280361">
        <ele>463.6000061035156</ele>
        <time>2013-04-07T06:25:13.000Z</time>
      </trkpt>
      <trkpt lon="7.121031917631626" lat="46.14391193725169">
        <ele>464.0</ele>
        <time>2013-04-07T06:25:15.000Z</time>
      </trkpt>
      <trkpt lon="7.121373983100057" lat="46.14417797885835">
        <ele>464.79998779296875</ele>
        <time>2013-04-07T06:25:22.000Z</time>
      </trkpt>
      <trkpt lon="7.121894918382168" lat="46.14433899521828">
        <ele>465.79998779296875</ele>
        <time>2013-04-07T06:25:30.000Z</time>
      </trkpt>
      <trkpt lon="7.122361958026886" lat="46.14439599215984">
        <ele>465.3999938964844</ele>
        <time>2013-04-07T06:25:37.000Z</time>
      </trkpt>
      <trkpt lon="7.122893957421184" lat="46.14444192498922">
        <ele>465.20001220703125</ele>
        <time>2013-04-07T06:25:45.000Z</time>
      </trkpt>
      <trkpt lon="7.123498963192105" lat="46.144480984658">
        <ele>465.3999938964844</ele>
        <time>2013-04-07T06:25:55.000Z</time>
      </trkpt>
      <trkpt lon="7.123784953728318" lat="46.14450093358755">
        <ele>465.79998779296875</ele>
        <time>2013-04-07T06:26:00.000Z</time>
      </trkpt>
      <trkpt lon="7.123957956209779" lat="46.14451199769974">
        <ele>466.0</ele>
        <time>2013-04-07T06:26:05.000Z</time>
      </trkpt>
      <trkpt lon="7.124955989420414" lat="46.144552985206246">
        <ele>466.6000061035156</ele>
        <time>2013-04-07T06:26:09.000Z</time>
      </trkpt>
      <trkpt lon="7.123974971473217" lat="46.14451593719423">
        <ele>466.0</ele>
        <time>2013-04-07T06:26:12.000Z</time>
      </trkpt>
      <trkpt lon="7.123804986476898" lat="46.14450193941593">
        <ele>465.79998779296875</ele>
        <time>2013-04-07T06:26:17.000Z</time>
      </trkpt>
      <trkpt lon="7.123743966221809" lat="46.14449799992144">
        <ele>465.6000061035156</ele>
        <time>2013-04-07T06:26:23.000Z</time>
      </trkpt>
      <trkpt lon="7.123743966221809" lat="46.14449799992144">
        <ele>465.6000061035156</ele>
        <time>2013-04-07T06:26:24.000Z</time>
      </trkpt>
      <trkpt lon="7.123890984803438" lat="46.144507974386215">
        <ele>465.79998779296875</ele>
        <time>2013-04-07T06:28:08.000Z</time>
      </trkpt>
      <trkpt lon="7.124094916507602" lat="46.14454099908471">
        <ele>466.3999938964844</ele>
        <time>2013-04-07T06:28:14.000Z</time>
      </trkpt>
      <trkpt lon="7.124351989477873" lat="46.14460394717753">
        <ele>467.20001220703125</ele>
        <time>2013-04-07T06:28:21.000Z</time>
      </trkpt>
      <trkpt lon="7.124587940052152" lat="46.14467695355415">
        <ele>468.0</ele>
        <time>2013-04-07T06:28:27.000Z</time>
      </trkpt>
      <trkpt lon="7.12484291754663" lat="46.144806956872344">
        <ele>469.6000061035156</ele>
        <time>2013-04-07T06:28:34.000Z</time>
      </trkpt>
      <trkpt lon="7.124976944178343" lat="46.144852973520756">
        <ele>470.20001220703125</ele>
        <time>2013-04-07T06:28:39.000Z</time>
      </trkpt>
      <trkpt lon="7.124976944178343" lat="46.144852973520756">
        <ele>470.20001220703125</ele>
        <time>2013-04-07T06:28:43.000Z</time>
      </trkpt>
      <trkpt lon="7.125071994960308" lat="46.145088924095035">
        <ele>472.3999938964844</ele>
        <time>2013-04-07T06:28:48.000Z</time>
      </trkpt>
      <trkpt lon="7.125123962759972" lat="46.14519998431206">
        <ele>473.0</ele>
        <time>2013-04-07T06:28:52.000Z</time>
      </trkpt>
      <trkpt lon="7.125215996056795" lat="46.145325964316726">
        <ele>473.79998779296875</ele>
        <time>2013-04-07T06:28:57.000Z</time>
      </trkpt>
      <trkpt lon="7.125411964952946" lat="46.14550097845495">
        <ele>474.20001220703125</ele>
        <time>2013-04-07T06:29:04.000Z</time>
      </trkpt>
      <trkpt lon="7.125533921644092" lat="46.14558798260987">
        <ele>474.3999938964844</ele>
        <time>2013-04-07T06:29:08.000Z</time>
      </trkpt>
      <trkpt lon="7.125640958547592" lat="46.14566492848098">
        <ele>474.3999938964844</ele>
        <time>2013-04-07T06:29:12.000Z</time>
      </trkpt>
      <trkpt lon="7.125903982669115" lat="46.14579392597079">
        <ele>474.0</ele>
        <time>2013-04-07T06:29:19.000Z</time>
      </trkpt>
      <trkpt lon="7.125952932983637" lat="46.14581395871937">
        <ele>474.0</ele>
        <time>2013-04-07T06:29:20.000Z</time>
      </trkpt>
      <trkpt lon="7.126137921586633" lat="46.1458539403975">
        <ele>473.3999938964844</ele>
        <time>2013-04-07T06:29:23.000Z</time>
      </trkpt>
      <trkpt lon="7.126358952373266" lat="46.145903980359435">
        <ele>472.6000061035156</ele>
        <time>2013-04-07T06:29:26.000Z</time>
      </trkpt>
      <trkpt lon="7.126694982871413" lat="46.14602593705058">
        <ele>471.79998779296875</ele>
        <time>2013-04-07T06:29:31.000Z</time>
      </trkpt>
      <trkpt lon="7.127147940918803" lat="46.14623892121017">
        <ele>471.20001220703125</ele>
        <time>2013-04-07T06:29:38.000Z</time>
      </trkpt>
      <trkpt lon="7.1274609211832285" lat="46.14638895727694">
        <ele>470.3999938964844</ele>
        <time>2013-04-07T06:29:43.000Z</time>
      </trkpt>
      <trkpt lon="7.1278549544513226" lat="46.146546956151724">
        <ele>469.79998779296875</ele>
        <time>2013-04-07T06:29:49.000Z</time>
      </trkpt>
      <trkpt lon="7.128402963280678" lat="46.146720964461565">
        <ele>467.79998779296875</ele>
        <time>2013-04-07T06:29:55.000Z</time>
      </trkpt>
      <trkpt lon="7.128693982958794" lat="46.1468159314245">
        <ele>466.0</ele>
        <time>2013-04-07T06:29:58.000Z</time>
      </trkpt>
      <trkpt lon="7.129129925742745" lat="46.14702598191798">
        <ele>463.20001220703125</ele>
        <time>2013-04-07T06:30:03.000Z</time>
      </trkpt>
      <trkpt lon="7.129569975659251" lat="46.14743694663048">
        <ele>462.3999938964844</ele>
        <time>2013-04-07T06:30:10.000Z</time>
      </trkpt>
      <trkpt lon="7.129787988960743" lat="46.1476949416101">
        <ele>463.0</ele>
        <time>2013-04-07T06:30:15.000Z</time>
      </trkpt>
      <trkpt lon="7.129877926781774" lat="46.14801395684481">
        <ele>464.79998779296875</ele>
        <time>2013-04-07T06:30:22.000Z</time>
      </trkpt>
      <trkpt lon="7.129881950095296" lat="46.14805997349322">
        <ele>465.0</ele>
        <time>2013-04-07T06:30:23.000Z</time>
      </trkpt>
      <trkpt lon="7.130042966455221" lat="46.14833992905915">
        <ele>465.6000061035156</ele>
        <time>2013-04-07T06:30:29.000Z</time>
      </trkpt>
      <trkpt lon="7.130357958376408" lat="46.14871099591255">
        <ele>467.0</ele>
        <time>2013-04-07T06:30:38.000Z</time>
      </trkpt>
      <trkpt lon="7.130465917289257" lat="46.14884393289685">
        <ele>467.3999938964844</ele>
        <time>2013-04-07T06:30:41.000Z</time>
      </trkpt>
      <trkpt lon="7.130666999146342" lat="46.149127995595336">
        <ele>467.6000061035156</ele>
        <time>2013-04-07T06:30:48.000Z</time>
      </trkpt>
      <trkpt lon="7.130826925858855" lat="46.14932899363339">
        <ele>467.6000061035156</ele>
        <time>2013-04-07T06:30:53.000Z</time>
      </trkpt>
      <trkpt lon="7.131175948306918" lat="46.14965396001935">
        <ele>468.6000061035156</ele>
        <time>2013-04-07T06:31:01.000Z</time>
      </trkpt>
      <trkpt lon="7.131395973265171" lat="46.14982193335891">
        <ele>468.6000061035156</ele>
        <time>2013-04-07T06:31:06.000Z</time>
      </trkpt>
      <trkpt lon="7.131650950759649" lat="46.14995595999062">
        <ele>467.79998779296875</ele>
        <time>2013-04-07T06:31:11.000Z</time>
      </trkpt>
      <trkpt lon="7.131728986278176" lat="46.14999594166875">
        <ele>468.0</ele>
        <time>2013-04-07T06:31:12.000Z</time>
      </trkpt>
      <trkpt lon="7.131881956011057" lat="46.15001798607409">
        <ele>469.3999938964844</ele>
        <time>2013-04-07T06:31:14.000Z</time>
      </trkpt>
      <trkpt lon="7.132700951769948" lat="46.15004698745906">
        <ele>473.0</ele>
        <time>2013-04-07T06:31:22.000Z</time>
      </trkpt>
      <trkpt lon="7.133310986682773" lat="46.150072971358895">
        <ele>474.20001220703125</ele>
        <time>2013-04-07T06:31:28.000Z</time>
      </trkpt>
      <trkpt lon="7.133829994127154" lat="46.15010197274387">
        <ele>474.20001220703125</ele>
        <time>2013-04-07T06:31:34.000Z</time>
      </trkpt>
      <trkpt lon="7.134340954944491" lat="46.15021194331348">
        <ele>476.3999938964844</ele>
        <time>2013-04-07T06:31:41.000Z</time>
      </trkpt>
      <trkpt lon="7.134786956012249" lat="46.15034395828843">
        <ele>475.79998779296875</ele>
        <time>2013-04-07T06:31:48.000Z</time>
      </trkpt>
      <trkpt lon="7.135009998455644" lat="46.15041092969477">
        <ele>474.6000061035156</ele>
        <time>2013-04-07T06:31:52.000Z</time>
      </trkpt>
      <trkpt lon="7.135616932064295" lat="46.15059197880328">
        <ele>470.79998779296875</ele>
        <time>2013-04-07T06:32:03.000Z</time>
      </trkpt>
      <trkpt lon="7.136013982817531" lat="46.150716952979565">
        <ele>468.6000061035156</ele>
        <time>2013-04-07T06:32:10.000Z</time>
      </trkpt>
      <trkpt lon="7.136501977220178" lat="46.15087294019759">
        <ele>468.79998779296875</ele>
        <time>2013-04-07T06:32:19.000Z</time>
      </trkpt>
      <trkpt lon="7.136779921129346" lat="46.15096095018089">
        <ele>469.79998779296875</ele>
        <time>2013-04-07T06:32:24.000Z</time>
      </trkpt>
      <trkpt lon="7.137214941903949" lat="46.15109992213547">
        <ele>471.6000061035156</ele>
        <time>2013-04-07T06:32:32.000Z</time>
      </trkpt>
      <trkpt lon="7.137506967410445" lat="46.151274936273694">
        <ele>473.0</ele>
        <time>2013-04-07T06:32:39.000Z</time>
      </trkpt>
      <trkpt lon="7.137886919081211" lat="46.151493955403566">
        <ele>474.3999938964844</ele>
        <time>2013-04-07T06:32:48.000Z</time>
      </trkpt>
      <trkpt lon="7.1382849756628275" lat="46.15166695788503">
        <ele>476.0</ele>
        <time>2013-04-07T06:32:56.000Z</time>
      </trkpt>
      <trkpt lon="7.138429982587695" lat="46.15172395482659">
        <ele>475.79998779296875</ele>
        <time>2013-04-07T06:32:59.000Z</time>
      </trkpt>
      <trkpt lon="7.138856956735253" lat="46.15184297785163">
        <ele>474.3999938964844</ele>
        <time>2013-04-07T06:33:06.000Z</time>
      </trkpt>
      <trkpt lon="7.138918982818723" lat="46.15186594426632">
        <ele>474.20001220703125</ele>
        <time>2013-04-07T06:33:07.000Z</time>
      </trkpt>
      <trkpt lon="7.139169936999679" lat="46.15194892510772">
        <ele>473.6000061035156</ele>
        <time>2013-04-07T06:33:11.000Z</time>
      </trkpt>
      <trkpt lon="7.1392889600247145" lat="46.151983961462975">
        <ele>473.0</ele>
        <time>2013-04-07T06:33:13.000Z</time>
      </trkpt>
      <trkpt lon="7.139514936134219" lat="46.15205998532474">
        <ele>472.20001220703125</ele>
        <time>2013-04-07T06:33:17.000Z</time>
      </trkpt>
      <trkpt lon="7.139990944415331" lat="46.15230297669768">
        <ele>470.79998779296875</ele>
        <time>2013-04-07T06:33:26.000Z</time>
      </trkpt>
      <trkpt lon="7.140263943001628" lat="46.152434991672635">
        <ele>470.6000061035156</ele>
        <time>2013-04-07T06:33:31.000Z</time>
      </trkpt>
      <trkpt lon="7.140375925228" lat="46.15248897112906">
        <ele>470.3999938964844</ele>
        <time>2013-04-07T06:33:33.000Z</time>
      </trkpt>
      <trkpt lon="7.140791919082403" lat="46.15259491838515">
        <ele>469.79998779296875</ele>
        <time>2013-04-07T06:33:39.000Z</time>
      </trkpt>
      <trkpt lon="7.141321990638971" lat="46.152731962502">
        <ele>469.20001220703125</ele>
        <time>2013-04-07T06:33:45.000Z</time>
      </trkpt>
      <trkpt lon="7.141788946464658" lat="46.15284897387028">
        <ele>468.3999938964844</ele>
        <time>2013-04-07T06:33:51.000Z</time>
      </trkpt>
      <trkpt lon="7.1421989891678095" lat="46.153014935553074">
        <ele>467.3999938964844</ele>
        <time>2013-04-07T06:33:57.000Z</time>
      </trkpt>
      <trkpt lon="7.142534935846925" lat="46.15322791971266">
        <ele>467.6000061035156</ele>
        <time>2013-04-07T06:34:03.000Z</time>
      </trkpt>
      <trkpt lon="7.143038939684629" lat="46.153597980737686">
        <ele>469.0</ele>
        <time>2013-04-07T06:34:13.000Z</time>
      </trkpt>
      <trkpt lon="7.143359966576099" lat="46.153919929638505">
        <ele>470.3999938964844</ele>
        <time>2013-04-07T06:34:21.000Z</time>
      </trkpt>
      <trkpt lon="7.143696919083595" lat="46.15420793183148">
        <ele>471.6000061035156</ele>
        <time>2013-04-07T06:34:29.000Z</time>
      </trkpt>
      <trkpt lon="7.144031943753362" lat="46.15438395179808">
        <ele>470.20001220703125</ele>
        <time>2013-04-07T06:34:34.000Z</time>
      </trkpt>
      <trkpt lon="7.1446899231523275" lat="46.154626943171024">
        <ele>466.3999938964844</ele>
        <time>2013-04-07T06:34:41.000Z</time>
      </trkpt>
      <trkpt lon="7.145093930885196" lat="46.15470196120441">
        <ele>464.79998779296875</ele>
        <time>2013-04-07T06:34:45.000Z</time>
      </trkpt>
      <trkpt lon="7.145950980484486" lat="46.154734985902905">
        <ele>465.79998779296875</ele>
        <time>2013-04-07T06:34:53.000Z</time>
      </trkpt>
      <trkpt lon="7.146577946841717" lat="46.15481394343078">
        <ele>463.3999938964844</ele>
        <time>2013-04-07T06:35:00.000Z</time>
      </trkpt>
      <trkpt lon="7.147135930135846" lat="46.15483598783612">
        <ele>463.20001220703125</ele>
        <time>2013-04-07T06:35:07.000Z</time>
      </trkpt>
      <trkpt lon="7.147639933973551" lat="46.154923997819424">
        <ele>464.0</ele>
        <time>2013-04-07T06:35:14.000Z</time>
      </trkpt>
      <trkpt lon="7.148253992199898" lat="46.15500697866082">
        <ele>466.79998779296875</ele>
        <time>2013-04-07T06:35:22.000Z</time>
      </trkpt>
      <trkpt lon="7.148679960519075" lat="46.1550719384104">
        <ele>467.0</ele>
        <time>2013-04-07T06:35:28.000Z</time>
      </trkpt>
      <trkpt lon="7.148992940783501" lat="46.15512792952359">
        <ele>467.0</ele>
        <time>2013-04-07T06:35:33.000Z</time>
      </trkpt>
      <trkpt lon="7.149103917181492" lat="46.155168917030096">
        <ele>467.20001220703125</ele>
        <time>2013-04-07T06:35:35.000Z</time>
      </trkpt>
      <trkpt lon="7.149401977658272" lat="46.15542992949486">
        <ele>468.79998779296875</ele>
        <time>2013-04-07T06:35:42.000Z</time>
      </trkpt>
      <trkpt lon="7.14985191822052" lat="46.155422972515225">
        <ele>466.20001220703125</ele>
        <time>2013-04-07T06:35:49.000Z</time>
      </trkpt>
      <trkpt lon="7.149925930425525" lat="46.155397994443774">
        <ele>465.79998779296875</ele>
        <time>2013-04-07T06:35:50.000Z</time>
      </trkpt>
      <trkpt lon="7.150372937321663" lat="46.15523697808385">
        <ele>463.6000061035156</ele>
        <time>2013-04-07T06:35:56.000Z</time>
      </trkpt>
      <trkpt lon="7.150792954489589" lat="46.15504193119705">
        <ele>462.0</ele>
        <time>2013-04-07T06:36:04.000Z</time>
      </trkpt>
      <trkpt lon="7.150836959481239" lat="46.15502499975264">
        <ele>461.79998779296875</ele>
        <time>2013-04-07T06:36:05.000Z</time>
      </trkpt>
      <trkpt lon="7.150985989719629" lat="46.155052995309234">
        <ele>462.0</ele>
        <time>2013-04-07T06:36:08.000Z</time>
      </trkpt>
      <trkpt lon="7.151102917268872" lat="46.155251981690526">
        <ele>462.0</ele>
        <time>2013-04-07T06:36:13.000Z</time>
      </trkpt>
      <trkpt lon="7.151285978034139" lat="46.15575799718499">
        <ele>462.0</ele>
        <time>2013-04-07T06:36:24.000Z</time>
      </trkpt>
      <trkpt lon="7.151473984122276" lat="46.15614297799766">
        <ele>465.0</ele>
        <time>2013-04-07T06:36:32.000Z</time>
      </trkpt>
      <trkpt lon="7.151752933859825" lat="46.156606916338205">
        <ele>468.0</ele>
        <time>2013-04-07T06:36:42.000Z</time>
      </trkpt>
      <trkpt lon="7.151813954114914" lat="46.15669894963503">
        <ele>469.20001220703125</ele>
        <time>2013-04-07T06:36:44.000Z</time>
      </trkpt>
      <trkpt lon="7.152079995721579" lat="46.156928949058056">
        <ele>473.0</ele>
        <time>2013-04-07T06:36:50.000Z</time>
      </trkpt>
      <trkpt lon="7.15268793515861" lat="46.15715693682432">
        <ele>470.3999938964844</ele>
        <time>2013-04-07T06:36:59.000Z</time>
      </trkpt>
      <trkpt lon="7.153294952586293" lat="46.157357934862375">
        <ele>467.0</ele>
        <time>2013-04-07T06:37:08.000Z</time>
      </trkpt>
      <trkpt lon="7.154000960290432" lat="46.15753496065736">
        <ele>465.6000061035156</ele>
        <time>2013-04-07T06:37:19.000Z</time>
      </trkpt>
      <trkpt lon="7.154192989692092" lat="46.15758994594216">
        <ele>465.3999938964844</ele>
        <time>2013-04-07T06:37:22.000Z</time>
      </trkpt>
      <trkpt lon="7.1546319499611855" lat="46.15778096951544">
        <ele>465.3999938964844</ele>
        <time>2013-04-07T06:37:29.000Z</time>
      </trkpt>
      <trkpt lon="7.154785925522447" lat="46.15784391760826">
        <ele>464.6000061035156</ele>
        <time>2013-04-07T06:37:31.000Z</time>
      </trkpt>
      <trkpt lon="7.155175935477018" lat="46.1578989867121">
        <ele>462.3999938964844</ele>
        <time>2013-04-07T06:37:35.000Z</time>
      </trkpt>
      <trkpt lon="7.155862916260958" lat="46.15790393203497">
        <ele>460.3999938964844</ele>
        <time>2013-04-07T06:37:43.000Z</time>
      </trkpt>
      <trkpt lon="7.155935922637582" lat="46.15791097283363">
        <ele>460.6000061035156</ele>
        <time>2013-04-07T06:37:44.000Z</time>
      </trkpt>
      <trkpt lon="7.1563309617340565" lat="46.15802798420191">
        <ele>462.0</ele>
        <time>2013-04-07T06:37:50.000Z</time>
      </trkpt>
      <trkpt lon="7.1569709200412035" lat="46.1583289783448">
        <ele>464.20001220703125</ele>
        <time>2013-04-07T06:38:00.000Z</time>
      </trkpt>
      <trkpt lon="7.157496968284249" lat="46.15856593474746">
        <ele>463.20001220703125</ele>
        <time>2013-04-07T06:38:08.000Z</time>
      </trkpt>
      <trkpt lon="7.1576859802007675" lat="46.158646987751126">
        <ele>463.6000061035156</ele>
        <time>2013-04-07T06:38:11.000Z</time>
      </trkpt>
      <trkpt lon="7.157868957147002" lat="46.158692920580506">
        <ele>463.79998779296875</ele>
        <time>2013-04-07T06:38:14.000Z</time>
      </trkpt>
      <trkpt lon="7.157934922724962" lat="46.15863592363894">
        <ele>464.0</ele>
        <time>2013-04-07T06:38:16.000Z</time>
      </trkpt>
      <trkpt lon="7.1580959390848875" lat="46.15844598971307">
        <ele>464.20001220703125</ele>
        <time>2013-04-07T06:38:21.000Z</time>
      </trkpt>
      <trkpt lon="7.158223930746317" lat="46.15850994363427">
        <ele>464.3999938964844</ele>
        <time>2013-04-07T06:38:22.000Z</time>
      </trkpt>
      <trkpt lon="7.158650988712907" lat="46.15878193639219">
        <ele>463.79998779296875</ele>
        <time>2013-04-07T06:38:30.000Z</time>
      </trkpt>
      <trkpt lon="7.159081986173987" lat="46.15906993858516">
        <ele>462.3999938964844</ele>
        <time>2013-04-07T06:38:38.000Z</time>
      </trkpt>
      <trkpt lon="7.159528993070126" lat="46.15940596908331">
        <ele>463.20001220703125</ele>
        <time>2013-04-07T06:38:47.000Z</time>
      </trkpt>
      <trkpt lon="7.160004917532206" lat="46.159761948511004">
        <ele>461.20001220703125</ele>
        <time>2013-04-07T06:38:56.000Z</time>
      </trkpt>
      <trkpt lon="7.160544963553548" lat="46.160130919888616">
        <ele>463.3999938964844</ele>
        <time>2013-04-07T06:39:06.000Z</time>
      </trkpt>
      <trkpt lon="7.161041926592588" lat="46.16045597009361">
        <ele>467.0</ele>
        <time>2013-04-07T06:39:15.000Z</time>
      </trkpt>
      <trkpt lon="7.161449957638979" lat="46.16068194620311">
        <ele>466.3999938964844</ele>
        <time>2013-04-07T06:39:22.000Z</time>
      </trkpt>
      <trkpt lon="7.162015987560153" lat="46.16097397170961">
        <ele>465.6000061035156</ele>
        <time>2013-04-07T06:39:31.000Z</time>
      </trkpt>
      <trkpt lon="7.162284962832928" lat="46.1610989458859">
        <ele>465.79998779296875</ele>
        <time>2013-04-07T06:39:36.000Z</time>
      </trkpt>
      <trkpt lon="7.162326956167817" lat="46.161117972806096">
        <ele>465.79998779296875</ele>
        <time>2013-04-07T06:39:37.000Z</time>
      </trkpt>
      <trkpt lon="7.162357969209552" lat="46.161223920062184">
        <ele>467.0</ele>
        <time>2013-04-07T06:39:41.000Z</time>
      </trkpt>
      <trkpt lon="7.162193935364485" lat="46.16137898527086">
        <ele>470.79998779296875</ele>
        <time>2013-04-07T06:39:47.000Z</time>
      </trkpt>
      <trkpt lon="7.162097962573171" lat="46.16146791726351">
        <ele>473.3999938964844</ele>
        <time>2013-04-07T06:39:53.000Z</time>
      </trkpt>
      <trkpt lon="7.162012970075011" lat="46.16156296804547">
        <ele>476.0</ele>
        <time>2013-04-07T06:39:59.000Z</time>
      </trkpt>
      <trkpt lon="7.162056975066662" lat="46.16166598163545">
        <ele>477.20001220703125</ele>
        <time>2013-04-07T06:40:05.000Z</time>
      </trkpt>
      <trkpt lon="7.162252943962812" lat="46.16183194331825">
        <ele>481.20001220703125</ele>
        <time>2013-04-07T06:40:14.000Z</time>
      </trkpt>
      <trkpt lon="7.162442961707711" lat="46.161973932757974">
        <ele>483.20001220703125</ele>
        <time>2013-04-07T06:40:22.000Z</time>
      </trkpt>
      <trkpt lon="7.162668937817216" lat="46.16213193163276">
        <ele>484.3999938964844</ele>
        <time>2013-04-07T06:40:31.000Z</time>
      </trkpt>
      <trkpt lon="7.162895919755101" lat="46.16227392107248">
        <ele>483.79998779296875</ele>
        <time>2013-04-07T06:40:40.000Z</time>
      </trkpt>
      <trkpt lon="7.163165984675288" lat="46.16243292577565">
        <ele>481.20001220703125</ele>
        <time>2013-04-07T06:40:50.000Z</time>
      </trkpt>
      <trkpt lon="7.163416938856244" lat="46.16260693408549">
        <ele>481.6000061035156</ele>
        <time>2013-04-07T06:41:00.000Z</time>
      </trkpt>
      <trkpt lon="7.163572926074266" lat="46.162745989859104">
        <ele>484.79998779296875</ele>
        <time>2013-04-07T06:41:07.000Z</time>
      </trkpt>
      <trkpt lon="7.163792951032519" lat="46.16295092739165">
        <ele>487.79998779296875</ele>
        <time>2013-04-07T06:41:16.000Z</time>
      </trkpt>
      <trkpt lon="7.163960924372077" lat="46.16310892626643">
        <ele>488.79998779296875</ele>
        <time>2013-04-07T06:41:22.000Z</time>
      </trkpt>
      <trkpt lon="7.164163934066892" lat="46.163310930132866">
        <ele>488.3999938964844</ele>
        <time>2013-04-07T06:41:30.000Z</time>
      </trkpt>
      <trkpt lon="7.164307935163379" lat="46.1634109262377">
        <ele>491.0</ele>
        <time>2013-04-07T06:41:35.000Z</time>
      </trkpt>
      <trkpt lon="7.164557967334986" lat="46.1636199709028">
        <ele>496.6000061035156</ele>
        <time>2013-04-07T06:41:42.000Z</time>
      </trkpt>
      <trkpt lon="7.16467397287488" lat="46.163735976442695">
        <ele>499.0</ele>
        <time>2013-04-07T06:41:47.000Z</time>
      </trkpt>
      <trkpt lon="7.16471697203815" lat="46.163778975605965">
        <ele>499.6000061035156</ele>
        <time>2013-04-07T06:41:53.000Z</time>
      </trkpt>
      <trkpt lon="7.164806993678212" lat="46.16381392814219">
        <ele>498.0</ele>
        <time>2013-04-07T06:41:57.000Z</time>
      </trkpt>
      <trkpt lon="7.165052918717265" lat="46.163909984752536">
        <ele>493.3999938964844</ele>
        <time>2013-04-07T06:42:03.000Z</time>
      </trkpt>
      <trkpt lon="7.165365982800722" lat="46.1640309356153">
        <ele>489.6000061035156</ele>
        <time>2013-04-07T06:42:08.000Z</time>
      </trkpt>
      <trkpt lon="7.165770996361971" lat="46.1642069555819">
        <ele>482.79998779296875</ele>
        <time>2013-04-07T06:42:14.000Z</time>
      </trkpt>
      <trkpt lon="7.16592094860971" lat="46.164275938645005">
        <ele>482.79998779296875</ele>
        <time>2013-04-07T06:42:16.000Z</time>
      </trkpt>
      <trkpt lon="7.1661739982664585" lat="46.16431298665702">
        <ele>479.79998779296875</ele>
        <time>2013-04-07T06:42:20.000Z</time>
      </trkpt>
      <trkpt lon="7.166304923593998" lat="46.164293959736824">
        <ele>476.79998779296875</ele>
        <time>2013-04-07T06:42:23.000Z</time>
      </trkpt>
      <trkpt lon="7.166304923593998" lat="46.164293959736824">
        <ele>476.79998779296875</ele>
        <time>2013-04-07T06:42:24.000Z</time>
      </trkpt>
      <trkpt lon="7.166635924950242" lat="46.16449797526002">
        <ele>475.3999938964844</ele>
        <time>2013-04-07T06:42:28.000Z</time>
      </trkpt>
      <trkpt lon="7.166839940473437" lat="46.16462294943631">
        <ele>474.6000061035156</ele>
        <time>2013-04-07T06:42:32.000Z</time>
      </trkpt>
      <trkpt lon="7.167189968749881" lat="46.16503693163395">
        <ele>473.0</ele>
        <time>2013-04-07T06:42:43.000Z</time>
      </trkpt>
      <trkpt lon="7.167341932654381" lat="46.16527497768402">
        <ele>472.6000061035156</ele>
        <time>2013-04-07T06:42:49.000Z</time>
      </trkpt>
      <trkpt lon="7.167543936520815" lat="46.16558996960521">
        <ele>472.20001220703125</ele>
        <time>2013-04-07T06:42:57.000Z</time>
      </trkpt>
      <trkpt lon="7.167713921517134" lat="46.16577093489468">
        <ele>472.6000061035156</ele>
        <time>2013-04-07T06:43:02.000Z</time>
      </trkpt>
      <trkpt lon="7.168395956978202" lat="46.165972938761115">
        <ele>468.0</ele>
        <time>2013-04-07T06:43:13.000Z</time>
      </trkpt>
      <trkpt lon="7.1689479891210794" lat="46.16617594845593">
        <ele>465.3999938964844</ele>
        <time>2013-04-07T06:43:22.000Z</time>
      </trkpt>
      <trkpt lon="7.16942491941154" lat="46.16649999283254">
        <ele>463.79998779296875</ele>
        <time>2013-04-07T06:43:31.000Z</time>
      </trkpt>
      <trkpt lon="7.169949961826205" lat="46.16688698530197">
        <ele>465.20001220703125</ele>
        <time>2013-04-07T06:43:42.000Z</time>
      </trkpt>
      <trkpt lon="7.17028196901083" lat="46.16713399998844">
        <ele>467.0</ele>
        <time>2013-04-07T06:43:49.000Z</time>
      </trkpt>
      <trkpt lon="7.170689916238189" lat="46.16743792779744">
        <ele>466.20001220703125</ele>
        <time>2013-04-07T06:43:58.000Z</time>
      </trkpt>
      <trkpt lon="7.170968949794769" lat="46.167694916948676">
        <ele>468.6000061035156</ele>
        <time>2013-04-07T06:44:05.000Z</time>
      </trkpt>
      <trkpt lon="7.171125942841172" lat="46.16786791943014">
        <ele>471.20001220703125</ele>
        <time>2013-04-07T06:44:11.000Z</time>
      </trkpt>
      <trkpt lon="7.171242954209447" lat="46.168009992688894">
        <ele>472.79998779296875</ele>
        <time>2013-04-07T06:44:17.000Z</time>
      </trkpt>
      <trkpt lon="7.171366922557354" lat="46.168223982676864">
        <ele>475.20001220703125</ele>
        <time>2013-04-07T06:44:26.000Z</time>
      </trkpt>
      <trkpt lon="7.171427942812443" lat="46.16842799820006">
        <ele>479.0</ele>
        <time>2013-04-07T06:44:35.000Z</time>
      </trkpt>
      <trkpt lon="7.171546965837479" lat="46.168591948226094">
        <ele>482.20001220703125</ele>
        <time>2013-04-07T06:44:43.000Z</time>
      </trkpt>
      <trkpt lon="7.171715945005417" lat="46.16871893405914">
        <ele>483.3999938964844</ele>
        <time>2013-04-07T06:44:51.000Z</time>
      </trkpt>
      <trkpt lon="7.171867992728949" lat="46.16886092349887">
        <ele>485.3999938964844</ele>
        <time>2013-04-07T06:44:59.000Z</time>
      </trkpt>
      <trkpt lon="7.171949967741966" lat="46.16897692903876">
        <ele>487.20001220703125</ele>
        <time>2013-04-07T06:45:06.000Z</time>
      </trkpt>
      <trkpt lon="7.172012999653816" lat="46.16906192153692">
        <ele>488.20001220703125</ele>
        <time>2013-04-07T06:45:12.000Z</time>
      </trkpt>
      <trkpt lon="7.172046946361661" lat="46.16910198703408">
        <ele>488.6000061035156</ele>
        <time>2013-04-07T06:45:15.000Z</time>
      </trkpt>
      <trkpt lon="7.172072930261493" lat="46.169133922085166">
        <ele>488.79998779296875</ele>
        <time>2013-04-07T06:45:19.000Z</time>
      </trkpt>
      <trkpt lon="7.17210897244513" lat="46.16917599923909">
        <ele>489.3999938964844</ele>
        <time>2013-04-07T06:45:23.000Z</time>
      </trkpt>
      <trkpt lon="7.172288931906223" lat="46.16938998922706">
        <ele>494.6000061035156</ele>
        <time>2013-04-07T06:45:29.000Z</time>
      </trkpt>
      <trkpt lon="7.17251792550087" lat="46.16955393925309">
        <ele>497.0</ele>
        <time>2013-04-07T06:45:34.000Z</time>
      </trkpt>
      <trkpt lon="7.172695957124233" lat="46.1696829367429">
        <ele>499.3999938964844</ele>
        <time>2013-04-07T06:45:40.000Z</time>
      </trkpt>
      <trkpt lon="7.172764940187335" lat="46.16972794756293">
        <ele>500.0</ele>
        <time>2013-04-07T06:45:42.000Z</time>
      </trkpt>
      <trkpt lon="7.173256957903504" lat="46.16903593763709">
        <ele>474.0</ele>
        <time>2013-04-07T06:45:46.000Z</time>
      </trkpt>
      <trkpt lon="7.173256957903504" lat="46.16903593763709">
        <ele>474.0</ele>
        <time>2013-04-07T06:45:49.000Z</time>
      </trkpt>
      <trkpt lon="7.172827972099185" lat="46.1697659175843">
        <ele>500.3999938964844</ele>
        <time>2013-04-07T06:46:04.000Z</time>
      </trkpt>
      <trkpt lon="7.172827972099185" lat="46.1697659175843">
        <ele>500.3999938964844</ele>
        <time>2013-04-07T06:46:11.000Z</time>
      </trkpt>
      <trkpt lon="7.172827972099185" lat="46.1697659175843">
        <ele>500.3999938964844</ele>
        <time>2013-04-07T06:46:16.000Z</time>
      </trkpt>
      <trkpt lon="7.172870971262455" lat="46.16982995532453">
        <ele>501.79998779296875</ele>
        <time>2013-04-07T06:46:27.000Z</time>
      </trkpt>
      <trkpt lon="7.173492992296815" lat="46.16903593763709">
        <ele>472.6000061035156</ele>
        <time>2013-04-07T06:46:34.000Z</time>
      </trkpt>
      <trkpt lon="7.173851989209652" lat="46.16992098279297">
        <ele>489.6000061035156</ele>
        <time>2013-04-07T06:46:39.000Z</time>
      </trkpt>
      <trkpt lon="7.1740479581058025" lat="46.17004193365574">
        <ele>489.20001220703125</ele>
        <time>2013-04-07T06:46:45.000Z</time>
      </trkpt>
      <trkpt lon="7.174206962808967" lat="46.17012298665941">
        <ele>489.0</ele>
        <time>2013-04-07T06:46:50.000Z</time>
      </trkpt>
      <trkpt lon="7.174482978880405" lat="46.17019096389413">
        <ele>490.79998779296875</ele>
        <time>2013-04-07T06:46:54.000Z</time>
      </trkpt>
      <trkpt lon="7.174551961943507" lat="46.17014796473086">
        <ele>490.3999938964844</ele>
        <time>2013-04-07T06:46:56.000Z</time>
      </trkpt>
      <trkpt lon="7.174549950286746" lat="46.17014897055924">
        <ele>490.3999938964844</ele>
        <time>2013-04-07T06:46:59.000Z</time>
      </trkpt>
      <trkpt lon="7.174505945295095" lat="46.17017596028745">
        <ele>490.6000061035156</ele>
        <time>2013-04-07T06:47:03.000Z</time>
      </trkpt>
      <trkpt lon="7.174409972503781" lat="46.17023698054254">
        <ele>491.20001220703125</ele>
        <time>2013-04-07T06:47:07.000Z</time>
      </trkpt>
      <trkpt lon="7.174264965578914" lat="46.170376958325505">
        <ele>493.0</ele>
        <time>2013-04-07T06:47:14.000Z</time>
      </trkpt>
      <trkpt lon="7.174264965578914" lat="46.170395985245705">
        <ele>493.20001220703125</ele>
        <time>2013-04-07T06:47:16.000Z</time>
      </trkpt>
      <trkpt lon="7.1742859203368425" lat="46.17044895887375">
        <ele>494.20001220703125</ele>
        <time>2013-04-07T06:47:21.000Z</time>
      </trkpt>
      <trkpt lon="7.174294972792268" lat="46.17045599967241">
        <ele>494.20001220703125</ele>
        <time>2013-04-07T06:47:25.000Z</time>
      </trkpt>
      <trkpt lon="7.174366973340511" lat="46.170485923066735">
        <ele>494.79998779296875</ele>
        <time>2013-04-07T06:47:33.000Z</time>
      </trkpt>
      <trkpt lon="7.174367979168892" lat="46.17048894055188">
        <ele>494.79998779296875</ele>
        <time>2013-04-07T06:47:37.000Z</time>
      </trkpt>
      <trkpt lon="7.174447942525148" lat="46.170485923066735">
        <ele>495.0</ele>
        <time>2013-04-07T06:47:42.000Z</time>
      </trkpt>
      <trkpt lon="7.17447099275887" lat="46.170481983572245">
        <ele>494.79998779296875</ele>
        <time>2013-04-07T06:47:44.000Z</time>
      </trkpt>
      <trkpt lon="7.174574928358197" lat="46.17045197635889">
        <ele>494.6000061035156</ele>
        <time>2013-04-07T06:47:51.000Z</time>
      </trkpt>
      <trkpt lon="7.174675930291414" lat="46.17041098885238">
        <ele>494.20001220703125</ele>
        <time>2013-04-07T06:47:57.000Z</time>
      </trkpt>
      <trkpt lon="7.174710966646671" lat="46.170395985245705">
        <ele>494.20001220703125</ele>
        <time>2013-04-07T06:48:00.000Z</time>
      </trkpt>
      <trkpt lon="7.174851950258017" lat="46.17033798247576">
        <ele>493.6000061035156</ele>
        <time>2013-04-07T06:48:08.000Z</time>
      </trkpt>
      <trkpt lon="7.175018917769194" lat="46.17027595639229">
        <ele>501.79998779296875</ele>
        <time>2013-04-07T06:48:16.000Z</time>
      </trkpt>
      <trkpt lon="7.175147999078035" lat="46.170228933915496">
        <ele>500.3999938964844</ele>
        <time>2013-04-07T06:48:22.000Z</time>
      </trkpt>
      <trkpt lon="7.175250928848982" lat="46.17019096389413">
        <ele>499.3999938964844</ele>
        <time>2013-04-07T06:48:29.000Z</time>
      </trkpt>
      <trkpt lon="7.17531094327569" lat="46.17016891948879">
        <ele>498.6000061035156</ele>
        <time>2013-04-07T06:48:33.000Z</time>
      </trkpt>
      <trkpt lon="7.1754399407655" lat="46.170137990266085">
        <ele>498.0</ele>
        <time>2013-04-07T06:48:41.000Z</time>
      </trkpt>
      <trkpt lon="7.175637921318412" lat="46.17012994363904">
        <ele>498.79998779296875</ele>
        <time>2013-04-07T06:48:49.000Z</time>
      </trkpt>
      <trkpt lon="7.1758179645985365" lat="46.17012994363904">
        <ele>499.6000061035156</ele>
        <time>2013-04-07T06:48:57.000Z</time>
      </trkpt>
      <trkpt lon="7.175942938774824" lat="46.17017495445907">
        <ele>501.20001220703125</ele>
        <time>2013-04-07T06:49:04.000Z</time>
      </trkpt>
      <trkpt lon="7.176065985113382" lat="46.170245949178934">
        <ele>503.6000061035156</ele>
        <time>2013-04-07T06:49:12.000Z</time>
      </trkpt>
      <trkpt lon="7.17619095928967" lat="46.17030395194888">
        <ele>505.79998779296875</ele>
        <time>2013-04-07T06:49:20.000Z</time>
      </trkpt>
      <trkpt lon="7.176315933465958" lat="46.17036195471883">
        <ele>508.0</ele>
        <time>2013-04-07T06:49:28.000Z</time>
      </trkpt>
      <trkpt lon="7.176422970369458" lat="46.170398918911815">
        <ele>509.6000061035156</ele>
        <time>2013-04-07T06:49:34.000Z</time>
      </trkpt>
      <trkpt lon="7.1764699928462505" lat="46.17041392251849">
        <ele>510.20001220703125</ele>
        <time>2013-04-07T06:49:38.000Z</time>
      </trkpt>
      <trkpt lon="7.176573928445578" lat="46.170351980254054">
        <ele>507.3999938964844</ele>
        <time>2013-04-07T06:49:43.000Z</time>
      </trkpt>
      <trkpt lon="7.176490947604179" lat="46.170421969145536">
        <ele>510.6000061035156</ele>
        <time>2013-04-07T06:49:46.000Z</time>
      </trkpt>
      <trkpt lon="7.176459934562445" lat="46.17041098885238">
        <ele>510.20001220703125</ele>
        <time>2013-04-07T06:49:48.000Z</time>
      </trkpt>
      <trkpt lon="7.1764429192990065" lat="46.1704049538821">
        <ele>509.79998779296875</ele>
        <time>2013-04-07T06:49:54.000Z</time>
      </trkpt>
      <trkpt lon="7.176478961482644" lat="46.170417945832014">
        <ele>510.3999938964844</ele>
        <time>2013-04-07T06:49:57.000Z</time>
      </trkpt>
      <trkpt lon="7.176507962867618" lat="46.17042699828744">
        <ele>510.79998779296875</ele>
        <time>2013-04-07T06:50:00.000Z</time>
      </trkpt>
      <trkpt lon="7.176532940939069" lat="46.17043294943869">
        <ele>511.20001220703125</ele>
        <time>2013-04-07T06:50:04.000Z</time>
      </trkpt>
      <trkpt lon="7.176498994231224" lat="46.1704239808023">
        <ele>510.79998779296875</ele>
        <time>2013-04-07T06:50:06.000Z</time>
      </trkpt>
      <trkpt lon="7.176440991461277" lat="46.17036497220397">
        <ele>508.20001220703125</ele>
        <time>2013-04-07T06:50:13.000Z</time>
      </trkpt>
      <trkpt lon="7.176443925127387" lat="46.17040595971048">
        <ele>510.0</ele>
        <time>2013-04-07T06:50:17.000Z</time>
      </trkpt>
      <trkpt lon="7.176488935947418" lat="46.170420963317156">
        <ele>510.6000061035156</ele>
        <time>2013-04-07T06:55:08.000Z</time>
      </trkpt>
      <trkpt lon="7.176604941487312" lat="46.17044694721699">
        <ele>511.79998779296875</ele>
        <time>2013-04-07T06:55:15.000Z</time>
      </trkpt>
      <trkpt lon="7.1767079550772905" lat="46.170464968308806">
        <ele>513.4000244140625</ele>
        <time>2013-04-07T06:55:20.000Z</time>
      </trkpt>
      <trkpt lon="7.176858996972442" lat="46.1704739369452">
        <ele>516.2000122070312</ele>
        <time>2013-04-07T06:55:26.000Z</time>
      </trkpt>
      <trkpt lon="7.177082961425185" lat="46.17043496109545">
        <ele>518.2000122070312</ele>
        <time>2013-04-07T06:55:34.000Z</time>
      </trkpt>
      <trkpt lon="7.177296951413155" lat="46.17029598914087">
        <ele>516.2000122070312</ele>
        <time>2013-04-07T06:55:44.000Z</time>
      </trkpt>
      <trkpt lon="7.177397953346372" lat="46.17017394863069">
        <ele>513.4000244140625</ele>
        <time>2013-04-07T06:55:52.000Z</time>
      </trkpt>
      <trkpt lon="7.177425948902965" lat="46.17008292116225">
        <ele>510.3999938964844</ele>
        <time>2013-04-07T06:55:57.000Z</time>
      </trkpt>
      <trkpt lon="7.177440952509642" lat="46.16992098279297">
        <ele>504.6000061035156</ele>
        <time>2013-04-07T06:56:08.000Z</time>
      </trkpt>
      <trkpt lon="7.177483951672912" lat="46.16982995532453">
        <ele>501.79998779296875</ele>
        <time>2013-04-07T06:56:14.000Z</time>
      </trkpt>
      <trkpt lon="7.177483951672912" lat="46.16982995532453">
        <ele>501.79998779296875</ele>
        <time>2013-04-07T06:56:15.000Z</time>
      </trkpt>
      <trkpt lon="7.177787963300943" lat="46.16980799473822">
        <ele>505.0</ele>
        <time>2013-04-07T06:56:22.000Z</time>
      </trkpt>
      <trkpt lon="7.177878990769386" lat="46.16980799473822">
        <ele>506.20001220703125</ele>
        <time>2013-04-07T06:56:24.000Z</time>
      </trkpt>
      <trkpt lon="7.178198928013444" lat="46.169798942282796">
        <ele>509.79998779296875</ele>
        <time>2013-04-07T06:56:29.000Z</time>
      </trkpt>
      <trkpt lon="7.178287943825126" lat="46.169794918969274">
        <ele>510.79998779296875</ele>
        <time>2013-04-07T06:56:30.000Z</time>
      </trkpt>
      <trkpt lon="7.178676947951317" lat="46.16981193423271">
        <ele>510.0</ele>
        <time>2013-04-07T06:56:34.000Z</time>
      </trkpt>
      <trkpt lon="7.179002920165658" lat="46.169860968366265">
        <ele>510.6000061035156</ele>
        <time>2013-04-07T06:56:38.000Z</time>
      </trkpt>
      <trkpt lon="7.1791959553956985" lat="46.16989399306476">
        <ele>510.79998779296875</ele>
        <time>2013-04-07T06:56:41.000Z</time>
      </trkpt>
      <trkpt lon="7.179355965927243" lat="46.16995291784406">
        <ele>511.6000061035156</ele>
        <time>2013-04-07T06:56:46.000Z</time>
      </trkpt>
      <trkpt lon="7.179700965061784" lat="46.17003698833287">
        <ele>510.79998779296875</ele>
        <time>2013-04-07T06:56:52.000Z</time>
      </trkpt>
      <trkpt lon="7.180019980296493" lat="46.170117957517505">
        <ele>510.3999938964844</ele>
        <time>2013-04-07T06:56:58.000Z</time>
      </trkpt>
      <trkpt lon="7.180042946711183" lat="46.17012399248779">
        <ele>510.3999938964844</ele>
        <time>2013-04-07T06:57:00.000Z</time>
      </trkpt>
      <trkpt lon="7.180111929774284" lat="46.170142935588956">
        <ele>510.0</ele>
        <time>2013-04-07T06:57:05.000Z</time>
      </trkpt>
      <trkpt lon="7.180288955569267" lat="46.17019096389413">
        <ele>509.20001220703125</ele>
        <time>2013-04-07T06:57:14.000Z</time>
      </trkpt>
      <trkpt lon="7.180490959435701" lat="46.17025692947209">
        <ele>508.6000061035156</ele>
        <time>2013-04-07T06:57:24.000Z</time>
      </trkpt>
      <trkpt lon="7.180694974958897" lat="46.170331947505474">
        <ele>508.3999938964844</ele>
        <time>2013-04-07T06:57:34.000Z</time>
      </trkpt>
      <trkpt lon="7.18080896884203" lat="46.170375952497125">
        <ele>508.20001220703125</ele>
        <time>2013-04-07T06:57:40.000Z</time>
      </trkpt>
      <trkpt lon="7.1810169238597155" lat="46.17046999745071">
        <ele>512.2000122070312</ele>
        <time>2013-04-07T06:57:51.000Z</time>
      </trkpt>
      <trkpt lon="7.1812039241194725" lat="46.17055498994887">
        <ele>515.0</ele>
        <time>2013-04-07T06:58:01.000Z</time>
      </trkpt>
      <trkpt lon="7.1813529543578625" lat="46.17062296718359">
        <ele>516.4000244140625</ele>
        <time>2013-04-07T06:58:08.000Z</time>
      </trkpt>
      <trkpt lon="7.1814969554543495" lat="46.17068792693317">
        <ele>516.7999877929688</ele>
        <time>2013-04-07T06:58:19.000Z</time>
      </trkpt>
      <trkpt lon="7.1814969554543495" lat="46.17068792693317">
        <ele>516.7999877929688</ele>
        <time>2013-04-07T06:58:26.000Z</time>
      </trkpt>
      <trkpt lon="7.1814969554543495" lat="46.17068792693317">
        <ele>516.7999877929688</ele>
        <time>2013-04-07T06:58:31.000Z</time>
      </trkpt>
      <trkpt lon="7.18173298984766" lat="46.17107399739325">
        <ele>524.5999755859375</ele>
        <time>2013-04-07T06:58:39.000Z</time>
      </trkpt>
      <trkpt lon="7.18173298984766" lat="46.17107399739325">
        <ele>524.5999755859375</ele>
        <time>2013-04-07T07:04:15.000Z</time>
      </trkpt>
      <trkpt lon="7.18173298984766" lat="46.17107399739325">
        <ele>524.5999755859375</ele>
        <time>2013-04-07T07:06:01.000Z</time>
      </trkpt>
      <trkpt lon="7.18173298984766" lat="46.17107399739325">
        <ele>524.5999755859375</ele>
        <time>2013-04-07T07:06:07.000Z</time>
      </trkpt>
      <trkpt lon="7.18173298984766" lat="46.17107399739325">
        <ele>524.5999755859375</ele>
        <time>2013-04-07T07:06:11.000Z</time>
      </trkpt>
      <trkpt lon="7.18173298984766" lat="46.17107399739325">
        <ele>524.5999755859375</ele>
        <time>2013-04-07T07:06:33.000Z</time>
      </trkpt>
      <trkpt lon="7.18173298984766" lat="46.17107399739325">
        <ele>524.5999755859375</ele>
        <time>2013-04-07T07:06:37.000Z</time>
      </trkpt>
      <trkpt lon="7.18173298984766" lat="46.17107399739325">
        <ele>524.5999755859375</ele>
        <time>2013-04-07T07:07:20.000Z</time>
      </trkpt>
      <trkpt lon="7.18173298984766" lat="46.17107399739325">
        <ele>524.5999755859375</ele>
        <time>2013-04-07T07:10:50.000Z</time>
      </trkpt>
      <trkpt lon="7.18173298984766" lat="46.17107399739325">
        <ele>524.5999755859375</ele>
        <time>2013-04-07T07:10:56.000Z</time>
      </trkpt>
      <trkpt lon="7.18173298984766" lat="46.17107399739325">
        <ele>524.5999755859375</ele>
        <time>2013-04-07T07:11:05.000Z</time>
      </trkpt>
      <trkpt lon="7.18173298984766" lat="46.17107399739325">
        <ele>524.5999755859375</ele>
        <time>2013-04-07T07:11:09.000Z</time>
      </trkpt>
      <trkpt lon="7.18173298984766" lat="46.17107399739325">
        <ele>524.5999755859375</ele>
        <time>2013-04-07T07:11:14.000Z</time>
      </trkpt>
      <trkpt lon="7.18173298984766" lat="46.17107399739325">
        <ele>524.5999755859375</ele>
        <time>2013-04-07T07:11:17.000Z</time>
      </trkpt>
      <trkpt lon="7.18173298984766" lat="46.17107399739325">
        <ele>524.5999755859375</ele>
        <time>2013-04-07T07:11:42.000Z</time>
      </trkpt>
      <trkpt lon="7.18173298984766" lat="46.17107399739325">
        <ele>524.5999755859375</ele>
        <time>2013-04-07T07:13:29.000Z</time>
      </trkpt>
      <trkpt lon="7.18173298984766" lat="46.17107399739325">
        <ele>524.5999755859375</ele>
        <time>2013-04-07T07:13:42.000Z</time>
      </trkpt>
      <trkpt lon="7.18173298984766" lat="46.17107399739325">
        <ele>524.5999755859375</ele>
        <time>2013-04-07T07:13:43.000Z</time>
      </trkpt>
      <trkpt lon="7.18173298984766" lat="46.17107399739325">
        <ele>524.5999755859375</ele>
        <time>2013-04-07T07:13:48.000Z</time>
      </trkpt>
      <trkpt lon="7.18173298984766" lat="46.17107399739325">
        <ele>524.5999755859375</ele>
        <time>2013-04-07T07:15:44.000Z</time>
      </trkpt>
      <trkpt lon="7.18173298984766" lat="46.17107399739325">
        <ele>524.5999755859375</ele>
        <time>2013-04-07T07:15:48.000Z</time>
      </trkpt>
      <trkpt lon="7.18173298984766" lat="46.17107399739325">
        <ele>524.5999755859375</ele>
        <time>2013-04-07T07:15:49.000Z</time>
      </trkpt>
      <trkpt lon="7.18173298984766" lat="46.17107399739325">
        <ele>524.5999755859375</ele>
        <time>2013-04-07T07:15:55.000Z</time>
      </trkpt>
      <trkpt lon="7.18173298984766" lat="46.17107399739325">
        <ele>524.5999755859375</ele>
        <time>2013-04-07T07:17:32.000Z</time>
      </trkpt>
      <trkpt lon="7.18173298984766" lat="46.17107399739325">
        <ele>524.5999755859375</ele>
        <time>2013-04-07T07:17:43.000Z</time>
      </trkpt>
      <trkpt lon="7.18173298984766" lat="46.17107399739325">
        <ele>524.5999755859375</ele>
        <time>2013-04-07T07:17:53.000Z</time>
      </trkpt>
      <trkpt lon="7.18173298984766" lat="46.17107399739325">
        <ele>524.5999755859375</ele>
        <time>2013-04-07T07:19:07.000Z</time>
      </trkpt>
      <trkpt lon="7.18173298984766" lat="46.17107399739325">
        <ele>524.5999755859375</ele>
        <time>2013-04-07T07:19:17.000Z</time>
      </trkpt>
      <trkpt lon="7.18173298984766" lat="46.17107399739325">
        <ele>524.5999755859375</ele>
        <time>2013-04-07T07:19:28.000Z</time>
      </trkpt>
      <trkpt lon="7.18173298984766" lat="46.17107399739325">
        <ele>524.5999755859375</ele>
        <time>2013-04-07T07:19:35.000Z</time>
      </trkpt>
      <trkpt lon="7.18173298984766" lat="46.17107399739325">
        <ele>524.5999755859375</ele>
        <time>2013-04-07T07:19:43.000Z</time>
      </trkpt>
      <trkpt lon="7.18173298984766" lat="46.17107399739325">
        <ele>524.5999755859375</ele>
        <time>2013-04-07T07:19:49.000Z</time>
      </trkpt>
      <trkpt lon="7.18173298984766" lat="46.17107399739325">
        <ele>524.5999755859375</ele>
        <time>2013-04-07T07:19:53.000Z</time>
      </trkpt>
      <trkpt lon="7.18173298984766" lat="46.17107399739325">
        <ele>524.5999755859375</ele>
        <time>2013-04-07T07:20:04.000Z</time>
      </trkpt>
      <trkpt lon="7.18173298984766" lat="46.17107399739325">
        <ele>524.5999755859375</ele>
        <time>2013-04-07T07:20:13.000Z</time>
      </trkpt>
      <trkpt lon="7.18173298984766" lat="46.17107399739325">
        <ele>524.5999755859375</ele>
        <time>2013-04-07T07:20:17.000Z</time>
      </trkpt>
      <trkpt lon="7.18173298984766" lat="46.17107399739325">
        <ele>524.5999755859375</ele>
        <time>2013-04-07T07:20:30.000Z</time>
      </trkpt>
      <trkpt lon="7.18173298984766" lat="46.17107399739325">
        <ele>524.5999755859375</ele>
        <time>2013-04-07T07:20:33.000Z</time>
      </trkpt>
      <trkpt lon="7.18173298984766" lat="46.17107399739325">
        <ele>524.5999755859375</ele>
        <time>2013-04-07T07:20:46.000Z</time>
      </trkpt>
      <trkpt lon="7.18173298984766" lat="46.17107399739325">
        <ele>524.5999755859375</ele>
        <time>2013-04-07T07:21:01.000Z</time>
      </trkpt>
      <trkpt lon="7.18173298984766" lat="46.17107399739325">
        <ele>524.5999755859375</ele>
        <time>2013-04-07T07:21:11.000Z</time>
      </trkpt>
      <trkpt lon="7.18173298984766" lat="46.17107399739325">
        <ele>524.5999755859375</ele>
        <time>2013-04-07T07:21:35.000Z</time>
      </trkpt>
      <trkpt lon="7.18173298984766" lat="46.17107399739325">
        <ele>524.5999755859375</ele>
        <time>2013-04-07T07:23:33.000Z</time>
      </trkpt>
      <trkpt lon="7.18173298984766" lat="46.17107399739325">
        <ele>524.5999755859375</ele>
        <time>2013-04-07T07:23:44.000Z</time>
      </trkpt>
      <trkpt lon="7.18173298984766" lat="46.17107399739325">
        <ele>524.5999755859375</ele>
        <time>2013-04-07T07:23:50.000Z</time>
      </trkpt>
      <trkpt lon="7.18173298984766" lat="46.17107399739325">
        <ele>524.5999755859375</ele>
        <time>2013-04-07T07:25:16.000Z</time>
      </trkpt>
      <trkpt lon="7.18173298984766" lat="46.17107399739325">
        <ele>524.5999755859375</ele>
        <time>2013-04-07T07:25:18.000Z</time>
      </trkpt>
      <trkpt lon="7.18173298984766" lat="46.17107399739325">
        <ele>524.5999755859375</ele>
        <time>2013-04-07T07:25:46.000Z</time>
      </trkpt>
      <trkpt lon="7.18173298984766" lat="46.17107399739325">
        <ele>524.5999755859375</ele>
        <time>2013-04-07T07:27:36.000Z</time>
      </trkpt>
      <trkpt lon="7.18173298984766" lat="46.17107399739325">
        <ele>524.5999755859375</ele>
        <time>2013-04-07T07:27:38.000Z</time>
      </trkpt>
      <trkpt lon="7.18173298984766" lat="46.17107399739325">
        <ele>524.5999755859375</ele>
        <time>2013-04-07T07:28:12.000Z</time>
      </trkpt>
      <trkpt lon="7.18173298984766" lat="46.17107399739325">
        <ele>524.5999755859375</ele>
        <time>2013-04-07T07:28:30.000Z</time>
      </trkpt>
      <trkpt lon="7.18173298984766" lat="46.17107399739325">
        <ele>524.5999755859375</ele>
        <time>2013-04-07T07:28:37.000Z</time>
      </trkpt>
      <trkpt lon="7.18173298984766" lat="46.17107399739325">
        <ele>524.5999755859375</ele>
        <time>2013-04-07T07:28:39.000Z</time>
      </trkpt>
      <trkpt lon="7.18173298984766" lat="46.17107399739325">
        <ele>524.5999755859375</ele>
        <time>2013-04-07T07:32:54.000Z</time>
      </trkpt>
      <trkpt lon="7.1818189881742" lat="46.170806949958205">
        <ele>518.7999877929688</ele>
        <time>2013-04-07T07:32:58.000Z</time>
      </trkpt>
      <trkpt lon="7.18184195458889" lat="46.17081499658525">
        <ele>519.2000122070312</ele>
        <time>2013-04-07T07:33:00.000Z</time>
      </trkpt>
      <trkpt lon="7.181882942095399" lat="46.170830922201276">
        <ele>520.0</ele>
        <time>2013-04-07T07:33:04.000Z</time>
      </trkpt>
      <trkpt lon="7.182020992040634" lat="46.170824971050024">
        <ele>521.2000122070312</ele>
        <time>2013-04-07T07:33:10.000Z</time>
      </trkpt>
      <trkpt lon="7.182061979547143" lat="46.17088892497122">
        <ele>522.4000244140625</ele>
        <time>2013-04-07T07:33:18.000Z</time>
      </trkpt>
      <trkpt lon="7.182109924033284" lat="46.170936953276396">
        <ele>523.4000244140625</ele>
        <time>2013-04-07T07:33:23.000Z</time>
      </trkpt>
      <trkpt lon="7.182147977873683" lat="46.17097492329776">
        <ele>524.0</ele>
        <time>2013-04-07T07:33:28.000Z</time>
      </trkpt>
      <trkpt lon="7.182052927091718" lat="46.17101498879492">
        <ele>524.0</ele>
        <time>2013-04-07T07:33:34.000Z</time>
      </trkpt>
      <trkpt lon="7.181960977613926" lat="46.17103292606771">
        <ele>524.2000122070312</ele>
        <time>2013-04-07T07:33:39.000Z</time>
      </trkpt>
      <trkpt lon="7.181863998994231" lat="46.17105195298791">
        <ele>524.2000122070312</ele>
        <time>2013-04-07T07:33:44.000Z</time>
      </trkpt>
      <trkpt lon="7.181667946279049" lat="46.17109595797956">
        <ele>525.2000122070312</ele>
        <time>2013-04-07T07:33:52.000Z</time>
      </trkpt>
      <trkpt lon="7.181667946279049" lat="46.17109595797956">
        <ele>525.2000122070312</ele>
        <time>2013-04-07T07:33:56.000Z</time>
      </trkpt>
      <trkpt lon="7.181620923802257" lat="46.171083971858025">
        <ele>525.7999877929688</ele>
        <time>2013-04-07T07:34:04.000Z</time>
      </trkpt>
      <trkpt lon="7.18152092769742" lat="46.17104792967439">
        <ele>526.5999755859375</ele>
        <time>2013-04-07T07:34:11.000Z</time>
      </trkpt>
      <trkpt lon="7.181399976834655" lat="46.17099495604634">
        <ele>527.4000244140625</ele>
        <time>2013-04-07T07:34:18.000Z</time>
      </trkpt>
      <trkpt lon="7.181193949654698" lat="46.17089998908341">
        <ele>528.0</ele>
        <time>2013-04-07T07:34:29.000Z</time>
      </trkpt>
      <trkpt lon="7.181036956608295" lat="46.17083595134318">
        <ele>528.5999755859375</ele>
        <time>2013-04-07T07:34:36.000Z</time>
      </trkpt>
      <trkpt lon="7.180870994925499" lat="46.170787923038006">
        <ele>529.0</ele>
        <time>2013-04-07T07:34:45.000Z</time>
      </trkpt>
      <trkpt lon="7.1808329410851" lat="46.17077794857323">
        <ele>529.0</ele>
        <time>2013-04-07T07:34:47.000Z</time>
      </trkpt>
      <trkpt lon="7.18066094443202" lat="46.17073092609644">
        <ele>530.7999877929688</ele>
        <time>2013-04-07T07:34:55.000Z</time>
      </trkpt>
      <trkpt lon="7.180390963330865" lat="46.17076696828008">
        <ele>539.4000244140625</ele>
        <time>2013-04-07T07:35:04.000Z</time>
      </trkpt>
      <trkpt lon="7.180223995819688" lat="46.17067191749811">
        <ele>538.0</ele>
        <time>2013-04-07T07:35:13.000Z</time>
      </trkpt>
      <trkpt lon="7.180073959752917" lat="46.17058399133384">
        <ele>536.5999755859375</ele>
        <time>2013-04-07T07:35:21.000Z</time>
      </trkpt>
      <trkpt lon="7.180236987769604" lat="46.17017696611583">
        <ele>509.3999938964844</ele>
        <time>2013-04-07T07:35:25.000Z</time>
      </trkpt>
      <trkpt lon="7.18003791756928" lat="46.17053193971515">
        <ele>534.4000244140625</ele>
        <time>2013-04-07T07:35:30.000Z</time>
      </trkpt>
      <trkpt lon="7.180109918117523" lat="46.17060695774853">
        <ele>537.0</ele>
        <time>2013-04-07T07:35:35.000Z</time>
      </trkpt>
      <trkpt lon="7.180282920598984" lat="46.17070594802499">
        <ele>538.5999755859375</ele>
        <time>2013-04-07T07:35:43.000Z</time>
      </trkpt>
      <trkpt lon="7.180467993021011" lat="46.17081399075687">
        <ele>540.0</ele>
        <time>2013-04-07T07:35:52.000Z</time>
      </trkpt>
      <trkpt lon="7.180648958310485" lat="46.17092999629676">
        <ele>540.0</ele>
        <time>2013-04-07T07:36:02.000Z</time>
      </trkpt>
      <trkpt lon="7.180783990770578" lat="46.17104893550277">
        <ele>541.2000122070312</ele>
        <time>2013-04-07T07:36:11.000Z</time>
      </trkpt>
      <trkpt lon="7.180890943855047" lat="46.17115496657789">
        <ele>543.0</ele>
        <time>2013-04-07T07:36:19.000Z</time>
      </trkpt>
      <trkpt lon="7.181014996021986" lat="46.171278934925795">
        <ele>545.0</ele>
        <time>2013-04-07T07:36:28.000Z</time>
      </trkpt>
      <trkpt lon="7.181103928014636" lat="46.1714409571141">
        <ele>548.5999755859375</ele>
        <time>2013-04-07T07:36:38.000Z</time>
      </trkpt>
      <trkpt lon="7.1811889205127954" lat="46.171601973474026">
        <ele>551.7999877929688</ele>
        <time>2013-04-07T07:36:48.000Z</time>
      </trkpt>
      <trkpt lon="7.181263938546181" lat="46.17172191850841">
        <ele>553.0</ele>
        <time>2013-04-07T07:36:56.000Z</time>
      </trkpt>
      <trkpt lon="7.1813959535211325" lat="46.17185393348336">
        <ele>551.7999877929688</ele>
        <time>2013-04-07T07:37:05.000Z</time>
      </trkpt>
      <trkpt lon="7.181527968496084" lat="46.171985948458314">
        <ele>551.0</ele>
        <time>2013-04-07T07:37:15.000Z</time>
      </trkpt>
      <trkpt lon="7.181616984307766" lat="46.17210698314011">
        <ele>551.4000244140625</ele>
        <time>2013-04-07T07:37:23.000Z</time>
      </trkpt>
      <trkpt lon="7.181684961542487" lat="46.17221393622458">
        <ele>552.4000244140625</ele>
        <time>2013-04-07T07:37:30.000Z</time>
      </trkpt>
      <trkpt lon="7.1817319840192795" lat="46.172331953421235">
        <ele>553.7999877929688</ele>
        <time>2013-04-07T07:37:36.000Z</time>
      </trkpt>
      <trkpt lon="7.181765930727124" lat="46.172458939254284">
        <ele>555.7999877929688</ele>
        <time>2013-04-07T07:37:44.000Z</time>
      </trkpt>
      <trkpt lon="7.181801972910762" lat="46.172592965886">
        <ele>557.7999877929688</ele>
        <time>2013-04-07T07:37:53.000Z</time>
      </trkpt>
      <trkpt lon="7.181825945153832" lat="46.1726809758693">
        <ele>559.0</ele>
        <time>2013-04-07T07:37:59.000Z</time>
      </trkpt>
      <trkpt lon="7.181867938488722" lat="46.1728189419955">
        <ele>561.2000122070312</ele>
        <time>2013-04-07T07:38:08.000Z</time>
      </trkpt>
      <trkpt lon="7.1820329781621695" lat="46.172952968627214">
        <ele>561.7999877929688</ele>
        <time>2013-04-07T07:38:19.000Z</time>
      </trkpt>
      <trkpt lon="7.182190977036953" lat="46.17303293198347">
        <ele>561.7999877929688</ele>
        <time>2013-04-07T07:38:27.000Z</time>
      </trkpt>
      <trkpt lon="7.182389963418245" lat="46.17311691865325">
        <ele>561.7999877929688</ele>
        <time>2013-04-07T07:38:37.000Z</time>
      </trkpt>
      <trkpt lon="7.182562965899706" lat="46.173189925029874">
        <ele>562.0</ele>
        <time>2013-04-07T07:38:46.000Z</time>
      </trkpt>
      <trkpt lon="7.182731945067644" lat="46.17326594889164">
        <ele>561.7999877929688</ele>
        <time>2013-04-07T07:38:55.000Z</time>
      </trkpt>
      <trkpt lon="7.182900924235582" lat="46.17334599606693">
        <ele>562.2000122070312</ele>
        <time>2013-04-07T07:39:04.000Z</time>
      </trkpt>
      <trkpt lon="7.1831099689006805" lat="46.173451943323016">
        <ele>563.2000122070312</ele>
        <time>2013-04-07T07:39:15.000Z</time>
      </trkpt>
      <trkpt lon="7.183230919763446" lat="46.17351799272001">
        <ele>564.4000244140625</ele>
        <time>2013-04-07T07:39:22.000Z</time>
      </trkpt>
      <trkpt lon="7.183377938345075" lat="46.17361597716808">
        <ele>566.4000244140625</ele>
        <time>2013-04-07T07:39:30.000Z</time>
      </trkpt>
      <trkpt lon="7.183532919734716" lat="46.173727959394455">
        <ele>567.7999877929688</ele>
        <time>2013-04-07T07:39:38.000Z</time>
      </trkpt>
      <trkpt lon="7.183740958571434" lat="46.17391697131097">
        <ele>571.5999755859375</ele>
        <time>2013-04-07T07:39:48.000Z</time>
      </trkpt>
      <trkpt lon="7.183909937739372" lat="46.174050997942686">
        <ele>573.5999755859375</ele>
        <time>2013-04-07T07:39:55.000Z</time>
      </trkpt>
      <trkpt lon="7.184002976864576" lat="46.17424093186855">
        <ele>579.4000244140625</ele>
        <time>2013-04-07T07:40:03.000Z</time>
      </trkpt>
      <trkpt lon="7.1840759832412004" lat="46.17438392713666">
        <ele>583.4000244140625</ele>
        <time>2013-04-07T07:40:10.000Z</time>
      </trkpt>
      <trkpt lon="7.184187965467572" lat="46.17451191879809">
        <ele>586.0</ele>
        <time>2013-04-07T07:40:17.000Z</time>
      </trkpt>
      <trkpt lon="7.184250997379422" lat="46.17457897402346">
        <ele>586.7999877929688</ele>
        <time>2013-04-07T07:40:21.000Z</time>
      </trkpt>
      <trkpt lon="7.184404972940683" lat="46.174715934321284">
        <ele>587.7999877929688</ele>
        <time>2013-04-07T07:40:31.000Z</time>
      </trkpt>
      <trkpt lon="7.184600941836834" lat="46.174844931811094">
        <ele>587.2000122070312</ele>
        <time>2013-04-07T07:40:41.000Z</time>
      </trkpt>
      <trkpt lon="7.184788947924972" lat="46.17496395483613">
        <ele>586.5999755859375</ele>
        <time>2013-04-07T07:40:50.000Z</time>
      </trkpt>
      <trkpt lon="7.185012996196747" lat="46.175105944275856">
        <ele>587.4000244140625</ele>
        <time>2013-04-07T07:41:00.000Z</time>
      </trkpt>
      <trkpt lon="7.185155991464853" lat="46.17524893954396">
        <ele>590.2000122070312</ele>
        <time>2013-04-07T07:41:08.000Z</time>
      </trkpt>
      <trkpt lon="7.185308961197734" lat="46.1754369456321">
        <ele>594.7999877929688</ele>
        <time>2013-04-07T07:41:18.000Z</time>
      </trkpt>
      <trkpt lon="7.185436952859163" lat="46.175553957000375">
        <ele>596.2000122070312</ele>
        <time>2013-04-07T07:41:25.000Z</time>
      </trkpt>
      <trkpt lon="7.185612972825766" lat="46.17569795809686">
        <ele>596.7999877929688</ele>
        <time>2013-04-07T07:41:34.000Z</time>
      </trkpt>
      <trkpt lon="7.1857979614287615" lat="46.17584992200136">
        <ele>597.2000122070312</ele>
        <time>2013-04-07T07:41:43.000Z</time>
      </trkpt>
      <trkpt lon="7.18601094558835" lat="46.176024936139584">
        <ele>598.2000122070312</ele>
        <time>2013-04-07T07:41:54.000Z</time>
      </trkpt>
      <trkpt lon="7.186165926977992" lat="46.17616499774158">
        <ele>599.5999755859375</ele>
        <time>2013-04-07T07:42:03.000Z</time>
      </trkpt>
      <trkpt lon="7.1863209921866655" lat="46.176309920847416">
        <ele>601.0</ele>
        <time>2013-04-07T07:42:12.000Z</time>
      </trkpt>
      <trkpt lon="7.1864579524844885" lat="46.176434978842735">
        <ele>601.7999877929688</ele>
        <time>2013-04-07T07:42:20.000Z</time>
      </trkpt>
      <trkpt lon="7.186653921380639" lat="46.176628936082125">
        <ele>603.5999755859375</ele>
        <time>2013-04-07T07:42:32.000Z</time>
      </trkpt>
      <trkpt lon="7.18674193136394" lat="46.1767269205302">
        <ele>603.0</ele>
        <time>2013-04-07T07:42:38.000Z</time>
      </trkpt>
      <trkpt lon="7.186893979087472" lat="46.176909981295466">
        <ele>601.2000122070312</ele>
        <time>2013-04-07T07:42:49.000Z</time>
      </trkpt>
      <trkpt lon="7.186994981020689" lat="46.177059933543205">
        <ele>600.7999877929688</ele>
        <time>2013-04-07T07:42:57.000Z</time>
      </trkpt>
      <trkpt lon="7.187102939933538" lat="46.17724894545972">
        <ele>601.5999755859375</ele>
        <time>2013-04-07T07:43:07.000Z</time>
      </trkpt>
      <trkpt lon="7.187206959351897" lat="46.17742999456823">
        <ele>602.7999877929688</ele>
        <time>2013-04-07T07:43:17.000Z</time>
      </trkpt>
      <trkpt lon="7.187274936586618" lat="46.17754993960261">
        <ele>603.2000122070312</ele>
        <time>2013-04-07T07:43:24.000Z</time>
      </trkpt>
      <trkpt lon="7.187313996255398" lat="46.17769494652748">
        <ele>604.5999755859375</ele>
        <time>2013-04-07T07:43:33.000Z</time>
      </trkpt>
      <trkpt lon="7.187331933528185" lat="46.17782293818891">
        <ele>606.5999755859375</ele>
        <time>2013-04-07T07:43:41.000Z</time>
      </trkpt>
      <trkpt lon="7.18732095323503" lat="46.1779529415071">
        <ele>609.4000244140625</ele>
        <time>2013-04-07T07:43:50.000Z</time>
      </trkpt>
      <trkpt lon="7.187315924093127" lat="46.17802091874182">
        <ele>610.7999877929688</ele>
        <time>2013-04-07T07:43:56.000Z</time>
      </trkpt>
      <trkpt lon="7.187314918264747" lat="46.17808193899691">
        <ele>612.2000122070312</ele>
        <time>2013-04-07T07:44:02.000Z</time>
      </trkpt>
      <trkpt lon="7.1873829793185" lat="46.1782309692353">
        <ele>613.0</ele>
        <time>2013-04-07T07:44:12.000Z</time>
      </trkpt>
      <trkpt lon="7.187470989301801" lat="46.17834999226034">
        <ele>613.0</ele>
        <time>2013-04-07T07:44:20.000Z</time>
      </trkpt>
      <trkpt lon="7.1875629387795925" lat="46.17846499197185">
        <ele>612.5999755859375</ele>
        <time>2013-04-07T07:44:28.000Z</time>
      </trkpt>
      <trkpt lon="7.187681961804628" lat="46.17861595004797">
        <ele>612.7999877929688</ele>
        <time>2013-04-07T07:44:38.000Z</time>
      </trkpt>
      <trkpt lon="7.187756979838014" lat="46.178753999993205">
        <ele>614.0</ele>
        <time>2013-04-07T07:44:47.000Z</time>
      </trkpt>
      <trkpt lon="7.187822945415974" lat="46.178885931149125">
        <ele>615.7999877929688</ele>
        <time>2013-04-07T07:44:56.000Z</time>
      </trkpt>
      <trkpt lon="7.187876924872398" lat="46.179016940295696">
        <ele>618.2000122070312</ele>
        <time>2013-04-07T07:45:04.000Z</time>
      </trkpt>
      <trkpt lon="7.187931993976235" lat="46.17915197275579">
        <ele>620.7999877929688</ele>
        <time>2013-04-07T07:45:13.000Z</time>
      </trkpt>
      <trkpt lon="7.187973987311125" lat="46.17925599217415">
        <ele>621.0</ele>
        <time>2013-04-07T07:45:20.000Z</time>
      </trkpt>
      <trkpt lon="7.1880559623241425" lat="46.179400999099016">
        <ele>620.4000244140625</ele>
        <time>2013-04-07T07:45:28.000Z</time>
      </trkpt>
      <trkpt lon="7.188238939270377" lat="46.179614989086986">
        <ele>618.4000244140625</ele>
        <time>2013-04-07T07:45:40.000Z</time>
      </trkpt>
      <trkpt lon="7.18839593231678" lat="46.17974993772805">
        <ele>615.7999877929688</ele>
        <time>2013-04-07T07:45:48.000Z</time>
      </trkpt>
      <trkpt lon="7.188602965325117" lat="46.17997398599982">
        <ele>612.0</ele>
        <time>2013-04-07T07:46:00.000Z</time>
      </trkpt>
      <trkpt lon="7.188613945618272" lat="46.180086974054575">
        <ele>610.0</ele>
        <time>2013-04-07T07:46:06.000Z</time>
      </trkpt>
      <trkpt lon="7.188600953668356" lat="46.18016098625958">
        <ele>608.5999755859375</ele>
        <time>2013-04-07T07:46:11.000Z</time>
      </trkpt>
      <trkpt lon="7.188476985320449" lat="46.18016299791634">
        <ele>610.7999877929688</ele>
        <time>2013-04-07T07:46:17.000Z</time>
      </trkpt>
      <trkpt lon="7.188267940655351" lat="46.18010398931801">
        <ele>616.2000122070312</ele>
        <time>2013-04-07T07:46:28.000Z</time>
      </trkpt>
      <trkpt lon="7.188079934567213" lat="46.180064929649234">
        <ele>620.5999755859375</ele>
        <time>2013-04-07T07:46:36.000Z</time>
      </trkpt>
      <trkpt lon="7.187916990369558" lat="46.180064929649234">
        <ele>623.4000244140625</ele>
        <time>2013-04-07T07:46:44.000Z</time>
      </trkpt>
      <trkpt lon="7.187758991494775" lat="46.18005998432636">
        <ele>626.4000244140625</ele>
        <time>2013-04-07T07:46:52.000Z</time>
      </trkpt>
      <trkpt lon="7.187680955976248" lat="46.18005596101284">
        <ele>627.7999877929688</ele>
        <time>2013-04-07T07:46:56.000Z</time>
      </trkpt>
      <trkpt lon="7.1875629387795925" lat="46.180048920214176">
        <ele>630.2000122070312</ele>
        <time>2013-04-07T07:47:02.000Z</time>
      </trkpt>
      <trkpt lon="7.1874109748750925" lat="46.180043974891305">
        <ele>633.4000244140625</ele>
        <time>2013-04-07T07:47:09.000Z</time>
      </trkpt>
      <trkpt lon="7.187330927699804" lat="46.18002695962787">
        <ele>635.5999755859375</ele>
        <time>2013-04-07T07:47:14.000Z</time>
      </trkpt>
      <trkpt lon="7.187165971845388" lat="46.17996392771602">
        <ele>639.4000244140625</ele>
        <time>2013-04-07T07:47:23.000Z</time>
      </trkpt>
      <trkpt lon="7.187004955485463" lat="46.17990299127996">
        <ele>642.4000244140625</ele>
        <time>2013-04-07T07:47:32.000Z</time>
      </trkpt>
      <trkpt lon="7.186852991580963" lat="46.17984498851001">
        <ele>645.0</ele>
        <time>2013-04-07T07:47:42.000Z</time>
      </trkpt>
      <trkpt lon="7.186709996312857" lat="46.17979293689132">
        <ele>647.5999755859375</ele>
        <time>2013-04-07T07:47:52.000Z</time>
      </trkpt>
      <trkpt lon="7.186594996601343" lat="46.17975496686995">
        <ele>649.4000244140625</ele>
        <time>2013-04-07T07:48:00.000Z</time>
      </trkpt>
      <trkpt lon="7.186456946656108" lat="46.17970895022154">
        <ele>651.4000244140625</ele>
        <time>2013-04-07T07:48:09.000Z</time>
      </trkpt>
      <trkpt lon="7.18631093390286" lat="46.17968497797847">
        <ele>653.5999755859375</ele>
        <time>2013-04-07T07:48:16.000Z</time>
      </trkpt>
      <trkpt lon="7.186252931132913" lat="46.179677937179804">
        <ele>654.5999755859375</ele>
        <time>2013-04-07T07:48:19.000Z</time>
      </trkpt>
      <trkpt lon="7.18611697666347" lat="46.179660921916366">
        <ele>656.5999755859375</ele>
        <time>2013-04-07T07:48:26.000Z</time>
      </trkpt>
      <trkpt lon="7.185954954475164" lat="46.1796279810369">
        <ele>659.2000122070312</ele>
        <time>2013-04-07T07:48:35.000Z</time>
      </trkpt>
      <trkpt lon="7.185792932286859" lat="46.179570984095335">
        <ele>661.2000122070312</ele>
        <time>2013-04-07T07:48:44.000Z</time>
      </trkpt>
      <trkpt lon="7.185696959495544" lat="46.179528990760446">
        <ele>661.7999877929688</ele>
        <time>2013-04-07T07:48:52.000Z</time>
      </trkpt>
      <trkpt lon="7.185566956177354" lat="46.17947299964726">
        <ele>662.4000244140625</ele>
        <time>2013-04-07T07:49:00.000Z</time>
      </trkpt>
      <trkpt lon="7.185464948415756" lat="46.17942798882723">
        <ele>662.7999877929688</ele>
        <time>2013-04-07T07:49:06.000Z</time>
      </trkpt>
      <trkpt lon="7.18534592539072" lat="46.17936696857214">
        <ele>663.2000122070312</ele>
        <time>2013-04-07T07:49:13.000Z</time>
      </trkpt>
      <trkpt lon="7.185251964256167" lat="46.179311983287334">
        <ele>663.4000244140625</ele>
        <time>2013-04-07T07:49:19.000Z</time>
      </trkpt>
      <trkpt lon="7.185105951502919" lat="46.17921894416213">
        <ele>663.5999755859375</ele>
        <time>2013-04-07T07:49:29.000Z</time>
      </trkpt>
      <trkpt lon="7.18495893292129" lat="46.179098999127746">
        <ele>667.2000122070312</ele>
        <time>2013-04-07T07:49:39.000Z</time>
      </trkpt>
      <trkpt lon="7.1847739443182945" lat="46.17895692586899">
        <ele>675.5999755859375</ele>
        <time>2013-04-07T07:49:50.000Z</time>
      </trkpt>
      <trkpt lon="7.184666991233826" lat="46.178903952240944">
        <ele>678.7999877929688</ele>
        <time>2013-04-07T07:49:56.000Z</time>
      </trkpt>
      <trkpt lon="7.184550985693932" lat="46.178845949471">
        <ele>681.5999755859375</ele>
        <time>2013-04-07T07:50:03.000Z</time>
      </trkpt>
      <trkpt lon="7.184439925476909" lat="46.178752994164824">
        <ele>684.4000244140625</ele>
        <time>2013-04-07T07:50:11.000Z</time>
      </trkpt>
      <trkpt lon="7.184352921321988" lat="46.17866498418152">
        <ele>686.2000122070312</ele>
        <time>2013-04-07T07:50:18.000Z</time>
      </trkpt>
      <trkpt lon="7.184236999601126" lat="46.17852198891342">
        <ele>687.5999755859375</ele>
        <time>2013-04-07T07:50:28.000Z</time>
      </trkpt>
      <trkpt lon="7.1841369196772575" lat="46.17839592508972">
        <ele>688.2000122070312</ele>
        <time>2013-04-07T07:50:37.000Z</time>
      </trkpt>
      <trkpt lon="7.184059973806143" lat="46.17829794064164">
        <ele>688.5999755859375</ele>
        <time>2013-04-07T07:50:44.000Z</time>
      </trkpt>
      <trkpt lon="7.183985961601138" lat="46.17820397950709">
        <ele>688.7999877929688</ele>
        <time>2013-04-07T07:50:51.000Z</time>
      </trkpt>
      <trkpt lon="7.183901974931359" lat="46.17808294482529">
        <ele>688.7999877929688</ele>
        <time>2013-04-07T07:51:00.000Z</time>
      </trkpt>
      <trkpt lon="7.183827962726355" lat="46.177958976477385">
        <ele>688.7999877929688</ele>
        <time>2013-04-07T07:51:09.000Z</time>
      </trkpt>
      <trkpt lon="7.183748921379447" lat="46.17784598842263">
        <ele>689.0</ele>
        <time>2013-04-07T07:51:17.000Z</time>
      </trkpt>
      <trkpt lon="7.183739952743053" lat="46.177834924310446">
        <ele>689.0</ele>
        <time>2013-04-07T07:51:19.000Z</time>
      </trkpt>
      <trkpt lon="7.183739952743053" lat="46.177834924310446">
        <ele>689.0</ele>
        <time>2013-04-07T07:52:24.000Z</time>
      </trkpt>
      <trkpt lon="7.183739952743053" lat="46.177834924310446">
        <ele>689.0</ele>
        <time>2013-04-07T07:52:27.000Z</time>
      </trkpt>
      <trkpt lon="7.183717992156744" lat="46.17780793458223">
        <ele>689.2000122070312</ele>
        <time>2013-04-07T07:52:34.000Z</time>
      </trkpt>
      <trkpt lon="7.183717992156744" lat="46.17780793458223">
        <ele>689.2000122070312</ele>
        <time>2013-04-07T07:52:37.000Z</time>
      </trkpt>
      <trkpt lon="7.18364498578012" lat="46.17773693986237">
        <ele>689.5999755859375</ele>
        <time>2013-04-07T07:52:50.000Z</time>
      </trkpt>
      <trkpt lon="7.1836109552532434" lat="46.17770894430578">
        <ele>689.7999877929688</ele>
        <time>2013-04-07T07:52:53.000Z</time>
      </trkpt>
      <trkpt lon="7.183584971353412" lat="46.17768899537623">
        <ele>690.0</ele>
        <time>2013-04-07T07:52:55.000Z</time>
      </trkpt>
      <trkpt lon="7.183544989675283" lat="46.177658988162875">
        <ele>690.2000122070312</ele>
        <time>2013-04-07T07:52:58.000Z</time>
      </trkpt>
      <trkpt lon="7.183398976922035" lat="46.177552957087755">
        <ele>691.4000244140625</ele>
        <time>2013-04-07T07:53:07.000Z</time>
      </trkpt>
      <trkpt lon="7.18334399163723" lat="46.17751297540963">
        <ele>691.7999877929688</ele>
        <time>2013-04-07T07:53:11.000Z</time>
      </trkpt>
      <trkpt lon="7.183284983038902" lat="46.17746092379093">
        <ele>691.4000244140625</ele>
        <time>2013-04-07T07:53:17.000Z</time>
      </trkpt>
      <trkpt lon="7.183167971670628" lat="46.177356988191605">
        <ele>690.4000244140625</ele>
        <time>2013-04-07T07:53:26.000Z</time>
      </trkpt>
      <trkpt lon="7.183013996109366" lat="46.17726495489478">
        <ele>689.5999755859375</ele>
        <time>2013-04-07T07:53:35.000Z</time>
      </trkpt>
      <trkpt lon="7.182841999456286" lat="46.17716998793185">
        <ele>689.0</ele>
        <time>2013-04-07T07:53:45.000Z</time>
      </trkpt>
      <trkpt lon="7.182689951732755" lat="46.177079966291785">
        <ele>688.5999755859375</ele>
        <time>2013-04-07T07:53:55.000Z</time>
      </trkpt>
      <trkpt lon="7.182525917887688" lat="46.177017940208316">
        <ele>688.7999877929688</ele>
        <time>2013-04-07T07:54:03.000Z</time>
      </trkpt>
      <trkpt lon="7.182359956204891" lat="46.17706697434187">
        <ele>690.0</ele>
        <time>2013-04-07T07:54:10.000Z</time>
      </trkpt>
      <trkpt lon="7.182207992300391" lat="46.17717795073986">
        <ele>692.5999755859375</ele>
        <time>2013-04-07T07:54:19.000Z</time>
      </trkpt>
      <trkpt lon="7.182088969275355" lat="46.177270989865065">
        <ele>695.0</ele>
        <time>2013-04-07T07:54:27.000Z</time>
      </trkpt>
      <trkpt lon="7.182008922100067" lat="46.177336955443025">
        <ele>697.0</ele>
        <time>2013-04-07T07:54:34.000Z</time>
      </trkpt>
      <trkpt lon="7.181879924610257" lat="46.177422953769565">
        <ele>700.2000122070312</ele>
        <time>2013-04-07T07:54:44.000Z</time>
      </trkpt>
      <trkpt lon="7.181710945442319" lat="46.177468970417976">
        <ele>703.5999755859375</ele>
        <time>2013-04-07T07:54:54.000Z</time>
      </trkpt>
      <trkpt lon="7.181594939902425" lat="46.177445920184255">
        <ele>706.2000122070312</ele>
        <time>2013-04-07T07:55:03.000Z</time>
      </trkpt>
      <trkpt lon="7.181580942124128" lat="46.177442986518145">
        <ele>706.7999877929688</ele>
        <time>2013-04-07T07:55:04.000Z</time>
      </trkpt>
      <trkpt lon="7.1814339235424995" lat="46.17740694433451">
        <ele>711.2000122070312</ele>
        <time>2013-04-07T07:55:14.000Z</time>
      </trkpt>
      <trkpt lon="7.181350942701101" lat="46.177380960434675">
        <ele>713.5999755859375</ele>
        <time>2013-04-07T07:55:19.000Z</time>
      </trkpt>
      <trkpt lon="7.181201996281743" lat="46.17732899263501">
        <ele>717.2000122070312</ele>
        <time>2013-04-07T07:55:29.000Z</time>
      </trkpt>
      <trkpt lon="7.181105939671397" lat="46.17725992575288">
        <ele>718.0</ele>
        <time>2013-04-07T07:55:37.000Z</time>
      </trkpt>
      <trkpt lon="7.181022958829999" lat="46.17719898931682">
        <ele>718.4000244140625</ele>
        <time>2013-04-07T07:55:44.000Z</time>
      </trkpt>
      <trkpt lon="7.180919945240021" lat="46.17710595019162">
        <ele>717.7999877929688</ele>
        <time>2013-04-07T07:55:54.000Z</time>
      </trkpt>
      <trkpt lon="7.1808649599552155" lat="46.17706496268511">
        <ele>717.5999755859375</ele>
        <time>2013-04-07T07:55:59.000Z</time>
      </trkpt>
      <trkpt lon="7.180806957185268" lat="46.17702196352184">
        <ele>717.7999877929688</ele>
        <time>2013-04-07T07:56:04.000Z</time>
      </trkpt>
      <trkpt lon="7.18067997135222" lat="46.1769359651953">
        <ele>718.7999877929688</ele>
        <time>2013-04-07T07:56:14.000Z</time>
      </trkpt>
      <trkpt lon="7.180585926398635" lat="46.17687092162669">
        <ele>719.2000122070312</ele>
        <time>2013-04-07T07:56:22.000Z</time>
      </trkpt>
      <trkpt lon="7.180496994405985" lat="46.17680998519063">
        <ele>719.5999755859375</ele>
        <time>2013-04-07T07:56:30.000Z</time>
      </trkpt>
      <trkpt lon="7.180387945845723" lat="46.176736978814006">
        <ele>720.0</ele>
        <time>2013-04-07T07:56:39.000Z</time>
      </trkpt>
      <trkpt lon="7.180308988317847" lat="46.176667995750904">
        <ele>719.2000122070312</ele>
        <time>2013-04-07T07:56:47.000Z</time>
      </trkpt>
      <trkpt lon="7.18029297888279" lat="46.176651986315846">
        <ele>719.0</ele>
        <time>2013-04-07T07:56:49.000Z</time>
      </trkpt>
      <trkpt lon="7.180235981941223" lat="46.1765939835459">
        <ele>717.7999877929688</ele>
        <time>2013-04-07T07:56:56.000Z</time>
      </trkpt>
      <trkpt lon="7.180209998041391" lat="46.17656799964607">
        <ele>717.2000122070312</ele>
        <time>2013-04-07T07:56:59.000Z</time>
      </trkpt>
      <trkpt lon="7.180135985836387" lat="46.1765939835459">
        <ele>721.0</ele>
        <time>2013-04-07T07:57:05.000Z</time>
      </trkpt>
      <trkpt lon="7.180168926715851" lat="46.17663798853755">
        <ele>722.4000244140625</ele>
        <time>2013-04-07T07:57:09.000Z</time>
      </trkpt>
      <trkpt lon="7.180195916444063" lat="46.176691967993975">
        <ele>724.4000244140625</ele>
        <time>2013-04-07T07:57:16.000Z</time>
      </trkpt>
      <trkpt lon="7.180241933092475" lat="46.17678391747177">
        <ele>727.5999755859375</ele>
        <time>2013-04-07T07:57:25.000Z</time>
      </trkpt>
      <trkpt lon="7.180246962234378" lat="46.17679397575557">
        <ele>728.0</ele>
        <time>2013-04-07T07:57:26.000Z</time>
      </trkpt>
      <trkpt lon="7.180290967226028" lat="46.17688198573887">
        <ele>730.7999877929688</ele>
        <time>2013-04-07T07:57:34.000Z</time>
      </trkpt>
      <trkpt lon="7.180333966389298" lat="46.17695691995323">
        <ele>733.0</ele>
        <time>2013-04-07T07:57:41.000Z</time>
      </trkpt>
      <trkpt lon="7.180340923368931" lat="46.17696798406541">
        <ele>733.4000244140625</ele>
        <time>2013-04-07T07:57:42.000Z</time>
      </trkpt>
      <trkpt lon="7.180367996916175" lat="46.177014922723174">
        <ele>734.5999755859375</ele>
        <time>2013-04-07T07:57:46.000Z</time>
      </trkpt>
      <trkpt lon="7.180433962494135" lat="46.17712891660631">
        <ele>737.7999877929688</ele>
        <time>2013-04-07T07:57:55.000Z</time>
      </trkpt>
      <trkpt lon="7.180513925850391" lat="46.17725992575288">
        <ele>740.7999877929688</ele>
        <time>2013-04-07T07:58:04.000Z</time>
      </trkpt>
      <trkpt lon="7.180591961368918" lat="46.177356988191605">
        <ele>742.2000122070312</ele>
        <time>2013-04-07T07:58:12.000Z</time>
      </trkpt>
      <trkpt lon="7.180658932775259" lat="46.17744097486138">
        <ele>743.0</ele>
        <time>2013-04-07T07:58:21.000Z</time>
      </trkpt>
      <trkpt lon="7.1807359624654055" lat="46.177532924339175">
        <ele>743.7999877929688</ele>
        <time>2013-04-07T07:58:29.000Z</time>
      </trkpt>
      <trkpt lon="7.180828917771578" lat="46.1776439845562">
        <ele>744.7999877929688</ele>
        <time>2013-04-07T07:58:39.000Z</time>
      </trkpt>
      <trkpt lon="7.1809149999171495" lat="46.177746998146176">
        <ele>746.0</ele>
        <time>2013-04-07T07:58:47.000Z</time>
      </trkpt>
      <trkpt lon="7.181007955223322" lat="46.177855962887406">
        <ele>747.0</ele>
        <time>2013-04-07T07:58:56.000Z</time>
      </trkpt>
      <trkpt lon="7.181092947721481" lat="46.17795193567872">
        <ele>747.4000244140625</ele>
        <time>2013-04-07T07:59:04.000Z</time>
      </trkpt>
      <trkpt lon="7.181116919964552" lat="46.17797791957855">
        <ele>747.4000244140625</ele>
        <time>2013-04-07T07:59:09.000Z</time>
      </trkpt>
      <trkpt lon="7.181221945211291" lat="46.178092919290066">
        <ele>747.5999755859375</ele>
        <time>2013-04-07T07:59:20.000Z</time>
      </trkpt>
      <trkpt lon="7.1812619268894196" lat="46.17813893593848">
        <ele>747.5999755859375</ele>
        <time>2013-04-07T07:59:24.000Z</time>
      </trkpt>
      <trkpt lon="7.181321941316128" lat="46.17820993065834">
        <ele>747.7999877929688</ele>
        <time>2013-04-07T07:59:31.000Z</time>
      </trkpt>
      <trkpt lon="7.181331999599934" lat="46.17822099477053">
        <ele>747.7999877929688</ele>
        <time>2013-04-07T07:59:32.000Z</time>
      </trkpt>
      <trkpt lon="7.181403916329145" lat="46.178304981440306">
        <ele>747.5999755859375</ele>
        <time>2013-04-07T07:59:40.000Z</time>
      </trkpt>
      <trkpt lon="7.181479940190911" lat="46.17839299142361">
        <ele>748.0</ele>
        <time>2013-04-07T07:59:48.000Z</time>
      </trkpt>
      <trkpt lon="7.181536937132478" lat="46.17845996282995">
        <ele>748.2000122070312</ele>
        <time>2013-04-07T07:59:54.000Z</time>
      </trkpt>
      <trkpt lon="7.181623941287398" lat="46.178561970591545">
        <ele>748.5999755859375</ele>
        <time>2013-04-07T08:00:02.000Z</time>
      </trkpt>
      <trkpt lon="7.181714968755841" lat="46.17866791784763">
        <ele>749.2000122070312</ele>
        <time>2013-04-07T08:00:10.000Z</time>
      </trkpt>
      <trkpt lon="7.181795937940478" lat="46.17877294309437">
        <ele>750.4000244140625</ele>
        <time>2013-04-07T08:00:18.000Z</time>
      </trkpt>
      <trkpt lon="7.181868944317102" lat="46.17887997999787">
        <ele>751.7999877929688</ele>
        <time>2013-04-07T08:00:26.000Z</time>
      </trkpt>
      <trkpt lon="7.1819469798356295" lat="46.178991962224245">
        <ele>753.0</ele>
        <time>2013-04-07T08:00:36.000Z</time>
      </trkpt>
      <trkpt lon="7.1819469798356295" lat="46.178991962224245">
        <ele>753.0</ele>
        <time>2013-04-07T08:00:43.000Z</time>
      </trkpt>
      <trkpt lon="7.182178990915418" lat="46.17923897691071">
        <ele>752.5999755859375</ele>
        <time>2013-04-07T08:00:50.000Z</time>
      </trkpt>
      <trkpt lon="7.182282926514745" lat="46.17937199771404">
        <ele>754.5999755859375</ele>
        <time>2013-04-07T08:00:59.000Z</time>
      </trkpt>
      <trkpt lon="7.182332966476679" lat="46.1794569902122">
        <ele>756.5999755859375</ele>
        <time>2013-04-07T08:01:05.000Z</time>
      </trkpt>
      <trkpt lon="7.182374959811568" lat="46.179526979103684">
        <ele>758.2000122070312</ele>
        <time>2013-04-07T08:01:11.000Z</time>
      </trkpt>
      <trkpt lon="7.182441931217909" lat="46.179615994915366">
        <ele>759.5999755859375</ele>
        <time>2013-04-07T08:01:18.000Z</time>
      </trkpt>
      <trkpt lon="7.1825209725648165" lat="46.1797159910202">
        <ele>761.0</ele>
        <time>2013-04-07T08:01:25.000Z</time>
      </trkpt>
      <trkpt lon="7.182633960619569" lat="46.179828979074955">
        <ele>762.2000122070312</ele>
        <time>2013-04-07T08:01:34.000Z</time>
      </trkpt>
      <trkpt lon="7.182725993916392" lat="46.17994096130133">
        <ele>763.7999877929688</ele>
        <time>2013-04-07T08:01:42.000Z</time>
      </trkpt>
      <trkpt lon="7.182818949222565" lat="46.18006995879114">
        <ele>765.0</ele>
        <time>2013-04-07T08:01:51.000Z</time>
      </trkpt>
      <trkpt lon="7.182866977527738" lat="46.18016693741083">
        <ele>766.5999755859375</ele>
        <time>2013-04-07T08:01:58.000Z</time>
      </trkpt>
      <trkpt lon="7.182918945327401" lat="46.18026793934405">
        <ele>768.0</ele>
        <time>2013-04-07T08:02:06.000Z</time>
      </trkpt>
      <trkpt lon="7.1829739306122065" lat="46.180365923792124">
        <ele>769.0</ele>
        <time>2013-04-07T08:02:13.000Z</time>
      </trkpt>
      <trkpt lon="7.183030927553773" lat="46.180471954867244">
        <ele>770.0</ele>
        <time>2013-04-07T08:02:21.000Z</time>
      </trkpt>
      <trkpt lon="7.183068981394172" lat="46.1805569473654">
        <ele>771.2000122070312</ele>
        <time>2013-04-07T08:02:27.000Z</time>
      </trkpt>
      <trkpt lon="7.183070993050933" lat="46.18056599982083">
        <ele>771.4000244140625</ele>
        <time>2013-04-07T08:02:28.000Z</time>
      </trkpt>
      <trkpt lon="7.183095971122384" lat="46.18065694347024">
        <ele>773.4000244140625</ele>
        <time>2013-04-07T08:02:35.000Z</time>
      </trkpt>
      <trkpt lon="7.183101922273636" lat="46.1806779820472">
        <ele>773.7999877929688</ele>
        <time>2013-04-07T08:02:37.000Z</time>
      </trkpt>
      <trkpt lon="7.183127989992499" lat="46.18077898398042">
        <ele>776.0</ele>
        <time>2013-04-07T08:02:45.000Z</time>
      </trkpt>
      <trkpt lon="7.18313192948699" lat="46.18080396205187">
        <ele>776.7999877929688</ele>
        <time>2013-04-07T08:02:47.000Z</time>
      </trkpt>
      <trkpt lon="7.183153973892331" lat="46.180947963148355">
        <ele>779.2000122070312</ele>
        <time>2013-04-07T08:02:55.000Z</time>
      </trkpt>
      <trkpt lon="7.183173922821879" lat="46.181099927052855">
        <ele>781.7999877929688</ele>
        <time>2013-04-07T08:03:04.000Z</time>
      </trkpt>
      <trkpt lon="7.1831809636205435" lat="46.18121693842113">
        <ele>784.0</ele>
        <time>2013-04-07T08:03:11.000Z</time>
      </trkpt>
      <trkpt lon="7.183189932256937" lat="46.18133897893131">
        <ele>786.4000244140625</ele>
        <time>2013-04-07T08:03:18.000Z</time>
      </trkpt>
      <trkpt lon="7.183191943913698" lat="46.18145992979407">
        <ele>789.2000122070312</ele>
        <time>2013-04-07T08:03:26.000Z</time>
      </trkpt>
      <trkpt lon="7.183191943913698" lat="46.181546933948994">
        <ele>791.2000122070312</ele>
        <time>2013-04-07T08:03:33.000Z</time>
      </trkpt>
      <trkpt lon="7.183191943913698" lat="46.181654976680875">
        <ele>793.7999877929688</ele>
        <time>2013-04-07T08:03:40.000Z</time>
      </trkpt>
      <trkpt lon="7.183191943913698" lat="46.18175597861409">
        <ele>794.0</ele>
        <time>2013-04-07T08:03:46.000Z</time>
      </trkpt>
      <trkpt lon="7.1831809636205435" lat="46.18185295723379">
        <ele>794.4000244140625</ele>
        <time>2013-04-07T08:03:53.000Z</time>
      </trkpt>
      <trkpt lon="7.183169983327389" lat="46.18195295333862">
        <ele>794.7999877929688</ele>
        <time>2013-04-07T08:04:01.000Z</time>
      </trkpt>
      <trkpt lon="7.183169983327389" lat="46.18195295333862">
        <ele>794.7999877929688</ele>
        <time>2013-04-07T08:04:08.000Z</time>
      </trkpt>
      <trkpt lon="7.183169983327389" lat="46.18195295333862">
        <ele>794.7999877929688</ele>
        <time>2013-04-07T08:04:15.000Z</time>
      </trkpt>
      <trkpt lon="7.183169983327389" lat="46.18195295333862">
        <ele>794.7999877929688</ele>
        <time>2013-04-07T08:04:19.000Z</time>
      </trkpt>
      <trkpt lon="7.183081973344088" lat="46.18224196135998">
        <ele>798.7999877929688</ele>
        <time>2013-04-07T08:04:24.000Z</time>
      </trkpt>
      <trkpt lon="7.183046936988831" lat="46.182319996878505">
        <ele>800.2000122070312</ele>
        <time>2013-04-07T08:04:31.000Z</time>
      </trkpt>
      <trkpt lon="7.183011984452605" lat="46.18239694274962">
        <ele>801.7999877929688</ele>
        <time>2013-04-07T08:04:38.000Z</time>
      </trkpt>
      <trkpt lon="7.182978959754109" lat="46.18248394690454">
        <ele>803.0</ele>
        <time>2013-04-07T08:04:44.000Z</time>
      </trkpt>
      <trkpt lon="7.182942917570472" lat="46.18261696770787">
        <ele>805.4000244140625</ele>
        <time>2013-04-07T08:04:53.000Z</time>
      </trkpt>
      <trkpt lon="7.182933948934078" lat="46.182661978527904">
        <ele>806.2000122070312</ele>
        <time>2013-04-07T08:04:57.000Z</time>
      </trkpt>
      <trkpt lon="7.182933948934078" lat="46.182661978527904">
        <ele>806.2000122070312</ele>
        <time>2013-04-07T08:05:02.000Z</time>
      </trkpt>
      <trkpt lon="7.182888938114047" lat="46.18260498158634">
        <ele>807.7999877929688</ele>
        <time>2013-04-07T08:05:08.000Z</time>
      </trkpt>
      <trkpt lon="7.182861948385835" lat="46.18257095105946">
        <ele>808.7999877929688</ele>
        <time>2013-04-07T08:05:13.000Z</time>
      </trkpt>
      <trkpt lon="7.182841999456286" lat="46.18250699713826">
        <ele>809.4000244140625</ele>
        <time>2013-04-07T08:05:20.000Z</time>
      </trkpt>
      <trkpt lon="7.182831941172481" lat="46.18244094774127">
        <ele>810.0</ele>
        <time>2013-04-07T08:05:26.000Z</time>
      </trkpt>
      <trkpt lon="7.182788942009211" lat="46.18244195356965">
        <ele>812.0</ele>
        <time>2013-04-07T08:05:32.000Z</time>
      </trkpt>
      <trkpt lon="7.182716941460967" lat="46.1825189832598">
        <ele>815.2000122070312</ele>
        <time>2013-04-07T08:05:39.000Z</time>
      </trkpt>
      <trkpt lon="7.182711996138096" lat="46.182533986866474">
        <ele>815.4000244140625</ele>
        <time>2013-04-07T08:05:40.000Z</time>
      </trkpt>
      <trkpt lon="7.182676959782839" lat="46.182641945779324">
        <ele>817.7999877929688</ele>
        <time>2013-04-07T08:05:49.000Z</time>
      </trkpt>
      <trkpt lon="7.182676959782839" lat="46.182641945779324">
        <ele>817.7999877929688</ele>
        <time>2013-04-07T08:05:51.000Z</time>
      </trkpt>
      <trkpt lon="7.182671930640936" lat="46.182665918022394">
        <ele>818.2000122070312</ele>
        <time>2013-04-07T08:06:03.000Z</time>
      </trkpt>
      <trkpt lon="7.1826649736613035" lat="46.18270196020603">
        <ele>818.7999877929688</ele>
        <time>2013-04-07T08:06:10.000Z</time>
      </trkpt>
      <trkpt lon="7.1826649736613035" lat="46.18270196020603">
        <ele>818.7999877929688</ele>
        <time>2013-04-07T08:06:12.000Z</time>
      </trkpt>
      <trkpt lon="7.182647958397865" lat="46.18278594687581">
        <ele>820.2000122070312</ele>
        <time>2013-04-07T08:06:22.000Z</time>
      </trkpt>
      <trkpt lon="7.182641923427582" lat="46.182815954089165">
        <ele>820.5999755859375</ele>
        <time>2013-04-07T08:06:28.000Z</time>
      </trkpt>
      <trkpt lon="7.182631948962808" lat="46.18286398239434">
        <ele>821.4000244140625</ele>
        <time>2013-04-07T08:06:35.000Z</time>
      </trkpt>
      <trkpt lon="7.182631948962808" lat="46.18286398239434">
        <ele>821.4000244140625</ele>
        <time>2013-04-07T08:06:42.000Z</time>
      </trkpt>
      <trkpt lon="7.182631948962808" lat="46.18286398239434">
        <ele>821.4000244140625</ele>
        <time>2013-04-07T08:06:43.000Z</time>
      </trkpt>
      <trkpt lon="7.182616945356131" lat="46.18293992243707">
        <ele>822.5999755859375</ele>
        <time>2013-04-07T08:06:47.000Z</time>
      </trkpt>
      <trkpt lon="7.182663967832923" lat="46.183011922985315">
        <ele>821.0</ele>
        <time>2013-04-07T08:24:20.000Z</time>
      </trkpt>
      <trkpt lon="7.182748960331082" lat="46.183093981817365">
        <ele>817.5999755859375</ele>
        <time>2013-04-07T08:24:26.000Z</time>
      </trkpt>
      <trkpt lon="7.182925986126065" lat="46.183265978470445">
        <ele>810.5999755859375</ele>
        <time>2013-04-07T08:24:34.000Z</time>
      </trkpt>
      <trkpt lon="7.183250952512026" lat="46.18358197622001">
        <ele>807.5999755859375</ele>
        <time>2013-04-07T08:24:47.000Z</time>
      </trkpt>
      <trkpt lon="7.183320941403508" lat="46.18364894762635">
        <ele>808.5999755859375</ele>
        <time>2013-04-07T08:24:51.000Z</time>
      </trkpt>
      <trkpt lon="7.183320941403508" lat="46.18364894762635">
        <ele>808.5999755859375</ele>
        <time>2013-04-07T08:24:57.000Z</time>
      </trkpt>
      <trkpt lon="7.183320941403508" lat="46.18364894762635">
        <ele>808.5999755859375</ele>
        <time>2013-04-07T08:24:59.000Z</time>
      </trkpt>
      <trkpt lon="7.183456979691982" lat="46.18381599895656">
        <ele>813.4000244140625</ele>
        <time>2013-04-07T08:25:05.000Z</time>
      </trkpt>
      <trkpt lon="7.183503918349743" lat="46.18387199006975">
        <ele>815.0</ele>
        <time>2013-04-07T08:25:11.000Z</time>
      </trkpt>
      <trkpt lon="7.1836059261113405" lat="46.18394591845572">
        <ele>816.0</ele>
        <time>2013-04-07T08:25:20.000Z</time>
      </trkpt>
      <trkpt lon="7.183692930266261" lat="46.18403795175254">
        <ele>818.2000122070312</ele>
        <time>2013-04-07T08:25:28.000Z</time>
      </trkpt>
      <trkpt lon="7.1837699599564075" lat="46.18413995951414">
        <ele>821.0</ele>
        <time>2013-04-07T08:25:35.000Z</time>
      </trkpt>
      <trkpt lon="7.183867944404483" lat="46.18426392786205">
        <ele>824.0</ele>
        <time>2013-04-07T08:25:41.000Z</time>
      </trkpt>
      <trkpt lon="7.183953942731023" lat="46.18435797281563">
        <ele>825.5999755859375</ele>
        <time>2013-04-07T08:25:47.000Z</time>
      </trkpt>
      <trkpt lon="7.18407497741282" lat="46.184489987790585">
        <ele>827.7999877929688</ele>
        <time>2013-04-07T08:25:52.000Z</time>
      </trkpt>
      <trkpt lon="7.184216966852546" lat="46.18464597500861">
        <ele>829.5999755859375</ele>
        <time>2013-04-07T08:25:59.000Z</time>
      </trkpt>
      <trkpt lon="7.184326937422156" lat="46.18475996889174">
        <ele>830.2000122070312</ele>
        <time>2013-04-07T08:26:05.000Z</time>
      </trkpt>
      <trkpt lon="7.184443948790431" lat="46.18486792780459">
        <ele>830.0</ele>
        <time>2013-04-07T08:26:09.000Z</time>
      </trkpt>
      <trkpt lon="7.184697920456529" lat="46.18514394387603">
        <ele>830.2000122070312</ele>
        <time>2013-04-07T08:26:16.000Z</time>
      </trkpt>
      <trkpt lon="7.1848369762301445" lat="46.185305966064334">
        <ele>831.0</ele>
        <time>2013-04-07T08:26:21.000Z</time>
      </trkpt>
      <trkpt lon="7.185013918206096" lat="46.185461953282356">
        <ele>830.7999877929688</ele>
        <time>2013-04-07T08:26:29.000Z</time>
      </trkpt>
      <trkpt lon="7.1851759403944016" lat="46.18557795882225">
        <ele>829.7999877929688</ele>
        <time>2013-04-07T08:26:36.000Z</time>
      </trkpt>
      <trkpt lon="7.1853759326040745" lat="46.18575498461723">
        <ele>829.0</ele>
        <time>2013-04-07T08:26:44.000Z</time>
      </trkpt>
      <trkpt lon="7.185482969507575" lat="46.18585397489369">
        <ele>828.4000244140625</ele>
        <time>2013-04-07T08:26:47.000Z</time>
      </trkpt>
      <trkpt lon="7.185799973085523" lat="46.18616494350135">
        <ele>824.0</ele>
        <time>2013-04-07T08:26:54.000Z</time>
      </trkpt>
      <trkpt lon="7.185848923400044" lat="46.186208948493004">
        <ele>823.0</ele>
        <time>2013-04-07T08:26:55.000Z</time>
      </trkpt>
      <trkpt lon="7.185959983617067" lat="46.18642997927964">
        <ele>823.4000244140625</ele>
        <time>2013-04-07T08:27:00.000Z</time>
      </trkpt>
      <trkpt lon="7.185895945876837" lat="46.18664992041886">
        <ele>832.4000244140625</ele>
        <time>2013-04-07T08:27:07.000Z</time>
      </trkpt>
      <trkpt lon="7.185917990282178" lat="46.18676592595875">
        <ele>832.7999877929688</ele>
        <time>2013-04-07T08:27:12.000Z</time>
      </trkpt>
      <trkpt lon="7.185940956696868" lat="46.18690598756075">
        <ele>833.5999755859375</ele>
        <time>2013-04-07T08:27:17.000Z</time>
      </trkpt>
      <trkpt lon="7.1859699580818415" lat="46.18707798421383">
        <ele>834.5999755859375</ele>
        <time>2013-04-07T08:27:24.000Z</time>
      </trkpt>
      <trkpt lon="7.185945985838771" lat="46.18722994811833">
        <ele>837.5999755859375</ele>
        <time>2013-04-07T08:27:30.000Z</time>
      </trkpt>
      <trkpt lon="7.1858639270067215" lat="46.18734494782984">
        <ele>842.2000122070312</ele>
        <time>2013-04-07T08:27:36.000Z</time>
      </trkpt>
      <trkpt lon="7.185894940048456" lat="46.187436981126666">
        <ele>842.2000122070312</ele>
        <time>2013-04-07T08:27:41.000Z</time>
      </trkpt>
      <trkpt lon="7.1860359236598015" lat="46.187477968633175">
        <ele>838.0</ele>
        <time>2013-04-07T08:27:47.000Z</time>
      </trkpt>
      <trkpt lon="7.186169950291514" lat="46.1875179503113">
        <ele>834.4000244140625</ele>
        <time>2013-04-07T08:27:53.000Z</time>
      </trkpt>
      <trkpt lon="7.186298947781324" lat="46.18759296834469">
        <ele>832.2000122070312</ele>
        <time>2013-04-07T08:27:59.000Z</time>
      </trkpt>
      <trkpt lon="7.186415959149599" lat="46.1877269949764">
        <ele>831.7999877929688</ele>
        <time>2013-04-07T08:28:08.000Z</time>
      </trkpt>
      <trkpt lon="7.186468932777643" lat="46.187819950282574">
        <ele>832.5999755859375</ele>
        <time>2013-04-07T08:28:13.000Z</time>
      </trkpt>
      <trkpt lon="7.186544956639409" lat="46.18798197247088">
        <ele>834.7999877929688</ele>
        <time>2013-04-07T08:28:21.000Z</time>
      </trkpt>
      <trkpt lon="7.186595918610692" lat="46.18808993138373">
        <ele>836.2000122070312</ele>
        <time>2013-04-07T08:28:27.000Z</time>
      </trkpt>
      <trkpt lon="7.1867109183222055" lat="46.18826192803681">
        <ele>837.5999755859375</ele>
        <time>2013-04-07T08:28:35.000Z</time>
      </trkpt>
      <trkpt lon="7.186809992417693" lat="46.188402995467186">
        <ele>838.2000122070312</ele>
        <time>2013-04-07T08:28:42.000Z</time>
      </trkpt>
      <trkpt lon="7.1869659796357155" lat="46.18854498490691">
        <ele>836.4000244140625</ele>
        <time>2013-04-07T08:28:50.000Z</time>
      </trkpt>
      <trkpt lon="7.18708299100399" lat="46.18867197073996">
        <ele>835.4000244140625</ele>
        <time>2013-04-07T08:28:58.000Z</time>
      </trkpt>
      <trkpt lon="7.187138982117176" lat="46.18877498432994">
        <ele>835.5999755859375</ele>
        <time>2013-04-07T08:29:05.000Z</time>
      </trkpt>
      <trkpt lon="7.187177957966924" lat="46.188875986263156">
        <ele>836.2000122070312</ele>
        <time>2013-04-07T08:29:12.000Z</time>
      </trkpt>
      <trkpt lon="7.187201930209994" lat="46.188959972932935">
        <ele>836.7999877929688</ele>
        <time>2013-04-07T08:29:18.000Z</time>
      </trkpt>
      <trkpt lon="7.1872039418667555" lat="46.18901998735964">
        <ele>837.7999877929688</ele>
        <time>2013-04-07T08:29:22.000Z</time>
      </trkpt>
      <trkpt lon="7.1872039418667555" lat="46.1891049798578">
        <ele>839.0</ele>
        <time>2013-04-07T08:29:28.000Z</time>
      </trkpt>
      <trkpt lon="7.187146944925189" lat="46.18921495042741">
        <ele>842.2000122070312</ele>
        <time>2013-04-07T08:29:35.000Z</time>
      </trkpt>
      <trkpt lon="7.187100928276777" lat="46.189285945147276">
        <ele>844.4000244140625</ele>
        <time>2013-04-07T08:29:40.000Z</time>
      </trkpt>
      <trkpt lon="7.187075950205326" lat="46.18933497928083">
        <ele>845.7999877929688</ele>
        <time>2013-04-07T08:29:45.000Z</time>
      </trkpt>
      <trkpt lon="7.187075950205326" lat="46.18933497928083">
        <ele>845.7999877929688</ele>
        <time>2013-04-07T08:29:50.000Z</time>
      </trkpt>
      <trkpt lon="7.187075950205326" lat="46.18933497928083">
        <ele>845.7999877929688</ele>
        <time>2013-04-07T08:29:58.000Z</time>
      </trkpt>
      <trkpt lon="7.187075950205326" lat="46.18933497928083">
        <ele>845.7999877929688</ele>
        <time>2013-04-07T08:30:00.000Z</time>
      </trkpt>
      <trkpt lon="7.187075950205326" lat="46.18933497928083">
        <ele>845.7999877929688</ele>
        <time>2013-04-07T08:30:06.000Z</time>
      </trkpt>
      <trkpt lon="7.187075950205326" lat="46.18933497928083">
        <ele>845.7999877929688</ele>
        <time>2013-04-07T08:30:15.000Z</time>
      </trkpt>
      <trkpt lon="7.18732095323503" lat="46.18947294540703">
        <ele>839.4000244140625</ele>
        <time>2013-04-07T08:30:21.000Z</time>
      </trkpt>
      <trkpt lon="7.187354983761907" lat="46.18953195400536">
        <ele>838.7999877929688</ele>
        <time>2013-04-07T08:30:28.000Z</time>
      </trkpt>
      <trkpt lon="7.1873909421265125" lat="46.18961191736162">
        <ele>838.0</ele>
        <time>2013-04-07T08:30:35.000Z</time>
      </trkpt>
      <trkpt lon="7.187408963218331" lat="46.1896509770304">
        <ele>837.5999755859375</ele>
        <time>2013-04-07T08:30:40.000Z</time>
      </trkpt>
      <trkpt lon="7.18742698431015" lat="46.189690958708525">
        <ele>837.2000122070312</ele>
        <time>2013-04-07T08:30:43.000Z</time>
      </trkpt>
      <trkpt lon="7.187480963766575" lat="46.18980998173356">
        <ele>835.7999877929688</ele>
        <time>2013-04-07T08:30:46.000Z</time>
      </trkpt>
      <trkpt lon="7.187603926286101" lat="46.19003998115659">
        <ele>833.0</ele>
        <time>2013-04-07T08:30:51.000Z</time>
      </trkpt>
      <trkpt lon="7.1877199318259954" lat="46.19017199613154">
        <ele>831.7999877929688</ele>
        <time>2013-04-07T08:30:55.000Z</time>
      </trkpt>
      <trkpt lon="7.187848929315805" lat="46.19030099362135">
        <ele>830.0</ele>
        <time>2013-04-07T08:30:59.000Z</time>
      </trkpt>
      <trkpt lon="7.187888994812965" lat="46.19034198112786">
        <ele>829.4000244140625</ele>
        <time>2013-04-07T08:31:00.000Z</time>
      </trkpt>
      <trkpt lon="7.188086975365877" lat="46.19045496918261">
        <ele>824.5999755859375</ele>
        <time>2013-04-07T08:31:04.000Z</time>
      </trkpt>
      <trkpt lon="7.188145983964205" lat="46.19047592394054">
        <ele>822.7999877929688</ele>
        <time>2013-04-07T08:31:06.000Z</time>
      </trkpt>
      <trkpt lon="7.188268946483731" lat="46.19049897417426">
        <ele>818.7999877929688</ele>
        <time>2013-04-07T08:31:10.000Z</time>
      </trkpt>
      <trkpt lon="7.188427951186895" lat="46.19113692082465">
        <ele>838.2000122070312</ele>
        <time>2013-04-07T08:31:15.000Z</time>
      </trkpt>
      <trkpt lon="7.188427951186895" lat="46.19113692082465">
        <ele>838.2000122070312</ele>
        <time>2013-04-07T08:31:16.000Z</time>
      </trkpt>
      <trkpt lon="7.188557954505086" lat="46.19054096750915">
        <ele>813.2000122070312</ele>
        <time>2013-04-07T08:31:21.000Z</time>
      </trkpt>
      <trkpt lon="7.188668930903077" lat="46.19056292809546">
        <ele>811.7999877929688</ele>
        <time>2013-04-07T08:31:23.000Z</time>
      </trkpt>
      <trkpt lon="7.188899936154485" lat="46.19062193669379">
        <ele>809.0</ele>
        <time>2013-04-07T08:31:27.000Z</time>
      </trkpt>
      <trkpt lon="7.188899936154485" lat="46.19062193669379">
        <ele>809.0</ele>
        <time>2013-04-07T08:31:28.000Z</time>
      </trkpt>
      <trkpt lon="7.18938197940588" lat="46.190702989697456">
        <ele>804.2000122070312</ele>
        <time>2013-04-07T08:31:33.000Z</time>
      </trkpt>
      <trkpt lon="7.189501924440265" lat="46.19067692197859">
        <ele>802.4000244140625</ele>
        <time>2013-04-07T08:31:35.000Z</time>
      </trkpt>
      <trkpt lon="7.189540984109044" lat="46.190659990534186">
        <ele>801.4000244140625</ele>
        <time>2013-04-07T08:31:38.000Z</time>
      </trkpt>
      <trkpt lon="7.189810965210199" lat="46.19054096750915">
        <ele>795.7999877929688</ele>
        <time>2013-04-07T08:31:42.000Z</time>
      </trkpt>
      <trkpt lon="7.190223941579461" lat="46.19030895642936">
        <ele>787.2000122070312</ele>
        <time>2013-04-07T08:31:48.000Z</time>
      </trkpt>
      <trkpt lon="7.190352939069271" lat="46.1902189347893">
        <ele>784.0</ele>
        <time>2013-04-07T08:31:50.000Z</time>
      </trkpt>
      <trkpt lon="7.190782930701971" lat="46.18991299532354">
        <ele>772.5999755859375</ele>
        <time>2013-04-07T08:31:55.000Z</time>
      </trkpt>
      <trkpt lon="7.1908089984208345" lat="46.18989296257496">
        <ele>771.7999877929688</ele>
        <time>2013-04-07T08:31:57.000Z</time>
      </trkpt>
      <trkpt lon="7.1909689251333475" lat="46.18984694592655">
        <ele>770.2000122070312</ele>
        <time>2013-04-07T08:32:00.000Z</time>
      </trkpt>
      <trkpt lon="7.1908949967473745" lat="46.189865972846746">
        <ele>770.7999877929688</ele>
        <time>2013-04-07T08:32:04.000Z</time>
      </trkpt>
      <trkpt lon="7.191581977531314" lat="46.18969992734492">
        <ele>765.5999755859375</ele>
        <time>2013-04-07T08:32:48.000Z</time>
      </trkpt>
      <trkpt lon="7.190852919593453" lat="46.18987795896828">
        <ele>771.2000122070312</ele>
        <time>2013-04-07T08:32:49.000Z</time>
      </trkpt>
      <trkpt lon="7.191027933731675" lat="46.18983093649149">
        <ele>769.5999755859375</ele>
        <time>2013-04-07T08:32:55.000Z</time>
      </trkpt>
      <trkpt lon="7.191276960074902" lat="46.18976597674191">
        <ele>767.5999755859375</ele>
        <time>2013-04-07T08:33:02.000Z</time>
      </trkpt>
      <trkpt lon="7.1915629506111145" lat="46.18970294483006">
        <ele>765.7999877929688</ele>
        <time>2013-04-07T08:33:08.000Z</time>
      </trkpt>
      <trkpt lon="7.191851958632469" lat="46.1896369792521">
        <ele>763.2000122070312</ele>
        <time>2013-04-07T08:33:12.000Z</time>
      </trkpt>
      <trkpt lon="7.192135937511921" lat="46.18959398008883">
        <ele>761.0</ele>
        <time>2013-04-07T08:33:15.000Z</time>
      </trkpt>
      <trkpt lon="7.192456964403391" lat="46.18963496759534">
        <ele>761.0</ele>
        <time>2013-04-07T08:33:19.000Z</time>
      </trkpt>
      <trkpt lon="7.192589985206723" lat="46.18967796675861">
        <ele>760.7999877929688</ele>
        <time>2013-04-07T08:33:22.000Z</time>
      </trkpt>
      <trkpt lon="7.192589985206723" lat="46.18967796675861">
        <ele>760.7999877929688</ele>
        <time>2013-04-07T08:33:26.000Z</time>
      </trkpt>
      <trkpt lon="7.192718982696533" lat="46.18959196843207">
        <ele>756.7999877929688</ele>
        <time>2013-04-07T08:33:28.000Z</time>
      </trkpt>
      <trkpt lon="7.192682940512896" lat="46.1894659884274">
        <ele>753.7999877929688</ele>
        <time>2013-04-07T08:33:33.000Z</time>
      </trkpt>
      <trkpt lon="7.19226292334497" lat="46.189007917419076">
        <ele>744.5999755859375</ele>
        <time>2013-04-07T08:33:39.000Z</time>
      </trkpt>
      <trkpt lon="7.192053962498903" lat="46.18877791799605">
        <ele>739.0</ele>
        <time>2013-04-07T08:33:42.000Z</time>
      </trkpt>
      <trkpt lon="7.191946925595403" lat="46.188593935221434">
        <ele>734.4000244140625</ele>
        <time>2013-04-07T08:33:45.000Z</time>
      </trkpt>
      <trkpt lon="7.192009957507253" lat="46.1885179951787">
        <ele>732.0</ele>
        <time>2013-04-07T08:33:46.000Z</time>
      </trkpt>
      <trkpt lon="7.192190922796726" lat="46.1884159874171">
        <ele>728.7999877929688</ele>
        <time>2013-04-07T08:33:48.000Z</time>
      </trkpt>
      <trkpt lon="7.192336935549974" lat="46.18824399076402">
        <ele>724.2000122070312</ele>
        <time>2013-04-07T08:33:51.000Z</time>
      </trkpt>
      <trkpt lon="7.192347999662161" lat="46.18808398023248">
        <ele>720.5999755859375</ele>
        <time>2013-04-07T08:33:53.000Z</time>
      </trkpt>
      <trkpt lon="7.192353950813413" lat="46.18798297829926">
        <ele>718.4000244140625</ele>
        <time>2013-04-07T08:33:56.000Z</time>
      </trkpt>
      <trkpt lon="7.192632984369993" lat="46.187565978616476">
        <ele>708.2000122070312</ele>
        <time>2013-04-07T08:33:59.000Z</time>
      </trkpt>
      <trkpt lon="7.19265092164278" lat="46.18728292174637">
        <ele>700.7999877929688</ele>
        <time>2013-04-07T08:34:03.000Z</time>
      </trkpt>
      <trkpt lon="7.192682940512896" lat="46.18714394979179">
        <ele>697.2000122070312</ele>
        <time>2013-04-07T08:34:07.000Z</time>
      </trkpt>
      <trkpt lon="7.192844962701201" lat="46.187008917331696">
        <ele>693.5999755859375</ele>
        <time>2013-04-07T08:34:11.000Z</time>
      </trkpt>
      <trkpt lon="7.192913945764303" lat="46.18695192039013">
        <ele>692.2000122070312</ele>
        <time>2013-04-07T08:34:13.000Z</time>
      </trkpt>
      <trkpt lon="7.193126929923892" lat="46.18684597313404">
        <ele>690.2000122070312</ele>
        <time>2013-04-07T08:34:17.000Z</time>
      </trkpt>
      <trkpt lon="7.1932469587773085" lat="46.18682594038546">
        <ele>690.2000122070312</ele>
        <time>2013-04-07T08:34:22.000Z</time>
      </trkpt>
      <trkpt lon="7.193309990689158" lat="46.18681697174907">
        <ele>690.2000122070312</ele>
        <time>2013-04-07T08:34:25.000Z</time>
      </trkpt>
      <trkpt lon="7.1935119945555925" lat="46.186837926506996">
        <ele>688.5999755859375</ele>
        <time>2013-04-07T08:34:30.000Z</time>
      </trkpt>
      <trkpt lon="7.193703940138221" lat="46.186919985339046">
        <ele>687.4000244140625</ele>
        <time>2013-04-07T08:34:34.000Z</time>
      </trkpt>
      <trkpt lon="7.193963946774602" lat="46.18707999587059">
        <ele>686.0</ele>
        <time>2013-04-07T08:34:39.000Z</time>
      </trkpt>
      <trkpt lon="7.194120939821005" lat="46.187217961996794">
        <ele>685.2000122070312</ele>
        <time>2013-04-07T08:34:42.000Z</time>
      </trkpt>
      <trkpt lon="7.1943239495158195" lat="46.18736892007291">
        <ele>683.2000122070312</ele>
        <time>2013-04-07T08:34:45.000Z</time>
      </trkpt>
      <trkpt lon="7.194456970319152" lat="46.18725299835205">
        <ele>680.0</ele>
        <time>2013-04-07T08:34:47.000Z</time>
      </trkpt>
      <trkpt lon="7.194504998624325" lat="46.187027944251895">
        <ele>677.0</ele>
        <time>2013-04-07T08:34:50.000Z</time>
      </trkpt>
      <trkpt lon="7.194556966423988" lat="46.18694898672402">
        <ele>675.2000122070312</ele>
        <time>2013-04-07T08:34:51.000Z</time>
      </trkpt>
      <trkpt lon="7.194727957248688" lat="46.18671798147261">
        <ele>669.5999755859375</ele>
        <time>2013-04-07T08:34:54.000Z</time>
      </trkpt>
      <trkpt lon="7.194807920604944" lat="46.18650399148464">
        <ele>664.5999755859375</ele>
        <time>2013-04-07T08:34:57.000Z</time>
      </trkpt>
      <trkpt lon="7.194702979177237" lat="46.18639997206628">
        <ele>664.4000244140625</ele>
        <time>2013-04-07T08:34:59.000Z</time>
      </trkpt>
      <trkpt lon="7.19449695199728" lat="46.1862279754132">
        <ele>664.2000122070312</ele>
        <time>2013-04-07T08:35:02.000Z</time>
      </trkpt>
      <trkpt lon="7.194400979205966" lat="46.18606494739652">
        <ele>662.2000122070312</ele>
        <time>2013-04-07T08:35:05.000Z</time>
      </trkpt>
      <trkpt lon="7.194565935060382" lat="46.18586394935846">
        <ele>655.7999877929688</ele>
        <time>2013-04-07T08:35:08.000Z</time>
      </trkpt>
      <trkpt lon="7.193859927356243" lat="46.185626992955804">
        <ele>655.7999877929688</ele>
        <time>2013-04-07T08:35:11.000Z</time>
      </trkpt>
      <trkpt lon="7.193472934886813" lat="46.18553495965898">
        <ele>654.7999877929688</ele>
        <time>2013-04-07T08:35:14.000Z</time>
      </trkpt>
      <trkpt lon="7.19288494437933" lat="46.18540998548269">
        <ele>648.4000244140625</ele>
        <time>2013-04-07T08:35:18.000Z</time>
      </trkpt>
      <trkpt lon="7.192531982436776" lat="46.185520961880684">
        <ele>648.7999877929688</ele>
        <time>2013-04-07T08:35:21.000Z</time>
      </trkpt>
      <trkpt lon="7.1924979519099" lat="46.18553194217384">
        <ele>649.0</ele>
        <time>2013-04-07T08:35:23.000Z</time>
      </trkpt>
      <trkpt lon="7.192514967173338" lat="46.18552599102259">
        <ele>648.7999877929688</ele>
        <time>2013-04-07T08:35:24.000Z</time>
      </trkpt>
      <trkpt lon="7.192827947437763" lat="46.1854269169271">
        <ele>648.5999755859375</ele>
        <time>2013-04-07T08:35:30.000Z</time>
      </trkpt>
      <trkpt lon="7.193018971011043" lat="46.185352988541126">
        <ele>647.7999877929688</ele>
        <time>2013-04-07T08:35:33.000Z</time>
      </trkpt>
      <trkpt lon="7.193277971819043" lat="46.185264978557825">
        <ele>647.2000122070312</ele>
        <time>2013-04-07T08:35:37.000Z</time>
      </trkpt>
      <trkpt lon="7.193344943225384" lat="46.18525693193078">
        <ele>647.2000122070312</ele>
        <time>2013-04-07T08:35:38.000Z</time>
      </trkpt>
      <trkpt lon="7.193887922912836" lat="46.18523798882961">
        <ele>645.0</ele>
        <time>2013-04-07T08:35:44.000Z</time>
      </trkpt>
      <trkpt lon="7.194305928424001" lat="46.1852559261024">
        <ele>643.4000244140625</ele>
        <time>2013-04-07T08:35:48.000Z</time>
      </trkpt>
      <trkpt lon="7.194596948102117" lat="46.18529096245766">
        <ele>641.7999877929688</ele>
        <time>2013-04-07T08:35:51.000Z</time>
      </trkpt>
      <trkpt lon="7.194862989708781" lat="46.18536497466266">
        <ele>641.0</ele>
        <time>2013-04-07T08:35:55.000Z</time>
      </trkpt>
      <trkpt lon="7.194875981658697" lat="46.1853679921478">
        <ele>641.0</ele>
        <time>2013-04-07T08:35:56.000Z</time>
      </trkpt>
      <trkpt lon="7.194863995537162" lat="46.18536598049104">
        <ele>641.0</ele>
        <time>2013-04-07T08:35:59.000Z</time>
      </trkpt>
      <trkpt lon="7.194895930588245" lat="46.18531392887235">
        <ele>639.5999755859375</ele>
        <time>2013-04-07T08:36:06.000Z</time>
      </trkpt>
      <trkpt lon="7.194912945851684" lat="46.185285933315754">
        <ele>638.7999877929688</ele>
        <time>2013-04-07T08:36:10.000Z</time>
      </trkpt>
      <trkpt lon="7.194912945851684" lat="46.185285933315754">
        <ele>638.7999877929688</ele>
        <time>2013-04-07T08:36:11.000Z</time>
      </trkpt>
      <trkpt lon="7.1950269397348166" lat="46.18508292362094">
        <ele>633.4000244140625</ele>
        <time>2013-04-07T08:36:18.000Z</time>
      </trkpt>
      <trkpt lon="7.195122996345162" lat="46.18474194779992">
        <ele>625.2000122070312</ele>
        <time>2013-04-07T08:36:22.000Z</time>
      </trkpt>
      <trkpt lon="7.195135988295078" lat="46.1846739705652">
        <ele>623.5999755859375</ele>
        <time>2013-04-07T08:36:23.000Z</time>
      </trkpt>
      <trkpt lon="7.195091983303428" lat="46.18443299084902">
        <ele>619.4000244140625</ele>
        <time>2013-04-07T08:36:27.000Z</time>
      </trkpt>
      <trkpt lon="7.194904983043671" lat="46.184104923158884">
        <ele>613.5999755859375</ele>
        <time>2013-04-07T08:36:31.000Z</time>
      </trkpt>
      <trkpt lon="7.194638941437006" lat="46.18389998562634">
        <ele>608.7999877929688</ele>
        <time>2013-04-07T08:36:35.000Z</time>
      </trkpt>
      <trkpt lon="7.1945439744740725" lat="46.18385296314955">
        <ele>608.0</ele>
        <time>2013-04-07T08:36:36.000Z</time>
      </trkpt>
      <trkpt lon="7.19434792175889" lat="46.18363696150482">
        <ele>603.0</ele>
        <time>2013-04-07T08:36:40.000Z</time>
      </trkpt>
      <trkpt lon="7.1943249553442" lat="46.18359899148345">
        <ele>602.0</ele>
        <time>2013-04-07T08:36:41.000Z</time>
      </trkpt>
      <trkpt lon="7.194268964231014" lat="46.18349798955023">
        <ele>599.7999877929688</ele>
        <time>2013-04-07T08:36:44.000Z</time>
      </trkpt>
      <trkpt lon="7.19421599060297" lat="46.18324192240834">
        <ele>593.0</ele>
        <time>2013-04-07T08:36:48.000Z</time>
      </trkpt>
      <trkpt lon="7.194326967000961" lat="46.183098927140236">
        <ele>588.4000244140625</ele>
        <time>2013-04-07T08:36:50.000Z</time>
      </trkpt>
      <trkpt lon="7.194509943947196" lat="46.18277597241104">
        <ele>578.2000122070312</ele>
        <time>2013-04-07T08:36:54.000Z</time>
      </trkpt>
      <trkpt lon="7.194488989189267" lat="46.182494927197695">
        <ele>570.0</ele>
        <time>2013-04-07T08:36:58.000Z</time>
      </trkpt>
      <trkpt lon="7.194349933415651" lat="46.18225394748151">
        <ele>561.7999877929688</ele>
        <time>2013-04-07T08:37:03.000Z</time>
      </trkpt>
      <trkpt lon="7.194322943687439" lat="46.1822269577533">
        <ele>561.0</ele>
        <time>2013-04-07T08:37:07.000Z</time>
      </trkpt>
      <trkpt lon="7.194322943687439" lat="46.1822269577533">
        <ele>561.0</ele>
        <time>2013-04-07T08:38:05.000Z</time>
      </trkpt>
      <trkpt lon="7.194348927587271" lat="46.18225294165313">
        <ele>561.7999877929688</ele>
        <time>2013-04-07T08:38:08.000Z</time>
      </trkpt>
      <trkpt lon="7.194370971992612" lat="46.182274986058474">
        <ele>562.4000244140625</ele>
        <time>2013-04-07T08:38:16.000Z</time>
      </trkpt>
      <trkpt lon="7.194370971992612" lat="46.182274986058474">
        <ele>562.4000244140625</ele>
        <time>2013-04-07T08:38:17.000Z</time>
      </trkpt>
      <trkpt lon="7.194370971992612" lat="46.182274986058474">
        <ele>562.4000244140625</ele>
        <time>2013-04-07T08:38:28.000Z</time>
      </trkpt>
      <trkpt lon="7.194370971992612" lat="46.182274986058474">
        <ele>562.4000244140625</ele>
        <time>2013-04-07T08:38:33.000Z</time>
      </trkpt>
      <trkpt lon="7.193875936791301" lat="46.18230893276632">
        <ele>563.4000244140625</ele>
        <time>2013-04-07T08:38:40.000Z</time>
      </trkpt>
      <trkpt lon="7.19359396956861" lat="46.182363918051124">
        <ele>564.2000122070312</ele>
        <time>2013-04-07T08:38:46.000Z</time>
      </trkpt>
      <trkpt lon="7.193363970145583" lat="46.182408928871155">
        <ele>564.5999755859375</ele>
        <time>2013-04-07T08:38:52.000Z</time>
      </trkpt>
      <trkpt lon="7.193121984601021" lat="46.182452933862805">
        <ele>563.5999755859375</ele>
        <time>2013-04-07T08:38:56.000Z</time>
      </trkpt>
      <trkpt lon="7.192869940772653" lat="46.18248394690454">
        <ele>562.0</ele>
        <time>2013-04-07T08:38:59.000Z</time>
      </trkpt>
      <trkpt lon="7.192494934424758" lat="46.18262895382941">
        <ele>563.4000244140625</ele>
        <time>2013-04-07T08:39:04.000Z</time>
      </trkpt>
      <trkpt lon="7.192286979407072" lat="46.1827639862895">
        <ele>566.0</ele>
        <time>2013-04-07T08:39:09.000Z</time>
      </trkpt>
      <trkpt lon="7.192127974703908" lat="46.18286993354559">
        <ele>567.7999877929688</ele>
        <time>2013-04-07T08:39:15.000Z</time>
      </trkpt>
      <trkpt lon="7.191901998594403" lat="46.18304695934057">
        <ele>571.0</ele>
        <time>2013-04-07T08:39:22.000Z</time>
      </trkpt>
      <trkpt lon="7.1917499508708715" lat="46.18316698819399">
        <ele>573.0</ele>
        <time>2013-04-07T08:39:26.000Z</time>
      </trkpt>
      <trkpt lon="7.191606955602765" lat="46.18319992907345">
        <ele>572.7999877929688</ele>
        <time>2013-04-07T08:39:29.000Z</time>
      </trkpt>
      <trkpt lon="7.191581977531314" lat="46.18315491825342">
        <ele>571.4000244140625</ele>
        <time>2013-04-07T08:39:32.000Z</time>
      </trkpt>
      <trkpt lon="7.191581977531314" lat="46.18315491825342">
        <ele>571.4000244140625</ele>
        <time>2013-04-07T08:39:36.000Z</time>
      </trkpt>
      <trkpt lon="7.191452980041504" lat="46.182661978527904">
        <ele>556.0</ele>
        <time>2013-04-07T08:39:43.000Z</time>
      </trkpt>
      <trkpt lon="7.190959956496954" lat="46.182576986029744">
        <ele>551.2000122070312</ele>
        <time>2013-04-07T08:39:51.000Z</time>
      </trkpt>
      <trkpt lon="7.190920980647206" lat="46.182579919695854">
        <ele>551.0</ele>
        <time>2013-04-07T08:39:52.000Z</time>
      </trkpt>
      <trkpt lon="7.191642997786403" lat="46.182856941595674">
        <ele>562.5999755859375</ele>
        <time>2013-04-07T08:39:56.000Z</time>
      </trkpt>
      <trkpt lon="7.191686918959022" lat="46.182711934670806">
        <ele>558.4000244140625</ele>
        <time>2013-04-07T08:40:01.000Z</time>
      </trkpt>
      <trkpt lon="7.191716926172376" lat="46.182582937180996">
        <ele>554.7999877929688</ele>
        <time>2013-04-07T08:40:05.000Z</time>
      </trkpt>
      <trkpt lon="7.191717932000756" lat="46.18257095105946">
        <ele>554.4000244140625</ele>
        <time>2013-04-07T08:40:10.000Z</time>
      </trkpt>
      <trkpt lon="7.191717932000756" lat="46.18257095105946">
        <ele>554.4000244140625</ele>
        <time>2013-04-07T08:40:17.000Z</time>
      </trkpt>
      <trkpt lon="7.191717932000756" lat="46.18256298825145">
        <ele>554.2000122070312</ele>
        <time>2013-04-07T08:40:23.000Z</time>
      </trkpt>
      <trkpt lon="7.191717932000756" lat="46.18256298825145">
        <ele>554.2000122070312</ele>
        <time>2013-04-07T08:40:32.000Z</time>
      </trkpt>
      <trkpt lon="7.191118961200118" lat="46.18255292996764">
        <ele>551.0</ele>
        <time>2013-04-07T08:40:38.000Z</time>
      </trkpt>
      <trkpt lon="7.191115943714976" lat="46.18255091831088">
        <ele>551.0</ele>
        <time>2013-04-07T08:40:43.000Z</time>
      </trkpt>
      <trkpt lon="7.191383996978402" lat="46.18263892829418">
        <ele>555.0</ele>
        <time>2013-04-07T08:40:48.000Z</time>
      </trkpt>
      <trkpt lon="7.191204959526658" lat="46.182578997686505">
        <ele>552.2000122070312</ele>
        <time>2013-04-07T08:41:14.000Z</time>
      </trkpt>
      <trkpt lon="7.191204959526658" lat="46.182578997686505">
        <ele>552.2000122070312</ele>
        <time>2013-04-07T08:41:17.000Z</time>
      </trkpt>
      <trkpt lon="7.191142933443189" lat="46.182575980201364">
        <ele>551.7999877929688</ele>
        <time>2013-04-07T08:43:14.000Z</time>
      </trkpt>
      <trkpt lon="7.190875969827175" lat="46.18258394300938">
        <ele>551.0</ele>
        <time>2013-04-07T08:43:20.000Z</time>
      </trkpt>
      <trkpt lon="7.190721994265914" lat="46.18259592913091">
        <ele>550.5999755859375</ele>
        <time>2013-04-07T08:43:23.000Z</time>
      </trkpt>
      <trkpt lon="7.190503980964422" lat="46.182625936344266">
        <ele>550.5999755859375</ele>
        <time>2013-04-07T08:43:26.000Z</time>
      </trkpt>
      <trkpt lon="7.190129980444908" lat="46.182624930515885">
        <ele>548.5999755859375</ele>
        <time>2013-04-07T08:43:30.000Z</time>
      </trkpt>
      <trkpt lon="7.189486920833588" lat="46.18243399076164">
        <ele>546.4000244140625</ele>
        <time>2013-04-07T08:43:36.000Z</time>
      </trkpt>
      <trkpt lon="7.189005967229605" lat="46.18221798911691">
        <ele>549.4000244140625</ele>
        <time>2013-04-07T08:43:41.000Z</time>
      </trkpt>
      <trkpt lon="7.188560971990228" lat="46.182022942230105">
        <ele>555.5999755859375</ele>
        <time>2013-04-07T08:43:46.000Z</time>
      </trkpt>
      <trkpt lon="7.188421916216612" lat="46.18196192197502">
        <ele>557.5999755859375</ele>
        <time>2013-04-07T08:43:48.000Z</time>
      </trkpt>
      <trkpt lon="7.188255954533815" lat="46.181888999417424">
        <ele>561.5999755859375</ele>
        <time>2013-04-07T08:43:52.000Z</time>
      </trkpt>
      <trkpt lon="7.188255954533815" lat="46.181888999417424">
        <ele>561.5999755859375</ele>
        <time>2013-04-07T08:43:53.000Z</time>
      </trkpt>
      <trkpt lon="7.187955966219306" lat="46.18198899552226">
        <ele>572.7999877929688</ele>
        <time>2013-04-07T08:43:59.000Z</time>
      </trkpt>
      <trkpt lon="7.187877930700779" lat="46.18201497942209">
        <ele>576.0</ele>
        <time>2013-04-07T08:44:03.000Z</time>
      </trkpt>
      <trkpt lon="7.187804924324155" lat="46.18209293112159">
        <ele>579.4000244140625</ele>
        <time>2013-04-07T08:44:11.000Z</time>
      </trkpt>
      <trkpt lon="7.187804924324155" lat="46.1821249499917">
        <ele>579.5999755859375</ele>
        <time>2013-04-07T08:44:16.000Z</time>
      </trkpt>
      <trkpt lon="7.188255954533815" lat="46.181888999417424">
        <ele>561.5999755859375</ele>
        <time>2013-04-07T08:44:23.000Z</time>
      </trkpt>
      <trkpt lon="7.188255954533815" lat="46.181888999417424">
        <ele>561.5999755859375</ele>
        <time>2013-04-07T08:44:31.000Z</time>
      </trkpt>
      <trkpt lon="7.188255954533815" lat="46.181888999417424">
        <ele>561.5999755859375</ele>
        <time>2013-04-07T08:44:35.000Z</time>
      </trkpt>
      <trkpt lon="7.188255954533815" lat="46.181888999417424">
        <ele>561.5999755859375</ele>
        <time>2013-04-07T08:44:37.000Z</time>
      </trkpt>
      <trkpt lon="7.188255954533815" lat="46.181888999417424">
        <ele>561.5999755859375</ele>
        <time>2013-04-07T08:44:54.000Z</time>
      </trkpt>
      <trkpt lon="7.188255954533815" lat="46.181888999417424">
        <ele>561.5999755859375</ele>
        <time>2013-04-07T08:45:03.000Z</time>
      </trkpt>
      <trkpt lon="7.187804924324155" lat="46.1821249499917">
        <ele>579.5999755859375</ele>
        <time>2013-04-07T08:45:12.000Z</time>
      </trkpt>
      <trkpt lon="7.187804924324155" lat="46.1821249499917">
        <ele>579.5999755859375</ele>
        <time>2013-04-07T08:45:18.000Z</time>
      </trkpt>
      <trkpt lon="7.187804924324155" lat="46.1821249499917">
        <ele>579.5999755859375</ele>
        <time>2013-04-07T08:45:21.000Z</time>
      </trkpt>
      <trkpt lon="7.187804924324155" lat="46.1821249499917">
        <ele>579.5999755859375</ele>
        <time>2013-04-07T08:45:28.000Z</time>
      </trkpt>
      <trkpt lon="7.187804924324155" lat="46.1821249499917">
        <ele>579.5999755859375</ele>
        <time>2013-04-07T08:45:32.000Z</time>
      </trkpt>
      <trkpt lon="7.187804924324155" lat="46.1821249499917">
        <ele>579.5999755859375</ele>
        <time>2013-04-07T08:45:37.000Z</time>
      </trkpt>
      <trkpt lon="7.187804924324155" lat="46.1821249499917">
        <ele>579.5999755859375</ele>
        <time>2013-04-07T08:47:18.000Z</time>
      </trkpt>
      <trkpt lon="7.187804924324155" lat="46.1821249499917">
        <ele>579.5999755859375</ele>
        <time>2013-04-07T08:47:22.000Z</time>
      </trkpt>
      <trkpt lon="7.187804924324155" lat="46.1821249499917">
        <ele>579.5999755859375</ele>
        <time>2013-04-07T08:48:01.000Z</time>
      </trkpt>
      <trkpt lon="7.187804924324155" lat="46.1821249499917">
        <ele>579.5999755859375</ele>
        <time>2013-04-07T08:48:31.000Z</time>
      </trkpt>
      <trkpt lon="7.188255954533815" lat="46.181888999417424">
        <ele>561.5999755859375</ele>
        <time>2013-04-07T08:48:33.000Z</time>
      </trkpt>
      <trkpt lon="7.188255954533815" lat="46.181888999417424">
        <ele>561.5999755859375</ele>
        <time>2013-04-07T08:48:37.000Z</time>
      </trkpt>
      <trkpt lon="7.187804924324155" lat="46.18212193250656">
        <ele>579.5999755859375</ele>
        <time>2013-04-07T08:48:40.000Z</time>
      </trkpt>
      <trkpt lon="7.188255954533815" lat="46.181888999417424">
        <ele>561.5999755859375</ele>
        <time>2013-04-07T08:48:45.000Z</time>
      </trkpt>
      <trkpt lon="7.187804924324155" lat="46.18209293112159">
        <ele>579.4000244140625</ele>
        <time>2013-04-07T08:48:49.000Z</time>
      </trkpt>
      <trkpt lon="7.187928976491094" lat="46.181997964158654">
        <ele>574.0</ele>
        <time>2013-04-07T08:48:55.000Z</time>
      </trkpt>
      <trkpt lon="7.188014974817634" lat="46.18196996860206">
        <ele>570.5999755859375</ele>
        <time>2013-04-07T08:48:58.000Z</time>
      </trkpt>
      <trkpt lon="7.188129974529147" lat="46.181930992752314">
        <ele>566.2000122070312</ele>
        <time>2013-04-07T08:49:03.000Z</time>
      </trkpt>
      <trkpt lon="7.188165932893753" lat="46.18191892281175">
        <ele>565.0</ele>
        <time>2013-04-07T08:49:04.000Z</time>
      </trkpt>
      <trkpt lon="7.188326949253678" lat="46.18185899220407">
        <ele>559.0</ele>
        <time>2013-04-07T08:49:10.000Z</time>
      </trkpt>
      <trkpt lon="7.188486959785223" lat="46.18178992532194">
        <ele>555.4000244140625</ele>
        <time>2013-04-07T08:49:14.000Z</time>
      </trkpt>
      <trkpt lon="7.188632972538471" lat="46.18172697722912">
        <ele>552.2000122070312</ele>
        <time>2013-04-07T08:49:16.000Z</time>
      </trkpt>
      <trkpt lon="7.188958944752812" lat="46.1816069483757">
        <ele>548.4000244140625</ele>
        <time>2013-04-07T08:49:20.000Z</time>
      </trkpt>
      <trkpt lon="7.1893959771841764" lat="46.181523967534304">
        <ele>546.4000244140625</ele>
        <time>2013-04-07T08:49:25.000Z</time>
      </trkpt>
      <trkpt lon="7.189568979665637" lat="46.18154198862612">
        <ele>543.4000244140625</ele>
        <time>2013-04-07T08:49:27.000Z</time>
      </trkpt>
      <trkpt lon="7.189738964661956" lat="46.181568978354335">
        <ele>539.7999877929688</ele>
        <time>2013-04-07T08:49:29.000Z</time>
      </trkpt>
      <trkpt lon="7.190066948533058" lat="46.18163192644715">
        <ele>532.4000244140625</ele>
        <time>2013-04-07T08:49:34.000Z</time>
      </trkpt>
      <trkpt lon="7.190186977386475" lat="46.18159898556769">
        <ele>533.0</ele>
        <time>2013-04-07T08:49:37.000Z</time>
      </trkpt>
      <trkpt lon="7.191409980878234" lat="46.18150292895734">
        <ele>529.0</ele>
        <time>2013-04-07T08:49:40.000Z</time>
      </trkpt>
      <trkpt lon="7.190200975164771" lat="46.181547939777374">
        <ele>535.4000244140625</ele>
        <time>2013-04-07T08:49:41.000Z</time>
      </trkpt>
      <trkpt lon="7.190206926316023" lat="46.181589933112264">
        <ele>533.4000244140625</ele>
        <time>2013-04-07T08:49:46.000Z</time>
      </trkpt>
      <trkpt lon="7.190145989879966" lat="46.18161499500275">
        <ele>532.5999755859375</ele>
        <time>2013-04-07T08:49:50.000Z</time>
      </trkpt>
      <trkpt lon="7.190181948244572" lat="46.1816019192338">
        <ele>533.0</ele>
        <time>2013-04-07T08:49:51.000Z</time>
      </trkpt>
      <trkpt lon="7.1903949324041605" lat="46.181444926187396">
        <ele>536.7999877929688</ele>
        <time>2013-04-07T08:49:58.000Z</time>
      </trkpt>
      <trkpt lon="7.190491994842887" lat="46.1813479475677">
        <ele>538.2000122070312</ele>
        <time>2013-04-07T08:50:01.000Z</time>
      </trkpt>
      <trkpt lon="7.19082391820848" lat="46.18115591816604">
        <ele>533.0</ele>
        <time>2013-04-07T08:50:08.000Z</time>
      </trkpt>
      <trkpt lon="7.191090965643525" lat="46.1810389906168">
        <ele>531.4000244140625</ele>
        <time>2013-04-07T08:50:14.000Z</time>
      </trkpt>
      <trkpt lon="7.191212922334671" lat="46.18094293400645">
        <ele>530.2000122070312</ele>
        <time>2013-04-07T08:50:18.000Z</time>
      </trkpt>
      <trkpt lon="7.191259944811463" lat="46.180880991742015">
        <ele>529.5999755859375</ele>
        <time>2013-04-07T08:50:25.000Z</time>
      </trkpt>
      <trkpt lon="7.191259944811463" lat="46.180880991742015">
        <ele>529.5999755859375</ele>
        <time>2013-04-07T08:50:27.000Z</time>
      </trkpt>
      <trkpt lon="7.191818933933973" lat="46.18059793487191">
        <ele>523.0</ele>
        <time>2013-04-07T08:50:34.000Z</time>
      </trkpt>
      <trkpt lon="7.1921749971807" lat="46.1804829351604">
        <ele>517.0</ele>
        <time>2013-04-07T08:50:39.000Z</time>
      </trkpt>
      <trkpt lon="7.192574981600046" lat="46.180429961532354">
        <ele>509.79998779296875</ele>
        <time>2013-04-07T08:50:44.000Z</time>
      </trkpt>
      <trkpt lon="7.19316397793591" lat="46.18035695515573">
        <ele>506.20001220703125</ele>
        <time>2013-04-07T08:50:49.000Z</time>
      </trkpt>
      <trkpt lon="7.19370192848146" lat="46.18023592047393">
        <ele>501.3999938964844</ele>
        <time>2013-04-07T08:50:53.000Z</time>
      </trkpt>
      <trkpt lon="7.1939849853515625" lat="46.180172972381115">
        <ele>498.79998779296875</ele>
        <time>2013-04-07T08:50:57.000Z</time>
      </trkpt>
      <trkpt lon="7.193976938724518" lat="46.179809952154756">
        <ele>493.3999938964844</ele>
        <time>2013-04-07T08:51:00.000Z</time>
      </trkpt>
      <trkpt lon="7.193966964259744" lat="46.17947199381888">
        <ele>491.20001220703125</ele>
        <time>2013-04-07T08:51:04.000Z</time>
      </trkpt>
      <trkpt lon="7.19397995620966" lat="46.179421953856945">
        <ele>490.79998779296875</ele>
        <time>2013-04-07T08:51:05.000Z</time>
      </trkpt>
      <trkpt lon="7.193654989823699" lat="46.17916094139218">
        <ele>489.3999938964844</ele>
        <time>2013-04-07T08:51:11.000Z</time>
      </trkpt>
      <trkpt lon="7.193396994844079" lat="46.17880496196449">
        <ele>487.20001220703125</ele>
        <time>2013-04-07T08:51:18.000Z</time>
      </trkpt>
      <trkpt lon="7.1930699329823256" lat="46.17841998115182">
        <ele>485.3999938964844</ele>
        <time>2013-04-07T08:51:25.000Z</time>
      </trkpt>
      <trkpt lon="7.193016959354281" lat="46.178367929533124">
        <ele>485.0</ele>
        <time>2013-04-07T08:51:26.000Z</time>
      </trkpt>
      <trkpt lon="7.192801963537931" lat="46.178152933716774">
        <ele>483.79998779296875</ele>
        <time>2013-04-07T08:51:30.000Z</time>
      </trkpt>
      <trkpt lon="7.192367948591709" lat="46.1777959484607">
        <ele>481.6000061035156</ele>
        <time>2013-04-07T08:51:37.000Z</time>
      </trkpt>
      <trkpt lon="7.192106936126947" lat="46.17758095264435">
        <ele>479.3999938964844</ele>
        <time>2013-04-07T08:51:41.000Z</time>
      </trkpt>
      <trkpt lon="7.191740982234478" lat="46.17721692658961">
        <ele>477.20001220703125</ele>
        <time>2013-04-07T08:51:47.000Z</time>
      </trkpt>
      <trkpt lon="7.191245947033167" lat="46.17661896161735">
        <ele>475.0</ele>
        <time>2013-04-07T08:51:56.000Z</time>
      </trkpt>
      <trkpt lon="7.19101594761014" lat="46.17628796026111">
        <ele>472.20001220703125</ele>
        <time>2013-04-07T08:52:01.000Z</time>
      </trkpt>
      <trkpt lon="7.190916957333684" lat="46.176137924194336">
        <ele>470.6000061035156</ele>
        <time>2013-04-07T08:52:05.000Z</time>
      </trkpt>
      <trkpt lon="7.1905009634792805" lat="46.17605997249484">
        <ele>471.79998779296875</ele>
        <time>2013-04-07T08:52:08.000Z</time>
      </trkpt>
      <trkpt lon="7.189743993803859" lat="46.175766941159964">
        <ele>476.79998779296875</ele>
        <time>2013-04-07T08:52:17.000Z</time>
      </trkpt>
      <trkpt lon="7.189327999949455" lat="46.17553794756532">
        <ele>480.6000061035156</ele>
        <time>2013-04-07T08:52:23.000Z</time>
      </trkpt>
      <trkpt lon="7.189018959179521" lat="46.1752849817276">
        <ele>480.3999938964844</ele>
        <time>2013-04-07T08:52:29.000Z</time>
      </trkpt>
      <trkpt lon="7.188665997236967" lat="46.17500293068588">
        <ele>479.79998779296875</ele>
        <time>2013-04-07T08:52:37.000Z</time>
      </trkpt>
      <trkpt lon="7.188421916216612" lat="46.17475398816168">
        <ele>479.0</ele>
        <time>2013-04-07T08:52:44.000Z</time>
      </trkpt>
      <trkpt lon="7.188281938433647" lat="46.17449096404016">
        <ele>474.3999938964844</ele>
        <time>2013-04-07T08:52:51.000Z</time>
      </trkpt>
      <trkpt lon="7.188002988696098" lat="46.17424998432398">
        <ele>472.0</ele>
        <time>2013-04-07T08:52:58.000Z</time>
      </trkpt>
      <trkpt lon="7.187708951532841" lat="46.174005987122655">
        <ele>471.3999938964844</ele>
        <time>2013-04-07T08:53:06.000Z</time>
      </trkpt>
      <trkpt lon="7.1874619368463755" lat="46.173811946064234">
        <ele>472.0</ele>
        <time>2013-04-07T08:53:14.000Z</time>
      </trkpt>
      <trkpt lon="7.187330927699804" lat="46.173706920817494">
        <ele>473.20001220703125</ele>
        <time>2013-04-07T08:53:20.000Z</time>
      </trkpt>
      <trkpt lon="7.187204947695136" lat="46.17360692471266">
        <ele>474.20001220703125</ele>
        <time>2013-04-07T08:53:26.000Z</time>
      </trkpt>
      <trkpt lon="7.187043931335211" lat="46.17345697246492">
        <ele>474.3999938964844</ele>
        <time>2013-04-07T08:53:34.000Z</time>
      </trkpt>
      <trkpt lon="7.186863971874118" lat="46.17333794943988">
        <ele>475.0</ele>
        <time>2013-04-07T08:53:42.000Z</time>
      </trkpt>
      <trkpt lon="7.186989951878786" lat="46.17339192889631">
        <ele>474.0</ele>
        <time>2013-04-07T08:53:48.000Z</time>
      </trkpt>
      <trkpt lon="7.186989951878786" lat="46.17339192889631">
        <ele>474.0</ele>
        <time>2013-04-07T08:53:53.000Z</time>
      </trkpt>
      <trkpt lon="7.186839999631047" lat="46.17332797497511">
        <ele>475.20001220703125</ele>
        <time>2013-04-07T08:53:58.000Z</time>
      </trkpt>
      <trkpt lon="7.186839999631047" lat="46.17332797497511">
        <ele>475.20001220703125</ele>
        <time>2013-04-07T08:54:00.000Z</time>
      </trkpt>
      <trkpt lon="7.186524923890829" lat="46.17311993613839">
        <ele>479.6000061035156</ele>
        <time>2013-04-07T08:54:07.000Z</time>
      </trkpt>
      <trkpt lon="7.186989951878786" lat="46.17339192889631">
        <ele>474.0</ele>
        <time>2013-04-07T08:54:11.000Z</time>
      </trkpt>
      <trkpt lon="7.185809947550297" lat="46.17251199670136">
        <ele>493.20001220703125</ele>
        <time>2013-04-07T08:54:18.000Z</time>
      </trkpt>
      <trkpt lon="7.186989951878786" lat="46.17339192889631">
        <ele>474.0</ele>
        <time>2013-04-07T08:54:20.000Z</time>
      </trkpt>
      <trkpt lon="7.186497934162617" lat="46.17309294641018">
        <ele>480.0</ele>
        <time>2013-04-07T08:54:25.000Z</time>
      </trkpt>
      <trkpt lon="7.186418976634741" lat="46.1730139888823">
        <ele>481.3999938964844</ele>
        <time>2013-04-07T08:54:32.000Z</time>
      </trkpt>
      <trkpt lon="7.18637497164309" lat="46.17298398166895">
        <ele>482.20001220703125</ele>
        <time>2013-04-07T08:54:35.000Z</time>
      </trkpt>
      <trkpt lon="7.186266928911209" lat="46.17291692644358">
        <ele>484.20001220703125</ele>
        <time>2013-04-07T08:54:45.000Z</time>
      </trkpt>
      <trkpt lon="7.186153940856457" lat="46.172847943380475">
        <ele>486.6000061035156</ele>
        <time>2013-04-07T08:54:52.000Z</time>
      </trkpt>
      <trkpt lon="7.186026955023408" lat="46.17272992618382">
        <ele>489.0</ele>
        <time>2013-04-07T08:55:02.000Z</time>
      </trkpt>
      <trkpt lon="7.185938945040107" lat="46.17264099419117">
        <ele>490.79998779296875</ele>
        <time>2013-04-07T08:55:10.000Z</time>
      </trkpt>
      <trkpt lon="7.185845989733934" lat="46.172547955065966">
        <ele>492.79998779296875</ele>
        <time>2013-04-07T08:55:17.000Z</time>
      </trkpt>
      <trkpt lon="7.185809947550297" lat="46.17251199670136">
        <ele>493.20001220703125</ele>
        <time>2013-04-07T08:55:22.000Z</time>
      </trkpt>
      <trkpt lon="7.185809947550297" lat="46.17251199670136">
        <ele>493.20001220703125</ele>
        <time>2013-04-07T08:55:31.000Z</time>
      </trkpt>
      <trkpt lon="7.185510965064168" lat="46.172399930655956">
        <ele>496.0</ele>
        <time>2013-04-07T08:55:38.000Z</time>
      </trkpt>
      <trkpt lon="7.185335950925946" lat="46.17233991622925">
        <ele>498.0</ele>
        <time>2013-04-07T08:55:46.000Z</time>
      </trkpt>
      <trkpt lon="7.185156997293234" lat="46.17229993455112">
        <ele>500.20001220703125</ele>
        <time>2013-04-07T08:55:53.000Z</time>
      </trkpt>
      <trkpt lon="7.1849809773266315" lat="46.17225995287299">
        <ele>502.6000061035156</ele>
        <time>2013-04-07T08:56:00.000Z</time>
      </trkpt>
      <trkpt lon="7.184755923226476" lat="46.1721989326179">
        <ele>504.20001220703125</ele>
        <time>2013-04-07T08:56:10.000Z</time>
      </trkpt>
      <trkpt lon="7.18454897403717" lat="46.17213095538318">
        <ele>506.0</ele>
        <time>2013-04-07T08:56:19.000Z</time>
      </trkpt>
      <trkpt lon="7.18441997654736" lat="46.172073958441615">
        <ele>507.20001220703125</ele>
        <time>2013-04-07T08:56:27.000Z</time>
      </trkpt>
      <trkpt lon="7.184284944087267" lat="46.17201394401491">
        <ele>508.3999938964844</ele>
        <time>2013-04-07T08:56:36.000Z</time>
      </trkpt>
      <trkpt lon="7.184166926890612" lat="46.171962982043624">
        <ele>509.3999938964844</ele>
        <time>2013-04-07T08:56:43.000Z</time>
      </trkpt>
      <trkpt lon="7.184114959090948" lat="46.1719399318099">
        <ele>510.0</ele>
        <time>2013-04-07T08:56:46.000Z</time>
      </trkpt>
      <trkpt lon="7.184008928015828" lat="46.17189399898052">
        <ele>511.0</ele>
        <time>2013-04-07T08:56:53.000Z</time>
      </trkpt>
      <trkpt lon="7.183980932459235" lat="46.171881929039955">
        <ele>511.20001220703125</ele>
        <time>2013-04-07T08:56:55.000Z</time>
      </trkpt>
      <trkpt lon="7.183933993801475" lat="46.17186198011041">
        <ele>511.6000061035156</ele>
        <time>2013-04-07T08:56:58.000Z</time>
      </trkpt>
      <trkpt lon="7.183864926919341" lat="46.17182593792677">
        <ele>512.0</ele>
        <time>2013-04-07T08:57:04.000Z</time>
      </trkpt>
      <trkpt lon="7.183852940797806" lat="46.17181898094714">
        <ele>512.0</ele>
        <time>2013-04-07T08:57:05.000Z</time>
      </trkpt>
      <trkpt lon="7.1838209219276905" lat="46.17179894819856">
        <ele>512.2000122070312</ele>
        <time>2013-04-07T08:57:09.000Z</time>
      </trkpt>
      <trkpt lon="7.183759985491633" lat="46.17176198400557">
        <ele>512.5999755859375</ele>
        <time>2013-04-07T08:57:18.000Z</time>
      </trkpt>
      <trkpt lon="7.183620929718018" lat="46.17167497985065">
        <ele>512.7999877929688</ele>
        <time>2013-04-07T08:57:24.000Z</time>
      </trkpt>
      <trkpt lon="7.183546917513013" lat="46.171600967645645">
        <ele>513.4000244140625</ele>
        <time>2013-04-07T08:57:33.000Z</time>
      </trkpt>
      <trkpt lon="7.183414986357093" lat="46.1715239379555">
        <ele>514.5999755859375</ele>
        <time>2013-04-07T08:57:41.000Z</time>
      </trkpt>
      <trkpt lon="7.183313984423876" lat="46.17146098986268">
        <ele>516.0</ele>
        <time>2013-04-07T08:57:48.000Z</time>
      </trkpt>
      <trkpt lon="7.183212982490659" lat="46.17141396738589">
        <ele>517.5999755859375</ele>
        <time>2013-04-07T08:57:55.000Z</time>
      </trkpt>
      <trkpt lon="7.183039980009198" lat="46.171344984322786">
        <ele>519.5999755859375</ele>
        <time>2013-04-07T08:58:05.000Z</time>
      </trkpt>
      <trkpt lon="7.18302296474576" lat="46.1713389493525">
        <ele>519.7999877929688</ele>
        <time>2013-04-07T08:58:06.000Z</time>
      </trkpt>
      <trkpt lon="7.182938978075981" lat="46.17130693048239">
        <ele>520.7999877929688</ele>
        <time>2013-04-07T08:58:11.000Z</time>
      </trkpt>
      <trkpt lon="7.182874940335751" lat="46.171277929097414">
        <ele>521.5999755859375</ele>
        <time>2013-04-07T08:58:16.000Z</time>
      </trkpt>
      <trkpt lon="7.182799922302365" lat="46.17122998461127">
        <ele>522.4000244140625</ele>
        <time>2013-04-07T08:58:21.000Z</time>
      </trkpt>
      <trkpt lon="7.182659944519401" lat="46.17113996297121">
        <ele>524.0</ele>
        <time>2013-04-07T08:58:30.000Z</time>
      </trkpt>
      <trkpt lon="7.182590961456299" lat="46.17109595797956">
        <ele>524.5999755859375</ele>
        <time>2013-04-07T08:58:34.000Z</time>
      </trkpt>
      <trkpt lon="7.182402955368161" lat="46.17101197130978">
        <ele>525.2000122070312</ele>
        <time>2013-04-07T08:58:44.000Z</time>
      </trkpt>
      <trkpt lon="7.182268928736448" lat="46.17098892107606">
        <ele>524.5999755859375</ele>
        <time>2013-04-07T08:58:51.000Z</time>
      </trkpt>
      <trkpt lon="7.182170944288373" lat="46.17098892107606">
        <ele>524.2000122070312</ele>
        <time>2013-04-07T08:58:56.000Z</time>
      </trkpt>
      <trkpt lon="7.1820329781621695" lat="46.170874927192926">
        <ele>522.0</ele>
        <time>2013-04-07T08:59:01.000Z</time>
      </trkpt>
      <trkpt lon="7.182005988433957" lat="46.170867970213294">
        <ele>521.5999755859375</ele>
        <time>2013-04-07T08:59:02.000Z</time>
      </trkpt>
      <trkpt lon="7.181930970400572" lat="46.170719945803285">
        <ele>518.2000122070312</ele>
        <time>2013-04-07T08:59:06.000Z</time>
      </trkpt>
      <trkpt lon="7.18177598901093" lat="46.170593965798616">
        <ele>514.0</ele>
        <time>2013-04-07T08:59:10.000Z</time>
      </trkpt>
      <trkpt lon="7.1815399546176195" lat="46.170482989400625">
        <ele>511.20001220703125</ele>
        <time>2013-04-07T08:59:13.000Z</time>
      </trkpt>
      <trkpt lon="7.18147499486804" lat="46.17045197635889">
        <ele>510.3999938964844</ele>
        <time>2013-04-07T08:59:16.000Z</time>
      </trkpt>
      <trkpt lon="7.181211970746517" lat="46.17021191865206">
        <ele>501.79998779296875</ele>
        <time>2013-04-07T08:59:20.000Z</time>
      </trkpt>
      <trkpt lon="7.1812619268894196" lat="46.16995199583471">
        <ele>493.20001220703125</ele>
        <time>2013-04-07T08:59:25.000Z</time>
      </trkpt>
      <trkpt lon="7.181298974901438" lat="46.16974496282637">
        <ele>488.0</ele>
        <time>2013-04-07T08:59:28.000Z</time>
      </trkpt>
      <trkpt lon="7.181335939094424" lat="46.16964194923639">
        <ele>485.6000061035156</ele>
        <time>2013-04-07T08:59:30.000Z</time>
      </trkpt>
      <trkpt lon="7.181552946567535" lat="46.169387977570295">
        <ele>480.0</ele>
        <time>2013-04-07T08:59:34.000Z</time>
      </trkpt>
      <trkpt lon="7.181880930438638" lat="46.16915898397565">
        <ele>473.79998779296875</ele>
        <time>2013-04-07T08:59:38.000Z</time>
      </trkpt>
      <trkpt lon="7.181988973170519" lat="46.16911891847849">
        <ele>473.3999938964844</ele>
        <time>2013-04-07T08:59:40.000Z</time>
      </trkpt>
      <trkpt lon="7.182068936526775" lat="46.16909896954894">
        <ele>473.20001220703125</ele>
        <time>2013-04-07T08:59:43.000Z</time>
      </trkpt>
      <trkpt lon="7.182165998965502" lat="46.169085977599025">
        <ele>473.0</ele>
        <time>2013-04-07T08:59:49.000Z</time>
      </trkpt>
      <trkpt lon="7.182188965380192" lat="46.16908296011388">
        <ele>473.0</ele>
        <time>2013-04-07T08:59:50.000Z</time>
      </trkpt>
      <trkpt lon="7.182187959551811" lat="46.16905999369919">
        <ele>472.79998779296875</ele>
        <time>2013-04-07T08:59:55.000Z</time>
      </trkpt>
      <trkpt lon="7.182081928476691" lat="46.16901095956564">
        <ele>472.20001220703125</ele>
        <time>2013-04-07T09:00:02.000Z</time>
      </trkpt>
      <trkpt lon="7.1820559445768595" lat="46.16900593042374">
        <ele>472.20001220703125</ele>
        <time>2013-04-07T09:00:03.000Z</time>
      </trkpt>
      <trkpt lon="7.1818129532039165" lat="46.168957985937595">
        <ele>471.6000061035156</ele>
        <time>2013-04-07T09:00:10.000Z</time>
      </trkpt>
      <trkpt lon="7.181597957387567" lat="46.16892194375396">
        <ele>471.0</ele>
        <time>2013-04-07T09:00:15.000Z</time>
      </trkpt>
      <trkpt lon="7.181321941316128" lat="46.16888397373259">
        <ele>469.79998779296875</ele>
        <time>2013-04-07T09:00:20.000Z</time>
      </trkpt>
      <trkpt lon="7.1810009982436895" lat="46.168827982619405">
        <ele>468.6000061035156</ele>
        <time>2013-04-07T09:00:26.000Z</time>
      </trkpt>
      <trkpt lon="7.180634960532188" lat="46.168785989284515">
        <ele>468.0</ele>
        <time>2013-04-07T09:00:33.000Z</time>
      </trkpt>
      <trkpt lon="7.1800049766898155" lat="46.168699990957975">
        <ele>467.6000061035156</ele>
        <time>2013-04-07T09:00:43.000Z</time>
      </trkpt>
      <trkpt lon="7.179378932341933" lat="46.16862497292459">
        <ele>467.20001220703125</ele>
        <time>2013-04-07T09:00:53.000Z</time>
      </trkpt>
      <trkpt lon="7.179186986759305" lat="46.16860192269087">
        <ele>466.79998779296875</ele>
        <time>2013-04-07T09:00:56.000Z</time>
      </trkpt>
      <trkpt lon="7.178554991260171" lat="46.16851299069822">
        <ele>468.0</ele>
        <time>2013-04-07T09:01:05.000Z</time>
      </trkpt>
      <trkpt lon="7.177906986325979" lat="46.16842498071492">
        <ele>467.79998779296875</ele>
        <time>2013-04-07T09:01:14.000Z</time>
      </trkpt>
      <trkpt lon="7.177449921146035" lat="46.16838097572327">
        <ele>467.20001220703125</ele>
        <time>2013-04-07T09:01:21.000Z</time>
      </trkpt>
      <trkpt lon="7.177355960011482" lat="46.16837494075298">
        <ele>467.0</ele>
        <time>2013-04-07T09:01:23.000Z</time>
      </trkpt>
      <trkpt lon="7.177291922271252" lat="46.16830092854798">
        <ele>466.20001220703125</ele>
        <time>2013-04-07T09:01:27.000Z</time>
      </trkpt>
      <trkpt lon="7.177305920049548" lat="46.16821392439306">
        <ele>466.0</ele>
        <time>2013-04-07T09:01:31.000Z</time>
      </trkpt>
      <trkpt lon="7.177212964743376" lat="46.168163968250155">
        <ele>465.6000061035156</ele>
        <time>2013-04-07T09:01:32.000Z</time>
      </trkpt>
      <trkpt lon="7.176796970888972" lat="46.16810395382345">
        <ele>464.79998779296875</ele>
        <time>2013-04-07T09:01:41.000Z</time>
      </trkpt>
      <trkpt lon="7.176338983699679" lat="46.16803899407387">
        <ele>464.20001220703125</ele>
        <time>2013-04-07T09:01:48.000Z</time>
      </trkpt>
      <trkpt lon="7.175808995962143" lat="46.16796498186886">
        <ele>463.6000061035156</ele>
        <time>2013-04-07T09:01:55.000Z</time>
      </trkpt>
      <trkpt lon="7.175521999597549" lat="46.1679249163717">
        <ele>462.79998779296875</ele>
        <time>2013-04-07T09:01:59.000Z</time>
      </trkpt>
      <trkpt lon="7.175225950777531" lat="46.16788191720843">
        <ele>462.20001220703125</ele>
        <time>2013-04-07T09:02:03.000Z</time>
      </trkpt>
      <trkpt lon="7.175026964396238" lat="46.16785299964249">
        <ele>461.79998779296875</ele>
        <time>2013-04-07T09:02:06.000Z</time>
      </trkpt>
      <trkpt lon="7.174962926656008" lat="46.167842941358685">
        <ele>461.79998779296875</ele>
        <time>2013-04-07T09:02:07.000Z</time>
      </trkpt>
      <trkpt lon="7.174682971090078" lat="46.167800948023796">
        <ele>462.6000061035156</ele>
        <time>2013-04-07T09:02:11.000Z</time>
      </trkpt>
      <trkpt lon="7.174415923655033" lat="46.16776197217405">
        <ele>463.20001220703125</ele>
        <time>2013-04-07T09:02:15.000Z</time>
      </trkpt>
      <trkpt lon="7.174151977524161" lat="46.1677229963243">
        <ele>463.79998779296875</ele>
        <time>2013-04-07T09:02:19.000Z</time>
      </trkpt>
      <trkpt lon="7.1740099880844355" lat="46.16770095191896">
        <ele>463.79998779296875</ele>
        <time>2013-04-07T09:02:21.000Z</time>
      </trkpt>
      <trkpt lon="7.173681920394301" lat="46.16765292361379">
        <ele>464.0</ele>
        <time>2013-04-07T09:02:25.000Z</time>
      </trkpt>
      <trkpt lon="7.17335494235158" lat="46.167603973299265">
        <ele>464.20001220703125</ele>
        <time>2013-04-07T09:02:29.000Z</time>
      </trkpt>
      <trkpt lon="7.17296895571053" lat="46.16754597052932">
        <ele>464.3999938964844</ele>
        <time>2013-04-07T09:02:34.000Z</time>
      </trkpt>
      <trkpt lon="7.172894943505526" lat="46.16753398440778">
        <ele>464.6000061035156</ele>
        <time>2013-04-07T09:02:35.000Z</time>
      </trkpt>
      <trkpt lon="7.172591937705874" lat="46.16748796775937">
        <ele>464.79998779296875</ele>
        <time>2013-04-07T09:02:39.000Z</time>
      </trkpt>
      <trkpt lon="7.172371996566653" lat="46.167453937232494">
        <ele>464.6000061035156</ele>
        <time>2013-04-07T09:02:42.000Z</time>
      </trkpt>
      <trkpt lon="7.172061949968338" lat="46.16740892641246">
        <ele>463.79998779296875</ele>
        <time>2013-04-07T09:02:47.000Z</time>
      </trkpt>
      <trkpt lon="7.171758944168687" lat="46.1673569586128">
        <ele>462.79998779296875</ele>
        <time>2013-04-07T09:02:52.000Z</time>
      </trkpt>
      <trkpt lon="7.171323923394084" lat="46.167221926152706">
        <ele>463.0</ele>
        <time>2013-04-07T09:02:59.000Z</time>
      </trkpt>
      <trkpt lon="7.17094992287457" lat="46.166958985850215">
        <ele>462.79998779296875</ele>
        <time>2013-04-07T09:03:07.000Z</time>
      </trkpt>
      <trkpt lon="7.170679941773415" lat="46.16675899364054">
        <ele>462.20001220703125</ele>
        <time>2013-04-07T09:03:14.000Z</time>
      </trkpt>
      <trkpt lon="7.170451954007149" lat="46.16658892482519">
        <ele>461.6000061035156</ele>
        <time>2013-04-07T09:03:21.000Z</time>
      </trkpt>
      <trkpt lon="7.170084994286299" lat="46.166315926238894">
        <ele>462.20001220703125</ele>
        <time>2013-04-07T09:03:29.000Z</time>
      </trkpt>
      <trkpt lon="7.1696889493614435" lat="46.16602197289467">
        <ele>462.79998779296875</ele>
        <time>2013-04-07T09:03:37.000Z</time>
      </trkpt>
      <trkpt lon="7.169377980753779" lat="46.16574495099485">
        <ele>461.79998779296875</ele>
        <time>2013-04-07T09:03:44.000Z</time>
      </trkpt>
      <trkpt lon="7.168926950544119" lat="46.16531194187701">
        <ele>463.20001220703125</ele>
        <time>2013-04-07T09:03:55.000Z</time>
      </trkpt>
      <trkpt lon="7.16839293949306" lat="46.16479997523129">
        <ele>463.20001220703125</ele>
        <time>2013-04-07T09:04:08.000Z</time>
      </trkpt>
      <trkpt lon="7.167934952303767" lat="46.164359925314784">
        <ele>463.79998779296875</ele>
        <time>2013-04-07T09:04:19.000Z</time>
      </trkpt>
      <trkpt lon="7.167463973164558" lat="46.163908978924155">
        <ele>464.6000061035156</ele>
        <time>2013-04-07T09:04:31.000Z</time>
      </trkpt>
      <trkpt lon="7.166971955448389" lat="46.163436993956566">
        <ele>465.3999938964844</ele>
        <time>2013-04-07T09:04:43.000Z</time>
      </trkpt>
      <trkpt lon="7.166491923853755" lat="46.16296995431185">
        <ele>463.79998779296875</ele>
        <time>2013-04-07T09:04:55.000Z</time>
      </trkpt>
      <trkpt lon="7.166082970798016" lat="46.16257198154926">
        <ele>462.79998779296875</ele>
        <time>2013-04-07T09:05:06.000Z</time>
      </trkpt>
      <trkpt lon="7.165739983320236" lat="46.16223796270788">
        <ele>462.79998779296875</ele>
        <time>2013-04-07T09:05:16.000Z</time>
      </trkpt>
      <trkpt lon="7.165441922843456" lat="46.16194794885814">
        <ele>462.20001220703125</ele>
        <time>2013-04-07T09:05:25.000Z</time>
      </trkpt>
      <trkpt lon="7.165161967277527" lat="46.161738988012075">
        <ele>461.3999938964844</ele>
        <time>2013-04-07T09:05:33.000Z</time>
      </trkpt>
      <trkpt lon="7.164666932076216" lat="46.16160496138036">
        <ele>461.3999938964844</ele>
        <time>2013-04-07T09:05:43.000Z</time>
      </trkpt>
      <trkpt lon="7.164136944338679" lat="46.161461966112256">
        <ele>462.20001220703125</ele>
        <time>2013-04-07T09:05:53.000Z</time>
      </trkpt>
      <trkpt lon="7.163562951609492" lat="46.161305978894234">
        <ele>463.3999938964844</ele>
        <time>2013-04-07T09:06:03.000Z</time>
      </trkpt>
      <trkpt lon="7.1629709377884865" lat="46.16115099750459">
        <ele>464.20001220703125</ele>
        <time>2013-04-07T09:06:13.000Z</time>
      </trkpt>
      <trkpt lon="7.162527954205871" lat="46.161031974479556">
        <ele>463.3999938964844</ele>
        <time>2013-04-07T09:06:22.000Z</time>
      </trkpt>
      <trkpt lon="7.162038953974843" lat="46.16079795174301">
        <ele>463.0</ele>
        <time>2013-04-07T09:06:30.000Z</time>
      </trkpt>
      <trkpt lon="7.161532938480377" lat="46.16052595898509">
        <ele>465.0</ele>
        <time>2013-04-07T09:06:41.000Z</time>
      </trkpt>
      <trkpt lon="7.161040920764208" lat="46.160236950963736">
        <ele>464.3999938964844</ele>
        <time>2013-04-07T09:06:52.000Z</time>
      </trkpt>
      <trkpt lon="7.160707991570234" lat="46.160019943490624">
        <ele>461.20001220703125</ele>
        <time>2013-04-07T09:07:00.000Z</time>
      </trkpt>
      <trkpt lon="7.160283951088786" lat="46.159717943519354">
        <ele>461.20001220703125</ele>
        <time>2013-04-07T09:07:10.000Z</time>
      </trkpt>
      <trkpt lon="7.1598179172724485" lat="46.159375961869955">
        <ele>462.20001220703125</ele>
        <time>2013-04-07T09:07:21.000Z</time>
      </trkpt>
      <trkpt lon="7.159373927861452" lat="46.15907798521221">
        <ele>462.20001220703125</ele>
        <time>2013-04-07T09:07:31.000Z</time>
      </trkpt>
      <trkpt lon="7.158994982019067" lat="46.15879995748401">
        <ele>463.20001220703125</ele>
        <time>2013-04-07T09:07:40.000Z</time>
      </trkpt>
      <trkpt lon="7.1586039662361145" lat="46.158520923927426">
        <ele>464.20001220703125</ele>
        <time>2013-04-07T09:07:49.000Z</time>
      </trkpt>
      <trkpt lon="7.158204987645149" lat="46.158301988616586">
        <ele>464.6000061035156</ele>
        <time>2013-04-07T09:07:57.000Z</time>
      </trkpt>
      <trkpt lon="7.157820928841829" lat="46.158090932294726">
        <ele>463.20001220703125</ele>
        <time>2013-04-07T09:08:05.000Z</time>
      </trkpt>
      <trkpt lon="7.157437959685922" lat="46.15787794813514">
        <ele>462.3999938964844</ele>
        <time>2013-04-07T09:08:13.000Z</time>
      </trkpt>
      <trkpt lon="7.156943930312991" lat="46.15759598091245">
        <ele>461.0</ele>
        <time>2013-04-07T09:08:23.000Z</time>
      </trkpt>
      <trkpt lon="7.156471945345402" lat="46.15732692182064">
        <ele>460.0</ele>
        <time>2013-04-07T09:08:33.000Z</time>
      </trkpt>
      <trkpt lon="7.1561819314956665" lat="46.157160960137844">
        <ele>460.0</ele>
        <time>2013-04-07T09:08:40.000Z</time>
      </trkpt>
      <trkpt lon="7.155990991741419" lat="46.15705098956823">
        <ele>460.20001220703125</ele>
        <time>2013-04-07T09:08:46.000Z</time>
      </trkpt>
      <trkpt lon="7.155962996184826" lat="46.157035985961556">
        <ele>460.20001220703125</ele>
        <time>2013-04-07T09:08:47.000Z</time>
      </trkpt>
      <trkpt lon="7.155835926532745" lat="46.15705098956823">
        <ele>460.3999938964844</ele>
        <time>2013-04-07T09:08:51.000Z</time>
      </trkpt>
      <trkpt lon="7.155787982046604" lat="46.15709197707474">
        <ele>460.3999938964844</ele>
        <time>2013-04-07T09:08:53.000Z</time>
      </trkpt>
      <trkpt lon="7.155746994540095" lat="46.15712692961097">
        <ele>460.6000061035156</ele>
        <time>2013-04-07T09:08:58.000Z</time>
      </trkpt>
      <trkpt lon="7.155324965715408" lat="46.15689793601632">
        <ele>461.3999938964844</ele>
        <time>2013-04-07T09:09:05.000Z</time>
      </trkpt>
      <trkpt lon="7.1548339538276196" lat="46.15663298405707">
        <ele>462.20001220703125</ele>
        <time>2013-04-07T09:09:16.000Z</time>
      </trkpt>
      <trkpt lon="7.154395999386907" lat="46.156394938007">
        <ele>460.6000061035156</ele>
        <time>2013-04-07T09:09:26.000Z</time>
      </trkpt>
      <trkpt lon="7.154002971947193" lat="46.156170973554254">
        <ele>460.0</ele>
        <time>2013-04-07T09:09:35.000Z</time>
      </trkpt>
      <trkpt lon="7.153570968657732" lat="46.1559319216758">
        <ele>460.0</ele>
        <time>2013-04-07T09:09:45.000Z</time>
      </trkpt>
      <trkpt lon="7.15322395786643" lat="46.15581499412656">
        <ele>460.0</ele>
        <time>2013-04-07T09:09:52.000Z</time>
      </trkpt>
      <trkpt lon="7.152782985940576" lat="46.15567199885845">
        <ele>460.79998779296875</ele>
        <time>2013-04-07T09:10:01.000Z</time>
      </trkpt>
      <trkpt lon="7.152304966002703" lat="46.1555209569633">
        <ele>461.3999938964844</ele>
        <time>2013-04-07T09:10:10.000Z</time>
      </trkpt>
      <trkpt lon="7.151937922462821" lat="46.15540495142341">
        <ele>462.20001220703125</ele>
        <time>2013-04-07T09:10:17.000Z</time>
      </trkpt>
      <trkpt lon="7.151553947478533" lat="46.155270924791694">
        <ele>462.79998779296875</ele>
        <time>2013-04-07T09:10:25.000Z</time>
      </trkpt>
      <trkpt lon="7.151281954720616" lat="46.15517595782876">
        <ele>462.3999938964844</ele>
        <time>2013-04-07T09:10:32.000Z</time>
      </trkpt>
      <trkpt lon="7.151047931984067" lat="46.15508794784546">
        <ele>462.0</ele>
        <time>2013-04-07T09:10:40.000Z</time>
      </trkpt>
      <trkpt lon="7.151047931984067" lat="46.15508794784546">
        <ele>462.0</ele>
        <time>2013-04-07T09:10:47.000Z</time>
      </trkpt>
      <trkpt lon="7.1507679764181376" lat="46.15505098365247">
        <ele>462.0</ele>
        <time>2013-04-07T09:10:53.000Z</time>
      </trkpt>
      <trkpt lon="7.150550968945026" lat="46.15513396449387">
        <ele>462.79998779296875</ele>
        <time>2013-04-07T09:11:00.000Z</time>
      </trkpt>
      <trkpt lon="7.150194989517331" lat="46.15530193783343">
        <ele>464.3999938964844</ele>
        <time>2013-04-07T09:11:11.000Z</time>
      </trkpt>
      <trkpt lon="7.149908998981118" lat="46.155403945595026">
        <ele>465.79998779296875</ele>
        <time>2013-04-07T09:11:19.000Z</time>
      </trkpt>
      <trkpt lon="7.149694925174117" lat="46.155465971678495">
        <ele>467.3999938964844</ele>
        <time>2013-04-07T09:11:25.000Z</time>
      </trkpt>
      <trkpt lon="7.149445982649922" lat="46.155446944758296">
        <ele>468.6000061035156</ele>
        <time>2013-04-07T09:11:31.000Z</time>
      </trkpt>
      <trkpt lon="7.149207936599851" lat="46.15527997724712">
        <ele>468.20001220703125</ele>
        <time>2013-04-07T09:11:38.000Z</time>
      </trkpt>
      <trkpt lon="7.148888921365142" lat="46.15510697476566">
        <ele>467.0</ele>
        <time>2013-04-07T09:11:45.000Z</time>
      </trkpt>
      <trkpt lon="7.148511987179518" lat="46.15504796616733">
        <ele>467.20001220703125</ele>
        <time>2013-04-07T09:11:52.000Z</time>
      </trkpt>
      <trkpt lon="7.148399921134114" lat="46.15502692759037">
        <ele>467.20001220703125</ele>
        <time>2013-04-07T09:11:54.000Z</time>
      </trkpt>
      <trkpt lon="7.14808794669807" lat="46.15498694591224">
        <ele>466.0</ele>
        <time>2013-04-07T09:11:59.000Z</time>
      </trkpt>
      <trkpt lon="7.147484952583909" lat="46.154887955635786">
        <ele>463.3999938964844</ele>
        <time>2013-04-07T09:12:09.000Z</time>
      </trkpt>
      <trkpt lon="7.14694993570447" lat="46.15483095869422">
        <ele>463.0</ele>
        <time>2013-04-07T09:12:17.000Z</time>
      </trkpt>
      <trkpt lon="7.146427994593978" lat="46.154800951480865">
        <ele>464.0</ele>
        <time>2013-04-07T09:12:24.000Z</time>
      </trkpt>
      <trkpt lon="7.1458149421960115" lat="46.15471696481109">
        <ele>466.20001220703125</ele>
        <time>2013-04-07T09:12:32.000Z</time>
      </trkpt>
      <trkpt lon="7.145275985822082" lat="46.15470196120441">
        <ele>465.0</ele>
        <time>2013-04-07T09:12:40.000Z</time>
      </trkpt>
      <trkpt lon="7.144934926182032" lat="46.154691986739635">
        <ele>465.0</ele>
        <time>2013-04-07T09:12:46.000Z</time>
      </trkpt>
      <trkpt lon="7.144589927047491" lat="46.15459492430091">
        <ele>466.79998779296875</ele>
        <time>2013-04-07T09:12:53.000Z</time>
      </trkpt>
      <trkpt lon="7.144209975376725" lat="46.154453940689564">
        <ele>469.0</ele>
        <time>2013-04-07T09:13:02.000Z</time>
      </trkpt>
      <trkpt lon="7.143936976790428" lat="46.154346987605095">
        <ele>470.79998779296875</ele>
        <time>2013-04-07T09:13:10.000Z</time>
      </trkpt>
      <trkpt lon="7.143702954053879" lat="46.15421094931662">
        <ele>471.6000061035156</ele>
        <time>2013-04-07T09:13:18.000Z</time>
      </trkpt>
      <trkpt lon="7.1435269340872765" lat="46.154087986797094">
        <ele>471.20001220703125</ele>
        <time>2013-04-07T09:13:26.000Z</time>
      </trkpt>
      <trkpt lon="7.1433899737894535" lat="46.153941974043846">
        <ele>470.6000061035156</ele>
        <time>2013-04-07T09:13:33.000Z</time>
      </trkpt>
      <trkpt lon="7.143200961872935" lat="46.153745921328664">
        <ele>469.6000061035156</ele>
        <time>2013-04-07T09:13:39.000Z</time>
      </trkpt>
      <trkpt lon="7.1430029813200235" lat="46.15356596186757">
        <ele>468.79998779296875</ele>
        <time>2013-04-07T09:13:44.000Z</time>
      </trkpt>
      <trkpt lon="7.142601991072297" lat="46.15327997133136">
        <ele>467.79998779296875</ele>
        <time>2013-04-07T09:13:53.000Z</time>
      </trkpt>
      <trkpt lon="7.142247939482331" lat="46.15303999744356">
        <ele>467.3999938964844</ele>
        <time>2013-04-07T09:14:00.000Z</time>
      </trkpt>
      <trkpt lon="7.142192954197526" lat="46.15301191806793">
        <ele>467.3999938964844</ele>
        <time>2013-04-07T09:14:01.000Z</time>
      </trkpt>
      <trkpt lon="7.1417569275945425" lat="46.15284092724323">
        <ele>468.6000061035156</ele>
        <time>2013-04-07T09:14:09.000Z</time>
      </trkpt>
      <trkpt lon="7.14127597399056" lat="46.15272098220885">
        <ele>469.20001220703125</ele>
        <time>2013-04-07T09:14:17.000Z</time>
      </trkpt>
      <trkpt lon="7.140721930190921" lat="46.15258092060685">
        <ele>469.79998779296875</ele>
        <time>2013-04-07T09:14:27.000Z</time>
      </trkpt>
      <trkpt lon="7.140374919399619" lat="46.15248796530068">
        <ele>470.3999938964844</ele>
        <time>2013-04-07T09:14:35.000Z</time>
      </trkpt>
      <trkpt lon="7.140107955783606" lat="46.15235997363925">
        <ele>470.6000061035156</ele>
        <time>2013-04-07T09:14:43.000Z</time>
      </trkpt>
      <trkpt lon="7.139800926670432" lat="46.15221094340086">
        <ele>471.3999938964844</ele>
        <time>2013-04-07T09:14:52.000Z</time>
      </trkpt>
      <trkpt lon="7.1394529938697815" lat="46.15203894674778">
        <ele>472.3999938964844</ele>
        <time>2013-04-07T09:15:01.000Z</time>
      </trkpt>
      <trkpt lon="7.139142947271466" lat="46.151940962299705">
        <ele>473.6000061035156</ele>
        <time>2013-04-07T09:15:08.000Z</time>
      </trkpt>
      <trkpt lon="7.138852933421731" lat="46.15184197202325">
        <ele>474.3999938964844</ele>
        <time>2013-04-07T09:15:15.000Z</time>
      </trkpt>
      <trkpt lon="7.138511957600713" lat="46.15174692124128">
        <ele>475.6000061035156</ele>
        <time>2013-04-07T09:15:23.000Z</time>
      </trkpt>
      <trkpt lon="7.138145919889212" lat="46.1516129784286">
        <ele>475.3999938964844</ele>
        <time>2013-04-07T09:15:32.000Z</time>
      </trkpt>
      <trkpt lon="7.137933941558003" lat="46.15152094513178">
        <ele>474.6000061035156</ele>
        <time>2013-04-07T09:15:37.000Z</time>
      </trkpt>
      <trkpt lon="7.137655997648835" lat="46.151360934600234">
        <ele>473.6000061035156</ele>
        <time>2013-04-07T09:15:44.000Z</time>
      </trkpt>
      <trkpt lon="7.13741191662848" lat="46.15121894516051">
        <ele>472.79998779296875</ele>
        <time>2013-04-07T09:15:50.000Z</time>
      </trkpt>
      <trkpt lon="7.137092985212803" lat="46.151060946285725">
        <ele>471.20001220703125</ele>
        <time>2013-04-07T09:15:56.000Z</time>
      </trkpt>
      <trkpt lon="7.136948984116316" lat="46.15101593546569">
        <ele>470.6000061035156</ele>
        <time>2013-04-07T09:15:58.000Z</time>
      </trkpt>
      <trkpt lon="7.136288993060589" lat="46.150804962962866">
        <ele>468.6000061035156</ele>
        <time>2013-04-07T09:16:06.000Z</time>
      </trkpt>
      <trkpt lon="7.135670995339751" lat="46.150608994066715">
        <ele>470.20001220703125</ele>
        <time>2013-04-07T09:16:13.000Z</time>
      </trkpt>
      <trkpt lon="7.13504595682025" lat="46.15042199380696">
        <ele>474.6000061035156</ele>
        <time>2013-04-07T09:16:20.000Z</time>
      </trkpt>
      <trkpt lon="7.134349923580885" lat="46.15021395497024">
        <ele>476.3999938964844</ele>
        <time>2013-04-07T09:16:28.000Z</time>
      </trkpt>
      <trkpt lon="7.133914986625314" lat="46.1501089297235">
        <ele>474.20001220703125</ele>
        <time>2013-04-07T09:16:33.000Z</time>
      </trkpt>
      <trkpt lon="7.133831921964884" lat="46.15010297857225">
        <ele>474.20001220703125</ele>
        <time>2013-04-07T09:16:34.000Z</time>
      </trkpt>
      <trkpt lon="7.133182995021343" lat="46.15006794221699">
        <ele>474.0</ele>
        <time>2013-04-07T09:16:42.000Z</time>
      </trkpt>
      <trkpt lon="7.1326919831335545" lat="46.15004598163068">
        <ele>472.79998779296875</ele>
        <time>2013-04-07T09:16:49.000Z</time>
      </trkpt>
      <trkpt lon="7.132124947384" lat="46.15004396997392">
        <ele>471.20001220703125</ele>
        <time>2013-04-07T09:16:58.000Z</time>
      </trkpt>
      <trkpt lon="7.131829988211393" lat="46.15001295693219">
        <ele>469.0</ele>
        <time>2013-04-07T09:17:04.000Z</time>
      </trkpt>
      <trkpt lon="7.13162999600172" lat="46.14994799718261">
        <ele>467.79998779296875</ele>
        <time>2013-04-07T09:17:10.000Z</time>
      </trkpt>
      <trkpt lon="7.131441989913583" lat="46.149856969714165">
        <ele>468.6000061035156</ele>
        <time>2013-04-07T09:17:17.000Z</time>
      </trkpt>
      <trkpt lon="7.131305951625109" lat="46.149752950295806">
        <ele>468.6000061035156</ele>
        <time>2013-04-07T09:17:23.000Z</time>
      </trkpt>
      <trkpt lon="7.131080981343985" lat="46.149580953642726">
        <ele>468.6000061035156</ele>
        <time>2013-04-07T09:17:31.000Z</time>
      </trkpt>
      <trkpt lon="7.130889957770705" lat="46.14939294755459">
        <ele>467.79998779296875</ele>
        <time>2013-04-07T09:17:39.000Z</time>
      </trkpt>
      <trkpt lon="7.130680996924639" lat="46.14914492703974">
        <ele>467.6000061035156</ele>
        <time>2013-04-07T09:17:48.000Z</time>
      </trkpt>
      <trkpt lon="7.130538923665881" lat="46.14894594065845">
        <ele>467.3999938964844</ele>
        <time>2013-04-07T09:17:54.000Z</time>
      </trkpt>
      <trkpt lon="7.130418978631496" lat="46.14877696149051">
        <ele>467.20001220703125</ele>
        <time>2013-04-07T09:17:59.000Z</time>
      </trkpt>
      <trkpt lon="7.13023298420012" lat="46.148567916825414">
        <ele>466.79998779296875</ele>
        <time>2013-04-07T09:18:06.000Z</time>
      </trkpt>
      <trkpt lon="7.130030980333686" lat="46.14832593128085">
        <ele>465.6000061035156</ele>
        <time>2013-04-07T09:18:12.000Z</time>
      </trkpt>
      <trkpt lon="7.129992926493287" lat="46.14827999845147">
        <ele>465.6000061035156</ele>
        <time>2013-04-07T09:18:13.000Z</time>
      </trkpt>
      <trkpt lon="7.129872981458902" lat="46.14796098321676">
        <ele>464.3999938964844</ele>
        <time>2013-04-07T09:18:19.000Z</time>
      </trkpt>
      <trkpt lon="7.129803998395801" lat="46.14773894660175">
        <ele>463.3999938964844</ele>
        <time>2013-04-07T09:18:23.000Z</time>
      </trkpt>
      <trkpt lon="7.129572993144393" lat="46.14743996411562">
        <ele>462.3999938964844</ele>
        <time>2013-04-07T09:18:29.000Z</time>
      </trkpt>
      <trkpt lon="7.129282979294658" lat="46.14716193638742">
        <ele>462.79998779296875</ele>
        <time>2013-04-07T09:18:36.000Z</time>
      </trkpt>
      <trkpt lon="7.12900897487998" lat="46.14692699164152">
        <ele>463.79998779296875</ele>
        <time>2013-04-07T09:18:43.000Z</time>
      </trkpt>
      <trkpt lon="7.128646960482001" lat="46.14680092781782">
        <ele>466.3999938964844</ele>
        <time>2013-04-07T09:18:50.000Z</time>
      </trkpt>
      <trkpt lon="7.128206994384527" lat="46.146657932549715">
        <ele>468.6000061035156</ele>
        <time>2013-04-07T09:18:59.000Z</time>
      </trkpt>
      <trkpt lon="7.127714976668358" lat="46.14650898613036">
        <ele>470.20001220703125</ele>
        <time>2013-04-07T09:19:10.000Z</time>
      </trkpt>
      <trkpt lon="7.127402918413281" lat="46.14636196754873">
        <ele>470.6000061035156</ele>
        <time>2013-04-07T09:19:18.000Z</time>
      </trkpt>
      <trkpt lon="7.127201920375228" lat="46.14626498892903">
        <ele>471.0</ele>
        <time>2013-04-07T09:19:24.000Z</time>
      </trkpt>
      <trkpt lon="7.1269909478724" lat="46.1461649928242">
        <ele>471.3999938964844</ele>
        <time>2013-04-07T09:19:31.000Z</time>
      </trkpt>
      <trkpt lon="7.1268159337341785" lat="46.146080922335386">
        <ele>471.6000061035156</ele>
        <time>2013-04-07T09:19:37.000Z</time>
      </trkpt>
      <trkpt lon="7.12662298232317" lat="46.14599794149399">
        <ele>472.0</ele>
        <time>2013-04-07T09:19:43.000Z</time>
      </trkpt>
      <trkpt lon="7.126446962356567" lat="46.14592996425927">
        <ele>472.20001220703125</ele>
        <time>2013-04-07T09:19:49.000Z</time>
      </trkpt>
      <trkpt lon="7.126200953498483" lat="46.145865926519036">
        <ele>473.0</ele>
        <time>2013-04-07T09:19:54.000Z</time>
      </trkpt>
      <trkpt lon="7.1260269451886415" lat="46.14583097398281">
        <ele>473.79998779296875</ele>
        <time>2013-04-07T09:19:58.000Z</time>
      </trkpt>
      <trkpt lon="7.125833993777633" lat="46.14576391875744">
        <ele>474.20001220703125</ele>
        <time>2013-04-07T09:20:04.000Z</time>
      </trkpt>
      <trkpt lon="7.1255389507859945" lat="46.14559091627598">
        <ele>474.3999938964844</ele>
        <time>2013-04-07T09:20:13.000Z</time>
      </trkpt>
      <trkpt lon="7.125332923606038" lat="46.14544792100787">
        <ele>474.20001220703125</ele>
        <time>2013-04-07T09:20:19.000Z</time>
      </trkpt>
      <trkpt lon="7.125267963856459" lat="46.14539796486497">
        <ele>474.20001220703125</ele>
        <time>2013-04-07T09:20:21.000Z</time>
      </trkpt>
      <trkpt lon="7.125169979408383" lat="46.145262932404876">
        <ele>473.3999938964844</ele>
        <time>2013-04-07T09:20:25.000Z</time>
      </trkpt>
      <trkpt lon="7.125031929463148" lat="46.14499093964696">
        <ele>471.6000061035156</ele>
        <time>2013-04-07T09:20:30.000Z</time>
      </trkpt>
      <trkpt lon="7.124975938349962" lat="46.144827995449305">
        <ele>469.79998779296875</ele>
        <time>2013-04-07T09:20:33.000Z</time>
      </trkpt>
      <trkpt lon="7.1249729208648205" lat="46.144790947437286">
        <ele>469.3999938964844</ele>
        <time>2013-04-07T09:20:34.000Z</time>
      </trkpt>
      <trkpt lon="7.124288957566023" lat="46.14458592608571">
        <ele>467.0</ele>
        <time>2013-04-07T09:20:43.000Z</time>
      </trkpt>
      <trkpt lon="7.123726950958371" lat="46.14449699409306">
        <ele>465.6000061035156</ele>
        <time>2013-04-07T09:20:51.000Z</time>
      </trkpt>
      <trkpt lon="7.123444983735681" lat="46.14447796717286">
        <ele>465.3999938964844</ele>
        <time>2013-04-07T09:20:55.000Z</time>
      </trkpt>
      <trkpt lon="7.122816927731037" lat="46.14443697966635">
        <ele>465.20001220703125</ele>
        <time>2013-04-07T09:21:04.000Z</time>
      </trkpt>
      <trkpt lon="7.122380984947085" lat="46.14439791999757">
        <ele>465.20001220703125</ele>
        <time>2013-04-07T09:21:10.000Z</time>
      </trkpt>
      <trkpt lon="7.1219539269804955" lat="46.14434796385467">
        <ele>465.79998779296875</ele>
        <time>2013-04-07T09:21:16.000Z</time>
      </trkpt>
      <trkpt lon="7.121478924527764" lat="46.14423497579992">
        <ele>465.6000061035156</ele>
        <time>2013-04-07T09:21:23.000Z</time>
      </trkpt>
      <trkpt lon="7.121162926778197" lat="46.14404294639826">
        <ele>464.3999938964844</ele>
        <time>2013-04-07T09:21:29.000Z</time>
      </trkpt>
      <trkpt lon="7.121129985898733" lat="46.14400992169976">
        <ele>464.3999938964844</ele>
        <time>2013-04-07T09:21:30.000Z</time>
      </trkpt>
      <trkpt lon="7.120891939848661" lat="46.14363692700863">
        <ele>462.6000061035156</ele>
        <time>2013-04-07T09:21:39.000Z</time>
      </trkpt>
      <trkpt lon="7.120644925162196" lat="46.14314197562635">
        <ele>462.20001220703125</ele>
        <time>2013-04-07T09:21:50.000Z</time>
      </trkpt>
      <trkpt lon="7.120462954044342" lat="46.142790941521525">
        <ele>463.20001220703125</ele>
        <time>2013-04-07T09:21:58.000Z</time>
      </trkpt>
      <trkpt lon="7.120274947956204" lat="46.14246999844909">
        <ele>463.79998779296875</ele>
        <time>2013-04-07T09:22:06.000Z</time>
      </trkpt>
      <trkpt lon="7.120247958227992" lat="46.14243194460869">
        <ele>464.0</ele>
        <time>2013-04-07T09:22:07.000Z</time>
      </trkpt>
      <trkpt lon="7.11998593993485" lat="46.14209197461605">
        <ele>464.0</ele>
        <time>2013-04-07T09:22:16.000Z</time>
      </trkpt>
      <trkpt lon="7.1197309624403715" lat="46.14179693162441">
        <ele>465.0</ele>
        <time>2013-04-07T09:22:24.000Z</time>
      </trkpt>
      <trkpt lon="7.119451928883791" lat="46.14148294553161">
        <ele>465.79998779296875</ele>
        <time>2013-04-07T09:22:33.000Z</time>
      </trkpt>
      <trkpt lon="7.119129979982972" lat="46.141130989417434">
        <ele>466.79998779296875</ele>
        <time>2013-04-07T09:22:43.000Z</time>
      </trkpt>
      <trkpt lon="7.1187699772417545" lat="46.14076092839241">
        <ele>466.79998779296875</ele>
        <time>2013-04-07T09:22:54.000Z</time>
      </trkpt>
      <trkpt lon="7.118531931191683" lat="46.14054794423282">
        <ele>466.20001220703125</ele>
        <time>2013-04-07T09:23:01.000Z</time>
      </trkpt>
      <trkpt lon="7.118409974500537" lat="46.14045096561313">
        <ele>465.79998779296875</ele>
        <time>2013-04-07T09:23:04.000Z</time>
      </trkpt>
      <trkpt lon="7.118076961487532" lat="46.14020294509828">
        <ele>466.0</ele>
        <time>2013-04-07T09:23:11.000Z</time>
      </trkpt>
      <trkpt lon="7.117674965411425" lat="46.13990195095539">
        <ele>466.3999938964844</ele>
        <time>2013-04-07T09:23:20.000Z</time>
      </trkpt>
      <trkpt lon="7.117411941289902" lat="46.13970497623086">
        <ele>467.0</ele>
        <time>2013-04-07T09:23:27.000Z</time>
      </trkpt>
      <trkpt lon="7.117168949916959" lat="46.139521999284625">
        <ele>467.79998779296875</ele>
        <time>2013-04-07T09:23:35.000Z</time>
      </trkpt>
      <trkpt lon="7.117123939096928" lat="46.13948897458613">
        <ele>467.79998779296875</ele>
        <time>2013-04-07T09:23:40.000Z</time>
      </trkpt>
      <trkpt lon="7.117254948243499" lat="46.139309937134385">
        <ele>466.20001220703125</ele>
        <time>2013-04-07T09:23:44.000Z</time>
      </trkpt>
      <trkpt lon="7.117303982377052" lat="46.139241959899664">
        <ele>465.3999938964844</ele>
        <time>2013-04-07T09:23:46.000Z</time>
      </trkpt>
      <trkpt lon="7.1173439640551805" lat="46.13903895020485">
        <ele>464.20001220703125</ele>
        <time>2013-04-07T09:23:51.000Z</time>
      </trkpt>
      <trkpt lon="7.117044981569052" lat="46.13887491635978">
        <ele>464.6000061035156</ele>
        <time>2013-04-07T09:23:58.000Z</time>
      </trkpt>
      <trkpt lon="7.116934927180409" lat="46.13879092969">
        <ele>464.3999938964844</ele>
        <time>2013-04-07T09:24:01.000Z</time>
      </trkpt>
      <trkpt lon="7.117046993225813" lat="46.138663943856955">
        <ele>463.20001220703125</ele>
        <time>2013-04-07T09:24:05.000Z</time>
      </trkpt>
      <trkpt lon="7.117255954071879" lat="46.13854098133743">
        <ele>462.0</ele>
        <time>2013-04-07T09:24:10.000Z</time>
      </trkpt>
      <trkpt lon="7.117333989590406" lat="46.13848599605262">
        <ele>461.6000061035156</ele>
        <time>2013-04-07T09:24:13.000Z</time>
      </trkpt>
      <trkpt lon="7.117289984598756" lat="46.138365967199206">
        <ele>461.0</ele>
        <time>2013-04-07T09:24:18.000Z</time>
      </trkpt>
      <trkpt lon="7.1171339973807335" lat="46.138193970546126">
        <ele>461.20001220703125</ele>
        <time>2013-04-07T09:24:25.000Z</time>
      </trkpt>
      <trkpt lon="7.116959989070892" lat="46.13799397833645">
        <ele>461.3999938964844</ele>
        <time>2013-04-07T09:24:34.000Z</time>
      </trkpt>
      <trkpt lon="7.116780951619148" lat="46.13792197778821">
        <ele>461.3999938964844</ele>
        <time>2013-04-07T09:24:40.000Z</time>
      </trkpt>
    </trkseg>
  </trk>
</gpx>
